<?xml version="1.0" encoding="UTF-8" standalone="no" ?>
<gpx xmlns="http://www.topografix.com/GPX/1/1" xmlns:xsi="http://www.w3.org/2001/XMLSchema-instance" xsi:schemaLocation="http://www.topografix.com/GPX/1/1 http://www.topografix.com/GPX/1/1/gpx.xsd" version="1.1" creator="VisuGPX - https://www.visugpx.com">
  <metadata>
    <name>Lozeron croix de Vellan</name>
    <desc><![CDATA[File with points/tracks from Locus Map/3.37.0]]></desc>
  </metadata>
  <trk>
    <name><![CDATA[F26400 Lozeron croix de Vellan R2000]]></name>
    <trkseg>
      <trkpt lat="44.79247" lon="5.13949">
        <ele>448.55</ele>
        <time>2019-03-20T08:00:16.000Z</time>
      </trkpt>
      <trkpt lat="44.79255" lon="5.13943">
        <ele>449.45</ele>
        <time>2019-03-20T08:04:12.000Z</time>
      </trkpt>
      <trkpt lat="44.79264" lon="5.13946">
        <ele>449.71</ele>
        <time>2019-03-20T08:04:24.000Z</time>
      </trkpt>
      <trkpt lat="44.79273" lon="5.13948">
        <ele>450.14</ele>
        <time>2019-03-20T08:04:38.000Z</time>
      </trkpt>
      <trkpt lat="44.79283" lon="5.13948">
        <ele>450.83</ele>
        <time>2019-03-20T08:05:22.000Z</time>
      </trkpt>
      <trkpt lat="44.79292" lon="5.1395">
        <ele>451.27</ele>
        <time>2019-03-20T08:05:32.000Z</time>
      </trkpt>
      <trkpt lat="44.79301" lon="5.13954">
        <ele>451.52</ele>
        <time>2019-03-20T08:05:43.000Z</time>
      </trkpt>
      <trkpt lat="44.79311" lon="5.13954">
        <ele>452.06</ele>
        <time>2019-03-20T08:05:53.000Z</time>
      </trkpt>
      <trkpt lat="44.79321" lon="5.13957">
        <ele>452.21</ele>
        <time>2019-03-20T08:06:04.000Z</time>
      </trkpt>
      <trkpt lat="44.79331" lon="5.13957">
        <ele>452.57</ele>
        <time>2019-03-20T08:06:15.000Z</time>
      </trkpt>
      <trkpt lat="44.79341" lon="5.13956">
        <ele>452.82</ele>
        <time>2019-03-20T08:06:25.000Z</time>
      </trkpt>
      <trkpt lat="44.79351" lon="5.13954">
        <ele>453.23</ele>
        <time>2019-03-20T08:06:36.000Z</time>
      </trkpt>
      <trkpt lat="44.7936" lon="5.13955">
        <ele>452.93</ele>
        <time>2019-03-20T08:06:47.000Z</time>
      </trkpt>
      <trkpt lat="44.79371" lon="5.13956">
        <ele>452.64</ele>
        <time>2019-03-20T08:06:57.000Z</time>
      </trkpt>
      <trkpt lat="44.79381" lon="5.13955">
        <ele>452.6</ele>
        <time>2019-03-20T08:07:09.000Z</time>
      </trkpt>
      <trkpt lat="44.7939" lon="5.13956">
        <ele>452.32</ele>
        <time>2019-03-20T08:07:20.000Z</time>
      </trkpt>
      <trkpt lat="44.79403" lon="5.13955">
        <ele>452.06</ele>
        <time>2019-03-20T08:07:30.000Z</time>
      </trkpt>
      <trkpt lat="44.79415" lon="5.13955">
        <ele>451.69</ele>
        <time>2019-03-20T08:07:40.000Z</time>
      </trkpt>
      <trkpt lat="44.79425" lon="5.13954">
        <ele>451.43</ele>
        <time>2019-03-20T08:07:50.000Z</time>
      </trkpt>
      <trkpt lat="44.79436" lon="5.13952">
        <ele>451.31</ele>
        <time>2019-03-20T08:08:00.000Z</time>
      </trkpt>
      <trkpt lat="44.79448" lon="5.13947">
        <ele>451.36</ele>
        <time>2019-03-20T08:08:10.000Z</time>
      </trkpt>
      <trkpt lat="44.79459" lon="5.13941">
        <ele>451.57</ele>
        <time>2019-03-20T08:08:20.000Z</time>
      </trkpt>
      <trkpt lat="44.79469" lon="5.13932">
        <ele>452.16</ele>
        <time>2019-03-20T08:08:30.000Z</time>
      </trkpt>
      <trkpt lat="44.79479" lon="5.13921">
        <ele>453.07</ele>
        <time>2019-03-20T08:08:40.000Z</time>
      </trkpt>
      <trkpt lat="44.79491" lon="5.13911">
        <ele>454.19</ele>
        <time>2019-03-20T08:08:50.000Z</time>
      </trkpt>
      <trkpt lat="44.79505" lon="5.13904">
        <ele>456</ele>
        <time>2019-03-20T08:09:00.000Z</time>
      </trkpt>
      <trkpt lat="44.79516" lon="5.13898">
        <ele>457.86</ele>
        <time>2019-03-20T08:09:10.000Z</time>
      </trkpt>
      <trkpt lat="44.79529" lon="5.13902">
        <ele>458.28</ele>
        <time>2019-03-20T08:09:20.000Z</time>
      </trkpt>
      <trkpt lat="44.79534" lon="5.13915">
        <ele>457.14</ele>
        <time>2019-03-20T08:09:30.000Z</time>
      </trkpt>
      <trkpt lat="44.79535" lon="5.13931">
        <ele>455.27</ele>
        <time>2019-03-20T08:09:40.000Z</time>
      </trkpt>
      <trkpt lat="44.79538" lon="5.13947">
        <ele>453.46</ele>
        <time>2019-03-20T08:09:50.000Z</time>
      </trkpt>
      <trkpt lat="44.79549" lon="5.13961">
        <ele>453.3</ele>
        <time>2019-03-20T08:10:00.000Z</time>
      </trkpt>
      <trkpt lat="44.7956" lon="5.13971">
        <ele>453.43</ele>
        <time>2019-03-20T08:10:10.000Z</time>
      </trkpt>
      <trkpt lat="44.79569" lon="5.13977">
        <ele>453.92</ele>
        <time>2019-03-20T08:10:20.000Z</time>
      </trkpt>
      <trkpt lat="44.79579" lon="5.13986">
        <ele>453.98</ele>
        <time>2019-03-20T08:10:30.000Z</time>
      </trkpt>
      <trkpt lat="44.79588" lon="5.13992">
        <ele>454.48</ele>
        <time>2019-03-20T08:10:40.000Z</time>
      </trkpt>
      <trkpt lat="44.79596" lon="5.14">
        <ele>454.87</ele>
        <time>2019-03-20T08:10:50.000Z</time>
      </trkpt>
      <trkpt lat="44.79605" lon="5.14003">
        <ele>455.98</ele>
        <time>2019-03-20T08:11:09.000Z</time>
      </trkpt>
      <trkpt lat="44.79615" lon="5.1401">
        <ele>457.26</ele>
        <time>2019-03-20T08:11:19.000Z</time>
      </trkpt>
      <trkpt lat="44.79625" lon="5.14017">
        <ele>458.51</ele>
        <time>2019-03-20T08:11:29.000Z</time>
      </trkpt>
      <trkpt lat="44.79636" lon="5.14023">
        <ele>459.98</ele>
        <time>2019-03-20T08:11:39.000Z</time>
      </trkpt>
      <trkpt lat="44.79648" lon="5.1403">
        <ele>461.55</ele>
        <time>2019-03-20T08:11:49.000Z</time>
      </trkpt>
      <trkpt lat="44.7966" lon="5.14039">
        <ele>462.78</ele>
        <time>2019-03-20T08:11:59.000Z</time>
      </trkpt>
      <trkpt lat="44.79668" lon="5.14046">
        <ele>463.74</ele>
        <time>2019-03-20T08:12:10.000Z</time>
      </trkpt>
      <trkpt lat="44.79679" lon="5.14055">
        <ele>464.77</ele>
        <time>2019-03-20T08:12:20.000Z</time>
      </trkpt>
      <trkpt lat="44.79686" lon="5.14065">
        <ele>465.36</ele>
        <time>2019-03-20T08:12:30.000Z</time>
      </trkpt>
      <trkpt lat="44.79697" lon="5.14073">
        <ele>466.6</ele>
        <time>2019-03-20T08:12:40.000Z</time>
      </trkpt>
      <trkpt lat="44.79706" lon="5.14081">
        <ele>467.48</ele>
        <time>2019-03-20T08:12:50.000Z</time>
      </trkpt>
      <trkpt lat="44.79712" lon="5.14091">
        <ele>467.97</ele>
        <time>2019-03-20T08:13:00.000Z</time>
      </trkpt>
      <trkpt lat="44.79723" lon="5.14101">
        <ele>469.04</ele>
        <time>2019-03-20T08:13:10.000Z</time>
      </trkpt>
      <trkpt lat="44.79733" lon="5.14111">
        <ele>469.94</ele>
        <time>2019-03-20T08:13:20.000Z</time>
      </trkpt>
      <trkpt lat="44.79741" lon="5.1412">
        <ele>470.46</ele>
        <time>2019-03-20T08:13:30.000Z</time>
      </trkpt>
      <trkpt lat="44.79754" lon="5.14128">
        <ele>471.15</ele>
        <time>2019-03-20T08:13:40.000Z</time>
      </trkpt>
      <trkpt lat="44.79766" lon="5.14134">
        <ele>471.53</ele>
        <time>2019-03-20T08:13:50.000Z</time>
      </trkpt>
      <trkpt lat="44.79777" lon="5.14138">
        <ele>471.7</ele>
        <time>2019-03-20T08:14:00.000Z</time>
      </trkpt>
      <trkpt lat="44.79789" lon="5.14139">
        <ele>471.97</ele>
        <time>2019-03-20T08:14:10.000Z</time>
      </trkpt>
      <trkpt lat="44.79801" lon="5.14138">
        <ele>472.32</ele>
        <time>2019-03-20T08:14:20.000Z</time>
      </trkpt>
      <trkpt lat="44.79813" lon="5.14137">
        <ele>472.79</ele>
        <time>2019-03-20T08:14:30.000Z</time>
      </trkpt>
      <trkpt lat="44.79825" lon="5.14138">
        <ele>473.36</ele>
        <time>2019-03-20T08:14:40.000Z</time>
      </trkpt>
      <trkpt lat="44.79834" lon="5.14143">
        <ele>473.83</ele>
        <time>2019-03-20T08:14:50.000Z</time>
      </trkpt>
      <trkpt lat="44.79843" lon="5.14148">
        <ele>474.6</ele>
        <time>2019-03-20T08:15:00.000Z</time>
      </trkpt>
      <trkpt lat="44.79851" lon="5.14162">
        <ele>475.24</ele>
        <time>2019-03-20T08:15:10.000Z</time>
      </trkpt>
      <trkpt lat="44.79855" lon="5.1418">
        <ele>476.04</ele>
        <time>2019-03-20T08:15:20.000Z</time>
      </trkpt>
      <trkpt lat="44.79854" lon="5.14198">
        <ele>476.62</ele>
        <time>2019-03-20T08:15:30.000Z</time>
      </trkpt>
      <trkpt lat="44.79855" lon="5.14212">
        <ele>477.56</ele>
        <time>2019-03-20T08:15:45.000Z</time>
      </trkpt>
      <trkpt lat="44.79854" lon="5.14229">
        <ele>478.53</ele>
        <time>2019-03-20T08:15:55.000Z</time>
      </trkpt>
      <trkpt lat="44.79857" lon="5.14243">
        <ele>480.1</ele>
        <time>2019-03-20T08:16:05.000Z</time>
      </trkpt>
      <trkpt lat="44.79857" lon="5.14256">
        <ele>481.2</ele>
        <time>2019-03-20T08:16:15.000Z</time>
      </trkpt>
      <trkpt lat="44.7986" lon="5.14274">
        <ele>483.48</ele>
        <time>2019-03-20T08:16:25.000Z</time>
      </trkpt>
      <trkpt lat="44.79861" lon="5.14287">
        <ele>485.11</ele>
        <time>2019-03-20T08:16:35.000Z</time>
      </trkpt>
      <trkpt lat="44.79864" lon="5.143">
        <ele>487.38</ele>
        <time>2019-03-20T08:16:45.000Z</time>
      </trkpt>
      <trkpt lat="44.79864" lon="5.14316">
        <ele>488.68</ele>
        <time>2019-03-20T08:16:55.000Z</time>
      </trkpt>
      <trkpt lat="44.79862" lon="5.14331">
        <ele>488.75</ele>
        <time>2019-03-20T08:17:05.000Z</time>
      </trkpt>
      <trkpt lat="44.79861" lon="5.14347">
        <ele>488.68</ele>
        <time>2019-03-20T08:17:15.000Z</time>
      </trkpt>
      <trkpt lat="44.79862" lon="5.14367">
        <ele>488.55</ele>
        <time>2019-03-20T08:17:25.000Z</time>
      </trkpt>
      <trkpt lat="44.79866" lon="5.14385">
        <ele>489.36</ele>
        <time>2019-03-20T08:17:35.000Z</time>
      </trkpt>
      <trkpt lat="44.79868" lon="5.14397">
        <ele>489.75</ele>
        <time>2019-03-20T08:17:45.000Z</time>
      </trkpt>
      <trkpt lat="44.79874" lon="5.14414">
        <ele>490.73</ele>
        <time>2019-03-20T08:17:55.000Z</time>
      </trkpt>
      <trkpt lat="44.79876" lon="5.14428">
        <ele>490.78</ele>
        <time>2019-03-20T08:18:05.000Z</time>
      </trkpt>
      <trkpt lat="44.7988" lon="5.14442">
        <ele>490.65</ele>
        <time>2019-03-20T08:18:15.000Z</time>
      </trkpt>
      <trkpt lat="44.79883" lon="5.14458">
        <ele>490.02</ele>
        <time>2019-03-20T08:18:25.000Z</time>
      </trkpt>
      <trkpt lat="44.79888" lon="5.14473">
        <ele>490.07</ele>
        <time>2019-03-20T08:18:35.000Z</time>
      </trkpt>
      <trkpt lat="44.79895" lon="5.14486">
        <ele>491.51</ele>
        <time>2019-03-20T08:18:45.000Z</time>
      </trkpt>
      <trkpt lat="44.79901" lon="5.14501">
        <ele>491.77</ele>
        <time>2019-03-20T08:18:55.000Z</time>
      </trkpt>
      <trkpt lat="44.79906" lon="5.14515">
        <ele>492.08</ele>
        <time>2019-03-20T08:19:05.000Z</time>
      </trkpt>
      <trkpt lat="44.79913" lon="5.14532">
        <ele>492.13</ele>
        <time>2019-03-20T08:19:15.000Z</time>
      </trkpt>
      <trkpt lat="44.79918" lon="5.14546">
        <ele>491.92</ele>
        <time>2019-03-20T08:19:25.000Z</time>
      </trkpt>
      <trkpt lat="44.79924" lon="5.1456">
        <ele>492.49</ele>
        <time>2019-03-20T08:19:35.000Z</time>
      </trkpt>
      <trkpt lat="44.79927" lon="5.14574">
        <ele>491.19</ele>
        <time>2019-03-20T08:19:45.000Z</time>
      </trkpt>
      <trkpt lat="44.79932" lon="5.14587">
        <ele>491.93</ele>
        <time>2019-03-20T08:19:55.000Z</time>
      </trkpt>
      <trkpt lat="44.79934" lon="5.14601">
        <ele>491.04</ele>
        <time>2019-03-20T08:20:05.000Z</time>
      </trkpt>
      <trkpt lat="44.79941" lon="5.14611">
        <ele>493.59</ele>
        <time>2019-03-20T08:20:24.000Z</time>
      </trkpt>
      <trkpt lat="44.79945" lon="5.14626">
        <ele>494.12</ele>
        <time>2019-03-20T08:20:34.000Z</time>
      </trkpt>
      <trkpt lat="44.79949" lon="5.1464">
        <ele>494.66</ele>
        <time>2019-03-20T08:20:44.000Z</time>
      </trkpt>
      <trkpt lat="44.79954" lon="5.14651">
        <ele>496</ele>
        <time>2019-03-20T08:20:54.000Z</time>
      </trkpt>
      <trkpt lat="44.7996" lon="5.14661">
        <ele>497.81</ele>
        <time>2019-03-20T08:21:04.000Z</time>
      </trkpt>
      <trkpt lat="44.79965" lon="5.14673">
        <ele>497.97</ele>
        <time>2019-03-20T08:21:14.000Z</time>
      </trkpt>
      <trkpt lat="44.7997" lon="5.14685">
        <ele>498.01</ele>
        <time>2019-03-20T08:21:24.000Z</time>
      </trkpt>
      <trkpt lat="44.79973" lon="5.14698">
        <ele>496.85</ele>
        <time>2019-03-20T08:21:34.000Z</time>
      </trkpt>
      <trkpt lat="44.79982" lon="5.1471">
        <ele>498.39</ele>
        <time>2019-03-20T08:21:44.000Z</time>
      </trkpt>
      <trkpt lat="44.79988" lon="5.14722">
        <ele>498.56</ele>
        <time>2019-03-20T08:21:54.000Z</time>
      </trkpt>
      <trkpt lat="44.79996" lon="5.14729">
        <ele>501.54</ele>
        <time>2019-03-20T08:22:04.000Z</time>
      </trkpt>
      <trkpt lat="44.80004" lon="5.14742">
        <ele>503.24</ele>
        <time>2019-03-20T08:22:14.000Z</time>
      </trkpt>
      <trkpt lat="44.80008" lon="5.14756">
        <ele>502.99</ele>
        <time>2019-03-20T08:22:24.000Z</time>
      </trkpt>
      <trkpt lat="44.80012" lon="5.14767">
        <ele>503.71</ele>
        <time>2019-03-20T08:22:34.000Z</time>
      </trkpt>
      <trkpt lat="44.80017" lon="5.1478">
        <ele>504.68</ele>
        <time>2019-03-20T08:22:44.000Z</time>
      </trkpt>
      <trkpt lat="44.80024" lon="5.1479">
        <ele>508.13</ele>
        <time>2019-03-20T08:22:54.000Z</time>
      </trkpt>
      <trkpt lat="44.80027" lon="5.14806">
        <ele>507.6</ele>
        <time>2019-03-20T08:23:04.000Z</time>
      </trkpt>
      <trkpt lat="44.80031" lon="5.14818">
        <ele>508.66</ele>
        <time>2019-03-20T08:23:14.000Z</time>
      </trkpt>
      <trkpt lat="44.80037" lon="5.1483">
        <ele>511.43</ele>
        <time>2019-03-20T08:23:24.000Z</time>
      </trkpt>
      <trkpt lat="44.80044" lon="5.14843">
        <ele>513.69</ele>
        <time>2019-03-20T08:23:34.000Z</time>
      </trkpt>
      <trkpt lat="44.80049" lon="5.14857">
        <ele>514.69</ele>
        <time>2019-03-20T08:23:44.000Z</time>
      </trkpt>
      <trkpt lat="44.80055" lon="5.14869">
        <ele>515.74</ele>
        <time>2019-03-20T08:23:54.000Z</time>
      </trkpt>
      <trkpt lat="44.8006" lon="5.14883">
        <ele>514.51</ele>
        <time>2019-03-20T08:24:04.000Z</time>
      </trkpt>
      <trkpt lat="44.80064" lon="5.14897">
        <ele>512.53</ele>
        <time>2019-03-20T08:24:14.000Z</time>
      </trkpt>
      <trkpt lat="44.80068" lon="5.14909">
        <ele>510.25</ele>
        <time>2019-03-20T08:24:49.000Z</time>
      </trkpt>
      <trkpt lat="44.80074" lon="5.14919">
        <ele>509.68</ele>
        <time>2019-03-20T08:24:59.000Z</time>
      </trkpt>
      <trkpt lat="44.80082" lon="5.14926">
        <ele>510.5</ele>
        <time>2019-03-20T08:25:16.000Z</time>
      </trkpt>
      <trkpt lat="44.80093" lon="5.14934">
        <ele>510.97</ele>
        <time>2019-03-20T08:25:26.000Z</time>
      </trkpt>
      <trkpt lat="44.80104" lon="5.14938">
        <ele>511.93</ele>
        <time>2019-03-20T08:25:36.000Z</time>
      </trkpt>
      <trkpt lat="44.80116" lon="5.14942">
        <ele>512.34</ele>
        <time>2019-03-20T08:25:46.000Z</time>
      </trkpt>
      <trkpt lat="44.80128" lon="5.14942">
        <ele>515.09</ele>
        <time>2019-03-20T08:25:56.000Z</time>
      </trkpt>
      <trkpt lat="44.80139" lon="5.14945">
        <ele>515.53</ele>
        <time>2019-03-20T08:26:06.000Z</time>
      </trkpt>
      <trkpt lat="44.80153" lon="5.14945">
        <ele>518.03</ele>
        <time>2019-03-20T08:26:16.000Z</time>
      </trkpt>
      <trkpt lat="44.80163" lon="5.14947">
        <ele>519.34</ele>
        <time>2019-03-20T08:26:26.000Z</time>
      </trkpt>
      <trkpt lat="44.80176" lon="5.14953">
        <ele>518.99</ele>
        <time>2019-03-20T08:26:36.000Z</time>
      </trkpt>
      <trkpt lat="44.80188" lon="5.14961">
        <ele>517.99</ele>
        <time>2019-03-20T08:26:46.000Z</time>
      </trkpt>
      <trkpt lat="44.80198" lon="5.14969">
        <ele>516.31</ele>
        <time>2019-03-20T08:26:56.000Z</time>
      </trkpt>
      <trkpt lat="44.80208" lon="5.14975">
        <ele>515.79</ele>
        <time>2019-03-20T08:27:06.000Z</time>
      </trkpt>
      <trkpt lat="44.80219" lon="5.14978">
        <ele>517.16</ele>
        <time>2019-03-20T08:27:16.000Z</time>
      </trkpt>
      <trkpt lat="44.80229" lon="5.14979">
        <ele>519.23</ele>
        <time>2019-03-20T08:27:26.000Z</time>
      </trkpt>
      <trkpt lat="44.80242" lon="5.14976">
        <ele>523.1</ele>
        <time>2019-03-20T08:27:36.000Z</time>
      </trkpt>
      <trkpt lat="44.80251" lon="5.14976">
        <ele>524.07</ele>
        <time>2019-03-20T08:27:48.000Z</time>
      </trkpt>
      <trkpt lat="44.80262" lon="5.14974">
        <ele>525.51</ele>
        <time>2019-03-20T08:27:58.000Z</time>
      </trkpt>
      <trkpt lat="44.80271" lon="5.14974">
        <ele>525.44</ele>
        <time>2019-03-20T08:28:08.000Z</time>
      </trkpt>
      <trkpt lat="44.80281" lon="5.14974">
        <ele>524.45</ele>
        <time>2019-03-20T08:28:18.000Z</time>
      </trkpt>
      <trkpt lat="44.80292" lon="5.14973">
        <ele>524.25</ele>
        <time>2019-03-20T08:28:28.000Z</time>
      </trkpt>
      <trkpt lat="44.80302" lon="5.1497">
        <ele>524.44</ele>
        <time>2019-03-20T08:28:38.000Z</time>
      </trkpt>
      <trkpt lat="44.80313" lon="5.14968">
        <ele>523.8</ele>
        <time>2019-03-20T08:28:48.000Z</time>
      </trkpt>
      <trkpt lat="44.80323" lon="5.14965">
        <ele>523.66</ele>
        <time>2019-03-20T08:28:58.000Z</time>
      </trkpt>
      <trkpt lat="44.80332" lon="5.1496">
        <ele>524.88</ele>
        <time>2019-03-20T08:29:09.000Z</time>
      </trkpt>
      <trkpt lat="44.80341" lon="5.14954">
        <ele>526.36</ele>
        <time>2019-03-20T08:29:20.000Z</time>
      </trkpt>
      <trkpt lat="44.80349" lon="5.14944">
        <ele>530.57</ele>
        <time>2019-03-20T08:29:31.000Z</time>
      </trkpt>
      <trkpt lat="44.80355" lon="5.14932">
        <ele>535.83</ele>
        <time>2019-03-20T08:29:41.000Z</time>
      </trkpt>
      <trkpt lat="44.80365" lon="5.14925">
        <ele>537.41</ele>
        <time>2019-03-20T08:29:51.000Z</time>
      </trkpt>
      <trkpt lat="44.80376" lon="5.14919">
        <ele>537.75</ele>
        <time>2019-03-20T08:30:01.000Z</time>
      </trkpt>
      <trkpt lat="44.80384" lon="5.14914">
        <ele>538.65</ele>
        <time>2019-03-20T08:30:13.000Z</time>
      </trkpt>
      <trkpt lat="44.80394" lon="5.14915">
        <ele>535.76</ele>
        <time>2019-03-20T08:33:48.000Z</time>
      </trkpt>
      <trkpt lat="44.80403" lon="5.14912">
        <ele>535.6</ele>
        <time>2019-03-20T08:33:58.000Z</time>
      </trkpt>
      <trkpt lat="44.80413" lon="5.14911">
        <ele>534.86</ele>
        <time>2019-03-20T08:34:11.000Z</time>
      </trkpt>
      <trkpt lat="44.80422" lon="5.14907">
        <ele>536.39</ele>
        <time>2019-03-20T08:34:24.000Z</time>
      </trkpt>
      <trkpt lat="44.80433" lon="5.14904">
        <ele>537.98</ele>
        <time>2019-03-20T08:34:34.000Z</time>
      </trkpt>
      <trkpt lat="44.80445" lon="5.149">
        <ele>540.28</ele>
        <time>2019-03-20T08:34:44.000Z</time>
      </trkpt>
      <trkpt lat="44.80455" lon="5.14898">
        <ele>541.54</ele>
        <time>2019-03-20T08:34:54.000Z</time>
      </trkpt>
      <trkpt lat="44.80466" lon="5.14894">
        <ele>544.16</ele>
        <time>2019-03-20T08:35:04.000Z</time>
      </trkpt>
      <trkpt lat="44.80477" lon="5.14892">
        <ele>545.52</ele>
        <time>2019-03-20T08:35:14.000Z</time>
      </trkpt>
      <trkpt lat="44.80488" lon="5.14889">
        <ele>547.64</ele>
        <time>2019-03-20T08:35:24.000Z</time>
      </trkpt>
      <trkpt lat="44.80499" lon="5.14886">
        <ele>548.9</ele>
        <time>2019-03-20T08:35:34.000Z</time>
      </trkpt>
      <trkpt lat="44.80511" lon="5.14884">
        <ele>549.35</ele>
        <time>2019-03-20T08:35:44.000Z</time>
      </trkpt>
      <trkpt lat="44.8052" lon="5.14883">
        <ele>550.13</ele>
        <time>2019-03-20T08:35:54.000Z</time>
      </trkpt>
      <trkpt lat="44.8053" lon="5.14884">
        <ele>549.33</ele>
        <time>2019-03-20T08:36:04.000Z</time>
      </trkpt>
      <trkpt lat="44.80541" lon="5.1488">
        <ele>551.32</ele>
        <time>2019-03-20T08:36:14.000Z</time>
      </trkpt>
      <trkpt lat="44.80552" lon="5.14877">
        <ele>552.52</ele>
        <time>2019-03-20T08:36:24.000Z</time>
      </trkpt>
      <trkpt lat="44.80562" lon="5.14873">
        <ele>553.9</ele>
        <time>2019-03-20T08:36:34.000Z</time>
      </trkpt>
      <trkpt lat="44.80573" lon="5.14873">
        <ele>552.35</ele>
        <time>2019-03-20T08:36:44.000Z</time>
      </trkpt>
      <trkpt lat="44.80583" lon="5.14871">
        <ele>551.69</ele>
        <time>2019-03-20T08:36:56.000Z</time>
      </trkpt>
      <trkpt lat="44.80592" lon="5.14867">
        <ele>550.86</ele>
        <time>2019-03-20T08:37:06.000Z</time>
      </trkpt>
      <trkpt lat="44.80602" lon="5.14862">
        <ele>549.88</ele>
        <time>2019-03-20T08:37:16.000Z</time>
      </trkpt>
      <trkpt lat="44.80611" lon="5.14853">
        <ele>550.67</ele>
        <time>2019-03-20T08:37:26.000Z</time>
      </trkpt>
      <trkpt lat="44.80617" lon="5.14842">
        <ele>552.73</ele>
        <time>2019-03-20T08:37:36.000Z</time>
      </trkpt>
      <trkpt lat="44.80624" lon="5.14829">
        <ele>555.03</ele>
        <time>2019-03-20T08:37:46.000Z</time>
      </trkpt>
      <trkpt lat="44.80631" lon="5.14817">
        <ele>556.72</ele>
        <time>2019-03-20T08:37:56.000Z</time>
      </trkpt>
      <trkpt lat="44.80635" lon="5.14804">
        <ele>559.72</ele>
        <time>2019-03-20T08:38:06.000Z</time>
      </trkpt>
      <trkpt lat="44.80644" lon="5.14794">
        <ele>559.5</ele>
        <time>2019-03-20T08:38:16.000Z</time>
      </trkpt>
      <trkpt lat="44.80652" lon="5.14786">
        <ele>558.41</ele>
        <time>2019-03-20T08:38:26.000Z</time>
      </trkpt>
      <trkpt lat="44.8066" lon="5.14777">
        <ele>558.81</ele>
        <time>2019-03-20T08:38:36.000Z</time>
      </trkpt>
      <trkpt lat="44.80671" lon="5.1477">
        <ele>557.62</ele>
        <time>2019-03-20T08:38:46.000Z</time>
      </trkpt>
      <trkpt lat="44.80683" lon="5.1476">
        <ele>557.64</ele>
        <time>2019-03-20T08:38:56.000Z</time>
      </trkpt>
      <trkpt lat="44.80692" lon="5.14752">
        <ele>558.84</ele>
        <time>2019-03-20T08:39:06.000Z</time>
      </trkpt>
      <trkpt lat="44.80699" lon="5.14742">
        <ele>561.83</ele>
        <time>2019-03-20T08:39:17.000Z</time>
      </trkpt>
      <trkpt lat="44.80714" lon="5.14738">
        <ele>559.66</ele>
        <time>2019-03-20T08:39:27.000Z</time>
      </trkpt>
      <trkpt lat="44.80724" lon="5.14732">
        <ele>559.98</ele>
        <time>2019-03-20T08:39:37.000Z</time>
      </trkpt>
      <trkpt lat="44.80736" lon="5.14725">
        <ele>560.25</ele>
        <time>2019-03-20T08:39:47.000Z</time>
      </trkpt>
      <trkpt lat="44.80747" lon="5.14717">
        <ele>561.42</ele>
        <time>2019-03-20T08:39:57.000Z</time>
      </trkpt>
      <trkpt lat="44.80757" lon="5.14711">
        <ele>561.88</ele>
        <time>2019-03-20T08:40:07.000Z</time>
      </trkpt>
      <trkpt lat="44.80765" lon="5.14704">
        <ele>563.16</ele>
        <time>2019-03-20T08:40:17.000Z</time>
      </trkpt>
      <trkpt lat="44.80776" lon="5.14696">
        <ele>564.02</ele>
        <time>2019-03-20T08:40:27.000Z</time>
      </trkpt>
      <trkpt lat="44.80786" lon="5.14687">
        <ele>565.65</ele>
        <time>2019-03-20T08:40:37.000Z</time>
      </trkpt>
      <trkpt lat="44.80795" lon="5.1468">
        <ele>566.37</ele>
        <time>2019-03-20T08:40:47.000Z</time>
      </trkpt>
      <trkpt lat="44.80803" lon="5.14674">
        <ele>567.21</ele>
        <time>2019-03-20T08:40:59.000Z</time>
      </trkpt>
      <trkpt lat="44.80812" lon="5.14665">
        <ele>568.79</ele>
        <time>2019-03-20T08:41:09.000Z</time>
      </trkpt>
      <trkpt lat="44.80823" lon="5.14657">
        <ele>569.65</ele>
        <time>2019-03-20T08:41:19.000Z</time>
      </trkpt>
      <trkpt lat="44.80832" lon="5.14651">
        <ele>570.15</ele>
        <time>2019-03-20T08:41:29.000Z</time>
      </trkpt>
      <trkpt lat="44.80841" lon="5.14644">
        <ele>571.28</ele>
        <time>2019-03-20T08:41:39.000Z</time>
      </trkpt>
      <trkpt lat="44.80851" lon="5.14634">
        <ele>573.65</ele>
        <time>2019-03-20T08:41:49.000Z</time>
      </trkpt>
      <trkpt lat="44.80861" lon="5.14629">
        <ele>573.66</ele>
        <time>2019-03-20T08:41:59.000Z</time>
      </trkpt>
      <trkpt lat="44.8087" lon="5.14626">
        <ele>573.03</ele>
        <time>2019-03-20T08:42:09.000Z</time>
      </trkpt>
      <trkpt lat="44.80879" lon="5.14621">
        <ele>573.82</ele>
        <time>2019-03-20T08:42:19.000Z</time>
      </trkpt>
      <trkpt lat="44.8089" lon="5.14616">
        <ele>574.86</ele>
        <time>2019-03-20T08:42:29.000Z</time>
      </trkpt>
      <trkpt lat="44.80898" lon="5.1461">
        <ele>576.41</ele>
        <time>2019-03-20T08:42:40.000Z</time>
      </trkpt>
      <trkpt lat="44.80908" lon="5.14603">
        <ele>579.15</ele>
        <time>2019-03-20T08:42:50.000Z</time>
      </trkpt>
      <trkpt lat="44.80918" lon="5.14599">
        <ele>580.13</ele>
        <time>2019-03-20T08:43:00.000Z</time>
      </trkpt>
      <trkpt lat="44.80927" lon="5.14594">
        <ele>581.76</ele>
        <time>2019-03-20T08:43:10.000Z</time>
      </trkpt>
      <trkpt lat="44.80936" lon="5.14591">
        <ele>582.38</ele>
        <time>2019-03-20T08:43:22.000Z</time>
      </trkpt>
      <trkpt lat="44.80948" lon="5.14586">
        <ele>583.37</ele>
        <time>2019-03-20T08:43:32.000Z</time>
      </trkpt>
      <trkpt lat="44.8096" lon="5.14585">
        <ele>582.76</ele>
        <time>2019-03-20T08:43:42.000Z</time>
      </trkpt>
      <trkpt lat="44.80971" lon="5.1458">
        <ele>584.13</ele>
        <time>2019-03-20T08:43:52.000Z</time>
      </trkpt>
      <trkpt lat="44.80984" lon="5.14575">
        <ele>585.27</ele>
        <time>2019-03-20T08:44:02.000Z</time>
      </trkpt>
      <trkpt lat="44.80993" lon="5.14571">
        <ele>586.2</ele>
        <time>2019-03-20T08:44:12.000Z</time>
      </trkpt>
      <trkpt lat="44.81002" lon="5.1457">
        <ele>585.58</ele>
        <time>2019-03-20T08:44:22.000Z</time>
      </trkpt>
      <trkpt lat="44.81013" lon="5.1457">
        <ele>584.76</ele>
        <time>2019-03-20T08:44:32.000Z</time>
      </trkpt>
      <trkpt lat="44.81024" lon="5.14571">
        <ele>583.5</ele>
        <time>2019-03-20T08:44:42.000Z</time>
      </trkpt>
      <trkpt lat="44.81034" lon="5.14572">
        <ele>582.51</ele>
        <time>2019-03-20T08:44:52.000Z</time>
      </trkpt>
      <trkpt lat="44.81046" lon="5.14571">
        <ele>582.38</ele>
        <time>2019-03-20T08:45:02.000Z</time>
      </trkpt>
      <trkpt lat="44.81056" lon="5.14567">
        <ele>582.81</ele>
        <time>2019-03-20T08:45:14.000Z</time>
      </trkpt>
      <trkpt lat="44.81068" lon="5.14564">
        <ele>581.9</ele>
        <time>2019-03-20T08:45:24.000Z</time>
      </trkpt>
      <trkpt lat="44.8108" lon="5.14555">
        <ele>581.66</ele>
        <time>2019-03-20T08:45:34.000Z</time>
      </trkpt>
      <trkpt lat="44.81088" lon="5.14542">
        <ele>581.69</ele>
        <time>2019-03-20T08:45:44.000Z</time>
      </trkpt>
      <trkpt lat="44.81094" lon="5.14529">
        <ele>581.92</ele>
        <time>2019-03-20T08:45:54.000Z</time>
      </trkpt>
      <trkpt lat="44.81099" lon="5.14512">
        <ele>583.47</ele>
        <time>2019-03-20T08:46:04.000Z</time>
      </trkpt>
      <trkpt lat="44.81104" lon="5.14498">
        <ele>584.14</ele>
        <time>2019-03-20T08:46:14.000Z</time>
      </trkpt>
      <trkpt lat="44.81109" lon="5.1448">
        <ele>585.43</ele>
        <time>2019-03-20T08:46:24.000Z</time>
      </trkpt>
      <trkpt lat="44.81114" lon="5.14463">
        <ele>586.32</ele>
        <time>2019-03-20T08:46:34.000Z</time>
      </trkpt>
      <trkpt lat="44.81119" lon="5.14446">
        <ele>587.31</ele>
        <time>2019-03-20T08:46:44.000Z</time>
      </trkpt>
      <trkpt lat="44.81126" lon="5.14435">
        <ele>587.41</ele>
        <time>2019-03-20T08:46:54.000Z</time>
      </trkpt>
      <trkpt lat="44.81136" lon="5.14427">
        <ele>586.76</ele>
        <time>2019-03-20T08:47:04.000Z</time>
      </trkpt>
      <trkpt lat="44.81145" lon="5.14416">
        <ele>587.57</ele>
        <time>2019-03-20T08:47:14.000Z</time>
      </trkpt>
      <trkpt lat="44.81155" lon="5.14408">
        <ele>588.11</ele>
        <time>2019-03-20T08:47:24.000Z</time>
      </trkpt>
      <trkpt lat="44.81164" lon="5.14399">
        <ele>589.53</ele>
        <time>2019-03-20T08:47:34.000Z</time>
      </trkpt>
      <trkpt lat="44.81173" lon="5.14389">
        <ele>591.03</ele>
        <time>2019-03-20T08:47:44.000Z</time>
      </trkpt>
      <trkpt lat="44.81183" lon="5.1438">
        <ele>592.51</ele>
        <time>2019-03-20T08:47:54.000Z</time>
      </trkpt>
      <trkpt lat="44.81192" lon="5.1437">
        <ele>594.35</ele>
        <time>2019-03-20T08:48:04.000Z</time>
      </trkpt>
      <trkpt lat="44.81203" lon="5.14359">
        <ele>596.03</ele>
        <time>2019-03-20T08:48:14.000Z</time>
      </trkpt>
      <trkpt lat="44.81214" lon="5.14353">
        <ele>596.72</ele>
        <time>2019-03-20T08:48:24.000Z</time>
      </trkpt>
      <trkpt lat="44.81223" lon="5.14351">
        <ele>596.44</ele>
        <time>2019-03-20T08:48:34.000Z</time>
      </trkpt>
      <trkpt lat="44.81236" lon="5.14351">
        <ele>595.86</ele>
        <time>2019-03-20T08:48:44.000Z</time>
      </trkpt>
      <trkpt lat="44.81245" lon="5.1435">
        <ele>595.65</ele>
        <time>2019-03-20T08:48:55.000Z</time>
      </trkpt>
      <trkpt lat="44.81258" lon="5.14348">
        <ele>595.53</ele>
        <time>2019-03-20T08:49:05.000Z</time>
      </trkpt>
      <trkpt lat="44.81267" lon="5.14349">
        <ele>595.4</ele>
        <time>2019-03-20T08:49:16.000Z</time>
      </trkpt>
      <trkpt lat="44.81278" lon="5.14347">
        <ele>595.66</ele>
        <time>2019-03-20T08:49:26.000Z</time>
      </trkpt>
      <trkpt lat="44.81289" lon="5.14343">
        <ele>596.65</ele>
        <time>2019-03-20T08:49:36.000Z</time>
      </trkpt>
      <trkpt lat="44.81303" lon="5.14341">
        <ele>597.56</ele>
        <time>2019-03-20T08:49:46.000Z</time>
      </trkpt>
      <trkpt lat="44.81313" lon="5.14339">
        <ele>598.21</ele>
        <time>2019-03-20T08:50:07.000Z</time>
      </trkpt>
      <trkpt lat="44.81327" lon="5.14335">
        <ele>599.51</ele>
        <time>2019-03-20T08:50:17.000Z</time>
      </trkpt>
      <trkpt lat="44.81339" lon="5.14331">
        <ele>600.56</ele>
        <time>2019-03-20T08:50:27.000Z</time>
      </trkpt>
      <trkpt lat="44.8135" lon="5.14329">
        <ele>601.11</ele>
        <time>2019-03-20T08:50:37.000Z</time>
      </trkpt>
      <trkpt lat="44.81362" lon="5.14327">
        <ele>601.75</ele>
        <time>2019-03-20T08:50:47.000Z</time>
      </trkpt>
      <trkpt lat="44.81375" lon="5.14327">
        <ele>601.58</ele>
        <time>2019-03-20T08:50:57.000Z</time>
      </trkpt>
      <trkpt lat="44.81386" lon="5.14326">
        <ele>601.93</ele>
        <time>2019-03-20T08:51:07.000Z</time>
      </trkpt>
      <trkpt lat="44.814" lon="5.14327">
        <ele>601.8</ele>
        <time>2019-03-20T08:51:17.000Z</time>
      </trkpt>
      <trkpt lat="44.81413" lon="5.14332">
        <ele>601.16</ele>
        <time>2019-03-20T08:51:27.000Z</time>
      </trkpt>
      <trkpt lat="44.81427" lon="5.1434">
        <ele>600.38</ele>
        <time>2019-03-20T08:51:37.000Z</time>
      </trkpt>
      <trkpt lat="44.81441" lon="5.14347">
        <ele>600.31</ele>
        <time>2019-03-20T08:51:47.000Z</time>
      </trkpt>
      <trkpt lat="44.81453" lon="5.14353">
        <ele>601.02</ele>
        <time>2019-03-20T08:51:57.000Z</time>
      </trkpt>
      <trkpt lat="44.81463" lon="5.14356">
        <ele>601.96</ele>
        <time>2019-03-20T08:52:07.000Z</time>
      </trkpt>
      <trkpt lat="44.81471" lon="5.14363">
        <ele>601.64</ele>
        <time>2019-03-20T08:52:18.000Z</time>
      </trkpt>
      <trkpt lat="44.81483" lon="5.14367">
        <ele>602.55</ele>
        <time>2019-03-20T08:52:28.000Z</time>
      </trkpt>
      <trkpt lat="44.81495" lon="5.14373">
        <ele>602.69</ele>
        <time>2019-03-20T08:52:38.000Z</time>
      </trkpt>
      <trkpt lat="44.81507" lon="5.14379">
        <ele>602.63</ele>
        <time>2019-03-20T08:52:48.000Z</time>
      </trkpt>
      <trkpt lat="44.81518" lon="5.14387">
        <ele>601.75</ele>
        <time>2019-03-20T08:52:58.000Z</time>
      </trkpt>
      <trkpt lat="44.81529" lon="5.14392">
        <ele>601.54</ele>
        <time>2019-03-20T08:53:08.000Z</time>
      </trkpt>
      <trkpt lat="44.81539" lon="5.14392">
        <ele>602.39</ele>
        <time>2019-03-20T08:53:18.000Z</time>
      </trkpt>
      <trkpt lat="44.81551" lon="5.14394">
        <ele>603.01</ele>
        <time>2019-03-20T08:53:28.000Z</time>
      </trkpt>
      <trkpt lat="44.81562" lon="5.14393">
        <ele>603.84</ele>
        <time>2019-03-20T08:53:38.000Z</time>
      </trkpt>
      <trkpt lat="44.81571" lon="5.14397">
        <ele>603.36</ele>
        <time>2019-03-20T08:53:48.000Z</time>
      </trkpt>
      <trkpt lat="44.81584" lon="5.14395">
        <ele>604.22</ele>
        <time>2019-03-20T08:53:58.000Z</time>
      </trkpt>
      <trkpt lat="44.81593" lon="5.14393">
        <ele>604.58</ele>
        <time>2019-03-20T08:54:08.000Z</time>
      </trkpt>
      <trkpt lat="44.81604" lon="5.14393">
        <ele>604.47</ele>
        <time>2019-03-20T08:54:18.000Z</time>
      </trkpt>
      <trkpt lat="44.81613" lon="5.1439">
        <ele>604.93</ele>
        <time>2019-03-20T08:54:29.000Z</time>
      </trkpt>
      <trkpt lat="44.81626" lon="5.14383">
        <ele>605.95</ele>
        <time>2019-03-20T08:54:39.000Z</time>
      </trkpt>
      <trkpt lat="44.81636" lon="5.14377">
        <ele>606.96</ele>
        <time>2019-03-20T08:54:49.000Z</time>
      </trkpt>
      <trkpt lat="44.81645" lon="5.14374">
        <ele>607.47</ele>
        <time>2019-03-20T08:54:59.000Z</time>
      </trkpt>
      <trkpt lat="44.81661" lon="5.14375">
        <ele>606.93</ele>
        <time>2019-03-20T08:55:09.000Z</time>
      </trkpt>
      <trkpt lat="44.8167" lon="5.14378">
        <ele>606.13</ele>
        <time>2019-03-20T08:55:19.000Z</time>
      </trkpt>
      <trkpt lat="44.81682" lon="5.14379">
        <ele>605.77</ele>
        <time>2019-03-20T08:55:29.000Z</time>
      </trkpt>
      <trkpt lat="44.81693" lon="5.14379">
        <ele>605.9</ele>
        <time>2019-03-20T08:55:39.000Z</time>
      </trkpt>
      <trkpt lat="44.81705" lon="5.1438">
        <ele>605.66</ele>
        <time>2019-03-20T08:55:49.000Z</time>
      </trkpt>
      <trkpt lat="44.81718" lon="5.14383">
        <ele>605.07</ele>
        <time>2019-03-20T08:55:59.000Z</time>
      </trkpt>
      <trkpt lat="44.81727" lon="5.14382">
        <ele>605.74</ele>
        <time>2019-03-20T08:56:09.000Z</time>
      </trkpt>
      <trkpt lat="44.81737" lon="5.14385">
        <ele>605.37</ele>
        <time>2019-03-20T08:56:20.000Z</time>
      </trkpt>
      <trkpt lat="44.81747" lon="5.14386">
        <ele>605.76</ele>
        <time>2019-03-20T08:56:30.000Z</time>
      </trkpt>
      <trkpt lat="44.81762" lon="5.14385">
        <ele>607.48</ele>
        <time>2019-03-20T08:56:40.000Z</time>
      </trkpt>
      <trkpt lat="44.81774" lon="5.14388">
        <ele>608.12</ele>
        <time>2019-03-20T08:56:50.000Z</time>
      </trkpt>
      <trkpt lat="44.81784" lon="5.14395">
        <ele>607.59</ele>
        <time>2019-03-20T08:57:00.000Z</time>
      </trkpt>
      <trkpt lat="44.81794" lon="5.14398">
        <ele>608.26</ele>
        <time>2019-03-20T08:57:10.000Z</time>
      </trkpt>
      <trkpt lat="44.81805" lon="5.14401">
        <ele>609.31</ele>
        <time>2019-03-20T08:57:20.000Z</time>
      </trkpt>
      <trkpt lat="44.81819" lon="5.14405">
        <ele>610.53</ele>
        <time>2019-03-20T08:57:30.000Z</time>
      </trkpt>
      <trkpt lat="44.81828" lon="5.14408">
        <ele>611.19</ele>
        <time>2019-03-20T08:57:40.000Z</time>
      </trkpt>
      <trkpt lat="44.81839" lon="5.14414">
        <ele>611.56</ele>
        <time>2019-03-20T08:57:50.000Z</time>
      </trkpt>
      <trkpt lat="44.81851" lon="5.14418">
        <ele>612.49</ele>
        <time>2019-03-20T08:58:00.000Z</time>
      </trkpt>
      <trkpt lat="44.81861" lon="5.1442">
        <ele>613.48</ele>
        <time>2019-03-20T08:58:10.000Z</time>
      </trkpt>
      <trkpt lat="44.81872" lon="5.14424">
        <ele>614.38</ele>
        <time>2019-03-20T08:58:20.000Z</time>
      </trkpt>
      <trkpt lat="44.81883" lon="5.14426">
        <ele>615.84</ele>
        <time>2019-03-20T08:58:30.000Z</time>
      </trkpt>
      <trkpt lat="44.81894" lon="5.1443">
        <ele>616.45</ele>
        <time>2019-03-20T08:58:40.000Z</time>
      </trkpt>
      <trkpt lat="44.81906" lon="5.14433">
        <ele>617.47</ele>
        <time>2019-03-20T08:58:50.000Z</time>
      </trkpt>
      <trkpt lat="44.81916" lon="5.14438">
        <ele>618.07</ele>
        <time>2019-03-20T08:59:00.000Z</time>
      </trkpt>
      <trkpt lat="44.81926" lon="5.14444">
        <ele>618.23</ele>
        <time>2019-03-20T08:59:10.000Z</time>
      </trkpt>
      <trkpt lat="44.81937" lon="5.14451">
        <ele>618.86</ele>
        <time>2019-03-20T08:59:20.000Z</time>
      </trkpt>
      <trkpt lat="44.81948" lon="5.14457">
        <ele>620.14</ele>
        <time>2019-03-20T08:59:30.000Z</time>
      </trkpt>
      <trkpt lat="44.81954" lon="5.14466">
        <ele>620.17</ele>
        <time>2019-03-20T08:59:40.000Z</time>
      </trkpt>
      <trkpt lat="44.81962" lon="5.14477">
        <ele>620.87</ele>
        <time>2019-03-20T08:59:50.000Z</time>
      </trkpt>
      <trkpt lat="44.81971" lon="5.14486">
        <ele>622.58</ele>
        <time>2019-03-20T09:00:00.000Z</time>
      </trkpt>
      <trkpt lat="44.81979" lon="5.14496">
        <ele>623.88</ele>
        <time>2019-03-20T09:00:10.000Z</time>
      </trkpt>
      <trkpt lat="44.81986" lon="5.14509">
        <ele>624.79</ele>
        <time>2019-03-20T09:00:20.000Z</time>
      </trkpt>
      <trkpt lat="44.8199" lon="5.14523">
        <ele>625.19</ele>
        <time>2019-03-20T09:00:30.000Z</time>
      </trkpt>
      <trkpt lat="44.81996" lon="5.14538">
        <ele>626.22</ele>
        <time>2019-03-20T09:00:40.000Z</time>
      </trkpt>
      <trkpt lat="44.81999" lon="5.14551">
        <ele>626.11</ele>
        <time>2019-03-20T09:00:50.000Z</time>
      </trkpt>
      <trkpt lat="44.82004" lon="5.14566">
        <ele>626.14</ele>
        <time>2019-03-20T09:01:00.000Z</time>
      </trkpt>
      <trkpt lat="44.82009" lon="5.14581">
        <ele>625.51</ele>
        <time>2019-03-20T09:01:10.000Z</time>
      </trkpt>
      <trkpt lat="44.82018" lon="5.14588">
        <ele>625.64</ele>
        <time>2019-03-20T09:01:20.000Z</time>
      </trkpt>
      <trkpt lat="44.82026" lon="5.146">
        <ele>625.35</ele>
        <time>2019-03-20T09:01:30.000Z</time>
      </trkpt>
      <trkpt lat="44.8203" lon="5.14614">
        <ele>625.12</ele>
        <time>2019-03-20T09:01:40.000Z</time>
      </trkpt>
      <trkpt lat="44.82035" lon="5.14628">
        <ele>625.03</ele>
        <time>2019-03-20T09:01:50.000Z</time>
      </trkpt>
      <trkpt lat="44.82043" lon="5.14637">
        <ele>625.01</ele>
        <time>2019-03-20T09:02:00.000Z</time>
      </trkpt>
      <trkpt lat="44.82054" lon="5.14645">
        <ele>625.05</ele>
        <time>2019-03-20T09:02:10.000Z</time>
      </trkpt>
      <trkpt lat="44.82065" lon="5.14647">
        <ele>625.37</ele>
        <time>2019-03-20T09:02:20.000Z</time>
      </trkpt>
      <trkpt lat="44.82075" lon="5.14649">
        <ele>625.76</ele>
        <time>2019-03-20T09:02:32.000Z</time>
      </trkpt>
      <trkpt lat="44.82085" lon="5.14651">
        <ele>626.43</ele>
        <time>2019-03-20T09:02:42.000Z</time>
      </trkpt>
      <trkpt lat="44.82101" lon="5.14654">
        <ele>627.28</ele>
        <time>2019-03-20T09:02:52.000Z</time>
      </trkpt>
      <trkpt lat="44.82115" lon="5.14657">
        <ele>627.7</ele>
        <time>2019-03-20T09:03:02.000Z</time>
      </trkpt>
      <trkpt lat="44.82124" lon="5.14662">
        <ele>627.39</ele>
        <time>2019-03-20T09:03:12.000Z</time>
      </trkpt>
      <trkpt lat="44.82134" lon="5.14666">
        <ele>627.17</ele>
        <time>2019-03-20T09:03:22.000Z</time>
      </trkpt>
      <trkpt lat="44.82144" lon="5.14667">
        <ele>627.49</ele>
        <time>2019-03-20T09:03:32.000Z</time>
      </trkpt>
      <trkpt lat="44.82153" lon="5.14673">
        <ele>626.71</ele>
        <time>2019-03-20T09:03:43.000Z</time>
      </trkpt>
      <trkpt lat="44.82168" lon="5.1468">
        <ele>626.32</ele>
        <time>2019-03-20T09:03:53.000Z</time>
      </trkpt>
      <trkpt lat="44.82178" lon="5.14686">
        <ele>625.78</ele>
        <time>2019-03-20T09:04:03.000Z</time>
      </trkpt>
      <trkpt lat="44.82189" lon="5.14692">
        <ele>625.91</ele>
        <time>2019-03-20T09:04:13.000Z</time>
      </trkpt>
      <trkpt lat="44.822" lon="5.14697">
        <ele>627.42</ele>
        <time>2019-03-20T09:04:23.000Z</time>
      </trkpt>
      <trkpt lat="44.82211" lon="5.14702">
        <ele>629.53</ele>
        <time>2019-03-20T09:04:33.000Z</time>
      </trkpt>
      <trkpt lat="44.82218" lon="5.14712">
        <ele>630.87</ele>
        <time>2019-03-20T09:04:43.000Z</time>
      </trkpt>
      <trkpt lat="44.82227" lon="5.14714">
        <ele>634.29</ele>
        <time>2019-03-20T09:05:02.000Z</time>
      </trkpt>
      <trkpt lat="44.82237" lon="5.14714">
        <ele>637.94</ele>
        <time>2019-03-20T09:05:12.000Z</time>
      </trkpt>
      <trkpt lat="44.82232" lon="5.14702">
        <ele>636.05</ele>
        <time>2019-03-20T09:05:23.000Z</time>
      </trkpt>
      <trkpt lat="44.82234" lon="5.14688">
        <ele>636.03</ele>
        <time>2019-03-20T09:05:46.000Z</time>
      </trkpt>
      <trkpt lat="44.82232" lon="5.14701">
        <ele>636.06</ele>
        <time>2019-03-20T09:06:26.000Z</time>
      </trkpt>
      <trkpt lat="44.82233" lon="5.14714">
        <ele>636.43</ele>
        <time>2019-03-20T09:06:36.000Z</time>
      </trkpt>
      <trkpt lat="44.82234" lon="5.14727">
        <ele>636.82</ele>
        <time>2019-03-20T09:12:56.000Z</time>
      </trkpt>
      <trkpt lat="44.82236" lon="5.1474">
        <ele>637.33</ele>
        <time>2019-03-20T09:13:06.000Z</time>
      </trkpt>
      <trkpt lat="44.8224" lon="5.14756">
        <ele>638.46</ele>
        <time>2019-03-20T09:13:16.000Z</time>
      </trkpt>
      <trkpt lat="44.82242" lon="5.14768">
        <ele>638.48</ele>
        <time>2019-03-20T09:13:26.000Z</time>
      </trkpt>
      <trkpt lat="44.82242" lon="5.14781">
        <ele>637</ele>
        <time>2019-03-20T09:13:36.000Z</time>
      </trkpt>
      <trkpt lat="44.82243" lon="5.14799">
        <ele>635.14</ele>
        <time>2019-03-20T09:13:46.000Z</time>
      </trkpt>
      <trkpt lat="44.82247" lon="5.14817">
        <ele>633.44</ele>
        <time>2019-03-20T09:13:56.000Z</time>
      </trkpt>
      <trkpt lat="44.82252" lon="5.14831">
        <ele>631.87</ele>
        <time>2019-03-20T09:14:06.000Z</time>
      </trkpt>
      <trkpt lat="44.82257" lon="5.14842">
        <ele>630.12</ele>
        <time>2019-03-20T09:14:16.000Z</time>
      </trkpt>
      <trkpt lat="44.82266" lon="5.14852">
        <ele>628.51</ele>
        <time>2019-03-20T09:14:26.000Z</time>
      </trkpt>
      <trkpt lat="44.82273" lon="5.1486">
        <ele>626.16</ele>
        <time>2019-03-20T09:14:36.000Z</time>
      </trkpt>
      <trkpt lat="44.82281" lon="5.14868">
        <ele>624.37</ele>
        <time>2019-03-20T09:14:47.000Z</time>
      </trkpt>
      <trkpt lat="44.82294" lon="5.14873">
        <ele>624.53</ele>
        <time>2019-03-20T09:14:57.000Z</time>
      </trkpt>
      <trkpt lat="44.82305" lon="5.14881">
        <ele>623.32</ele>
        <time>2019-03-20T09:15:07.000Z</time>
      </trkpt>
      <trkpt lat="44.82316" lon="5.14887">
        <ele>623.64</ele>
        <time>2019-03-20T09:15:17.000Z</time>
      </trkpt>
      <trkpt lat="44.82328" lon="5.14889">
        <ele>625.2</ele>
        <time>2019-03-20T09:15:27.000Z</time>
      </trkpt>
      <trkpt lat="44.82337" lon="5.14893">
        <ele>625.37</ele>
        <time>2019-03-20T09:15:38.000Z</time>
      </trkpt>
      <trkpt lat="44.82346" lon="5.14897">
        <ele>625.68</ele>
        <time>2019-03-20T09:15:48.000Z</time>
      </trkpt>
      <trkpt lat="44.82354" lon="5.14908">
        <ele>624.13</ele>
        <time>2019-03-20T09:15:58.000Z</time>
      </trkpt>
      <trkpt lat="44.82366" lon="5.14922">
        <ele>624.18</ele>
        <time>2019-03-20T09:16:08.000Z</time>
      </trkpt>
      <trkpt lat="44.82372" lon="5.14933">
        <ele>624.36</ele>
        <time>2019-03-20T09:16:18.000Z</time>
      </trkpt>
      <trkpt lat="44.82377" lon="5.14943">
        <ele>624.58</ele>
        <time>2019-03-20T09:16:29.000Z</time>
      </trkpt>
      <trkpt lat="44.82384" lon="5.14954">
        <ele>625.05</ele>
        <time>2019-03-20T09:16:39.000Z</time>
      </trkpt>
      <trkpt lat="44.82394" lon="5.14967">
        <ele>625.97</ele>
        <time>2019-03-20T09:16:49.000Z</time>
      </trkpt>
      <trkpt lat="44.82393" lon="5.14982">
        <ele>627.48</ele>
        <time>2019-03-20T09:16:59.000Z</time>
      </trkpt>
      <trkpt lat="44.82385" lon="5.14989">
        <ele>629.04</ele>
        <time>2019-03-20T09:17:09.000Z</time>
      </trkpt>
      <trkpt lat="44.82377" lon="5.14982">
        <ele>627.93</ele>
        <time>2019-03-20T09:17:19.000Z</time>
      </trkpt>
      <trkpt lat="44.82367" lon="5.14973">
        <ele>626.71</ele>
        <time>2019-03-20T09:17:29.000Z</time>
      </trkpt>
      <trkpt lat="44.82359" lon="5.14968">
        <ele>626.11</ele>
        <time>2019-03-20T09:17:40.000Z</time>
      </trkpt>
      <trkpt lat="44.82347" lon="5.14963">
        <ele>625.34</ele>
        <time>2019-03-20T09:17:50.000Z</time>
      </trkpt>
      <trkpt lat="44.82337" lon="5.14957">
        <ele>623.94</ele>
        <time>2019-03-20T09:18:00.000Z</time>
      </trkpt>
      <trkpt lat="44.82327" lon="5.14958">
        <ele>623.78</ele>
        <time>2019-03-20T09:18:11.000Z</time>
      </trkpt>
      <trkpt lat="44.82316" lon="5.14958">
        <ele>623.02</ele>
        <time>2019-03-20T09:18:21.000Z</time>
      </trkpt>
      <trkpt lat="44.82308" lon="5.14966">
        <ele>625.03</ele>
        <time>2019-03-20T09:18:31.000Z</time>
      </trkpt>
      <trkpt lat="44.82297" lon="5.14974">
        <ele>627.82</ele>
        <time>2019-03-20T09:18:41.000Z</time>
      </trkpt>
      <trkpt lat="44.82287" lon="5.1498">
        <ele>630</ele>
        <time>2019-03-20T09:18:51.000Z</time>
      </trkpt>
      <trkpt lat="44.82279" lon="5.14985">
        <ele>632.74</ele>
        <time>2019-03-20T09:19:02.000Z</time>
      </trkpt>
      <trkpt lat="44.82268" lon="5.14985">
        <ele>633.21</ele>
        <time>2019-03-20T09:19:12.000Z</time>
      </trkpt>
      <trkpt lat="44.8226" lon="5.14981">
        <ele>632.46</ele>
        <time>2019-03-20T09:19:23.000Z</time>
      </trkpt>
      <trkpt lat="44.82251" lon="5.14975">
        <ele>630.92</ele>
        <time>2019-03-20T09:19:35.000Z</time>
      </trkpt>
      <trkpt lat="44.82242" lon="5.1497">
        <ele>630.25</ele>
        <time>2019-03-20T09:19:47.000Z</time>
      </trkpt>
      <trkpt lat="44.82245" lon="5.14983">
        <ele>635.76</ele>
        <time>2019-03-20T09:20:01.000Z</time>
      </trkpt>
      <trkpt lat="44.82251" lon="5.14992">
        <ele>638.75</ele>
        <time>2019-03-20T09:20:17.000Z</time>
      </trkpt>
      <trkpt lat="44.8226" lon="5.14999">
        <ele>640.43</ele>
        <time>2019-03-20T09:20:30.000Z</time>
      </trkpt>
      <trkpt lat="44.82269" lon="5.15002">
        <ele>640.71</ele>
        <time>2019-03-20T09:20:41.000Z</time>
      </trkpt>
      <trkpt lat="44.82279" lon="5.15005">
        <ele>641.18</ele>
        <time>2019-03-20T09:20:51.000Z</time>
      </trkpt>
      <trkpt lat="44.82289" lon="5.15006">
        <ele>641.19</ele>
        <time>2019-03-20T09:21:02.000Z</time>
      </trkpt>
      <trkpt lat="44.82298" lon="5.15008">
        <ele>641.4</ele>
        <time>2019-03-20T09:21:12.000Z</time>
      </trkpt>
      <trkpt lat="44.82308" lon="5.15005">
        <ele>640.15</ele>
        <time>2019-03-20T09:21:22.000Z</time>
      </trkpt>
      <trkpt lat="44.82317" lon="5.15012">
        <ele>642.76</ele>
        <time>2019-03-20T09:21:32.000Z</time>
      </trkpt>
      <trkpt lat="44.82307" lon="5.15015">
        <ele>644.32</ele>
        <time>2019-03-20T09:21:45.000Z</time>
      </trkpt>
      <trkpt lat="44.82296" lon="5.15016">
        <ele>645.15</ele>
        <time>2019-03-20T09:21:55.000Z</time>
      </trkpt>
      <trkpt lat="44.82285" lon="5.1502">
        <ele>647.69</ele>
        <time>2019-03-20T09:22:05.000Z</time>
      </trkpt>
      <trkpt lat="44.82274" lon="5.15017">
        <ele>646.71</ele>
        <time>2019-03-20T09:22:15.000Z</time>
      </trkpt>
      <trkpt lat="44.82266" lon="5.15013">
        <ele>645.24</ele>
        <time>2019-03-20T09:22:25.000Z</time>
      </trkpt>
      <trkpt lat="44.82255" lon="5.15014">
        <ele>646.84</ele>
        <time>2019-03-20T09:22:35.000Z</time>
      </trkpt>
      <trkpt lat="44.82243" lon="5.1501">
        <ele>646.68</ele>
        <time>2019-03-20T09:22:45.000Z</time>
      </trkpt>
      <trkpt lat="44.82231" lon="5.15006">
        <ele>647.53</ele>
        <time>2019-03-20T09:22:55.000Z</time>
      </trkpt>
      <trkpt lat="44.8222" lon="5.15002">
        <ele>648.79</ele>
        <time>2019-03-20T09:23:05.000Z</time>
      </trkpt>
      <trkpt lat="44.82208" lon="5.15001">
        <ele>651.46</ele>
        <time>2019-03-20T09:23:15.000Z</time>
      </trkpt>
      <trkpt lat="44.82196" lon="5.14998">
        <ele>654.27</ele>
        <time>2019-03-20T09:23:25.000Z</time>
      </trkpt>
      <trkpt lat="44.82186" lon="5.14993">
        <ele>655.86</ele>
        <time>2019-03-20T09:23:35.000Z</time>
      </trkpt>
      <trkpt lat="44.82176" lon="5.14991">
        <ele>658.19</ele>
        <time>2019-03-20T09:23:45.000Z</time>
      </trkpt>
      <trkpt lat="44.82168" lon="5.14988">
        <ele>660.12</ele>
        <time>2019-03-20T09:23:55.000Z</time>
      </trkpt>
      <trkpt lat="44.82162" lon="5.14977">
        <ele>660.24</ele>
        <time>2019-03-20T09:24:07.000Z</time>
      </trkpt>
      <trkpt lat="44.82165" lon="5.1499">
        <ele>661.21</ele>
        <time>2019-03-20T09:24:21.000Z</time>
      </trkpt>
      <trkpt lat="44.82168" lon="5.15002">
        <ele>662.09</ele>
        <time>2019-03-20T09:24:31.000Z</time>
      </trkpt>
      <trkpt lat="44.82166" lon="5.15016">
        <ele>663.75</ele>
        <time>2019-03-20T09:24:43.000Z</time>
      </trkpt>
      <trkpt lat="44.82165" lon="5.1503">
        <ele>664.81</ele>
        <time>2019-03-20T09:24:53.000Z</time>
      </trkpt>
      <trkpt lat="44.82164" lon="5.15044">
        <ele>665.46</ele>
        <time>2019-03-20T09:25:03.000Z</time>
      </trkpt>
      <trkpt lat="44.82162" lon="5.15062">
        <ele>665.98</ele>
        <time>2019-03-20T09:25:13.000Z</time>
      </trkpt>
      <trkpt lat="44.82161" lon="5.15076">
        <ele>666.42</ele>
        <time>2019-03-20T09:25:23.000Z</time>
      </trkpt>
      <trkpt lat="44.82155" lon="5.15086">
        <ele>666.6</ele>
        <time>2019-03-20T09:25:34.000Z</time>
      </trkpt>
      <trkpt lat="44.82148" lon="5.15098">
        <ele>666.7</ele>
        <time>2019-03-20T09:25:44.000Z</time>
      </trkpt>
      <trkpt lat="44.82141" lon="5.1511">
        <ele>666.78</ele>
        <time>2019-03-20T09:25:54.000Z</time>
      </trkpt>
      <trkpt lat="44.82139" lon="5.15124">
        <ele>667.19</ele>
        <time>2019-03-20T09:26:04.000Z</time>
      </trkpt>
      <trkpt lat="44.82133" lon="5.1514">
        <ele>667.45</ele>
        <time>2019-03-20T09:26:14.000Z</time>
      </trkpt>
      <trkpt lat="44.82129" lon="5.15153">
        <ele>667.64</ele>
        <time>2019-03-20T09:26:24.000Z</time>
      </trkpt>
      <trkpt lat="44.82123" lon="5.15165">
        <ele>667.35</ele>
        <time>2019-03-20T09:26:34.000Z</time>
      </trkpt>
      <trkpt lat="44.82118" lon="5.15183">
        <ele>667.26</ele>
        <time>2019-03-20T09:26:44.000Z</time>
      </trkpt>
      <trkpt lat="44.82116" lon="5.15196">
        <ele>667.5</ele>
        <time>2019-03-20T09:26:54.000Z</time>
      </trkpt>
      <trkpt lat="44.8211" lon="5.15212">
        <ele>667.09</ele>
        <time>2019-03-20T09:27:04.000Z</time>
      </trkpt>
      <trkpt lat="44.82106" lon="5.15226">
        <ele>666.91</ele>
        <time>2019-03-20T09:27:14.000Z</time>
      </trkpt>
      <trkpt lat="44.8211" lon="5.1524">
        <ele>667.8</ele>
        <time>2019-03-20T09:27:24.000Z</time>
      </trkpt>
      <trkpt lat="44.82118" lon="5.15245">
        <ele>669.58</ele>
        <time>2019-03-20T09:27:34.000Z</time>
      </trkpt>
      <trkpt lat="44.82127" lon="5.15252">
        <ele>671.33</ele>
        <time>2019-03-20T09:27:47.000Z</time>
      </trkpt>
      <trkpt lat="44.82134" lon="5.1526">
        <ele>672.69</ele>
        <time>2019-03-20T09:28:00.000Z</time>
      </trkpt>
      <trkpt lat="44.82141" lon="5.15269">
        <ele>673.72</ele>
        <time>2019-03-20T09:28:10.000Z</time>
      </trkpt>
      <trkpt lat="44.8215" lon="5.15275">
        <ele>674.9</ele>
        <time>2019-03-20T09:28:20.000Z</time>
      </trkpt>
      <trkpt lat="44.82158" lon="5.15283">
        <ele>675.83</ele>
        <time>2019-03-20T09:28:30.000Z</time>
      </trkpt>
      <trkpt lat="44.82167" lon="5.15286">
        <ele>677.13</ele>
        <time>2019-03-20T09:28:40.000Z</time>
      </trkpt>
      <trkpt lat="44.82176" lon="5.15286">
        <ele>678.59</ele>
        <time>2019-03-20T09:28:50.000Z</time>
      </trkpt>
      <trkpt lat="44.82186" lon="5.15288">
        <ele>679.84</ele>
        <time>2019-03-20T09:29:00.000Z</time>
      </trkpt>
      <trkpt lat="44.82195" lon="5.1529">
        <ele>681.03</ele>
        <time>2019-03-20T09:29:11.000Z</time>
      </trkpt>
      <trkpt lat="44.82205" lon="5.15298">
        <ele>682.03</ele>
        <time>2019-03-20T09:29:21.000Z</time>
      </trkpt>
      <trkpt lat="44.82214" lon="5.15305">
        <ele>682.93</ele>
        <time>2019-03-20T09:29:33.000Z</time>
      </trkpt>
      <trkpt lat="44.82224" lon="5.15311">
        <ele>684.19</ele>
        <time>2019-03-20T09:29:43.000Z</time>
      </trkpt>
      <trkpt lat="44.82234" lon="5.15317">
        <ele>685.45</ele>
        <time>2019-03-20T09:29:53.000Z</time>
      </trkpt>
      <trkpt lat="44.82243" lon="5.15322">
        <ele>686.5</ele>
        <time>2019-03-20T09:30:03.000Z</time>
      </trkpt>
      <trkpt lat="44.82251" lon="5.15327">
        <ele>687.4</ele>
        <time>2019-03-20T09:30:13.000Z</time>
      </trkpt>
      <trkpt lat="44.82261" lon="5.15334">
        <ele>688.24</ele>
        <time>2019-03-20T09:30:23.000Z</time>
      </trkpt>
      <trkpt lat="44.8227" lon="5.1534">
        <ele>688.81</ele>
        <time>2019-03-20T09:30:35.000Z</time>
      </trkpt>
      <trkpt lat="44.82278" lon="5.15345">
        <ele>689.12</ele>
        <time>2019-03-20T09:32:34.000Z</time>
      </trkpt>
      <trkpt lat="44.82287" lon="5.15351">
        <ele>689.33</ele>
        <time>2019-03-20T09:32:45.000Z</time>
      </trkpt>
      <trkpt lat="44.82294" lon="5.1536">
        <ele>688.93</ele>
        <time>2019-03-20T09:32:56.000Z</time>
      </trkpt>
      <trkpt lat="44.82303" lon="5.15368">
        <ele>688.61</ele>
        <time>2019-03-20T09:33:07.000Z</time>
      </trkpt>
      <trkpt lat="44.82309" lon="5.15377">
        <ele>688.21</ele>
        <time>2019-03-20T09:33:17.000Z</time>
      </trkpt>
      <trkpt lat="44.82318" lon="5.15385">
        <ele>688.11</ele>
        <time>2019-03-20T09:33:27.000Z</time>
      </trkpt>
      <trkpt lat="44.82327" lon="5.15391">
        <ele>688.53</ele>
        <time>2019-03-20T09:33:37.000Z</time>
      </trkpt>
      <trkpt lat="44.82335" lon="5.15397">
        <ele>689.19</ele>
        <time>2019-03-20T09:33:47.000Z</time>
      </trkpt>
      <trkpt lat="44.82345" lon="5.15403">
        <ele>690.24</ele>
        <time>2019-03-20T09:33:57.000Z</time>
      </trkpt>
      <trkpt lat="44.82356" lon="5.15409">
        <ele>691.9</ele>
        <time>2019-03-20T09:34:07.000Z</time>
      </trkpt>
      <trkpt lat="44.82366" lon="5.15413">
        <ele>693.69</ele>
        <time>2019-03-20T09:34:17.000Z</time>
      </trkpt>
      <trkpt lat="44.82377" lon="5.15417">
        <ele>695.54</ele>
        <time>2019-03-20T09:34:27.000Z</time>
      </trkpt>
      <trkpt lat="44.82389" lon="5.15421">
        <ele>697.53</ele>
        <time>2019-03-20T09:34:37.000Z</time>
      </trkpt>
      <trkpt lat="44.82401" lon="5.15429">
        <ele>698.76</ele>
        <time>2019-03-20T09:34:47.000Z</time>
      </trkpt>
      <trkpt lat="44.82409" lon="5.15435">
        <ele>698.96</ele>
        <time>2019-03-20T09:34:58.000Z</time>
      </trkpt>
      <trkpt lat="44.82417" lon="5.15442">
        <ele>698.7</ele>
        <time>2019-03-20T09:35:08.000Z</time>
      </trkpt>
      <trkpt lat="44.82425" lon="5.1545">
        <ele>698.25</ele>
        <time>2019-03-20T09:35:18.000Z</time>
      </trkpt>
      <trkpt lat="44.82434" lon="5.15458">
        <ele>698.27</ele>
        <time>2019-03-20T09:35:28.000Z</time>
      </trkpt>
      <trkpt lat="44.82444" lon="5.15466">
        <ele>699.09</ele>
        <time>2019-03-20T09:35:38.000Z</time>
      </trkpt>
      <trkpt lat="44.82451" lon="5.15475">
        <ele>699.61</ele>
        <time>2019-03-20T09:35:49.000Z</time>
      </trkpt>
      <trkpt lat="44.82459" lon="5.15482">
        <ele>701.24</ele>
        <time>2019-03-20T09:35:59.000Z</time>
      </trkpt>
      <trkpt lat="44.82468" lon="5.15489">
        <ele>703.38</ele>
        <time>2019-03-20T09:36:09.000Z</time>
      </trkpt>
      <trkpt lat="44.82476" lon="5.15497">
        <ele>705.72</ele>
        <time>2019-03-20T09:36:19.000Z</time>
      </trkpt>
      <trkpt lat="44.82484" lon="5.15505">
        <ele>707.59</ele>
        <time>2019-03-20T09:36:29.000Z</time>
      </trkpt>
      <trkpt lat="44.82493" lon="5.15513">
        <ele>708.9</ele>
        <time>2019-03-20T09:36:39.000Z</time>
      </trkpt>
      <trkpt lat="44.82502" lon="5.15518">
        <ele>709.86</ele>
        <time>2019-03-20T09:36:51.000Z</time>
      </trkpt>
      <trkpt lat="44.82511" lon="5.15524">
        <ele>710.15</ele>
        <time>2019-03-20T09:37:01.000Z</time>
      </trkpt>
      <trkpt lat="44.8252" lon="5.15531">
        <ele>710.42</ele>
        <time>2019-03-20T09:37:11.000Z</time>
      </trkpt>
      <trkpt lat="44.82529" lon="5.15537">
        <ele>710.97</ele>
        <time>2019-03-20T09:37:21.000Z</time>
      </trkpt>
      <trkpt lat="44.82538" lon="5.15541">
        <ele>711.76</ele>
        <time>2019-03-20T09:37:33.000Z</time>
      </trkpt>
      <trkpt lat="44.82548" lon="5.15546">
        <ele>712.9</ele>
        <time>2019-03-20T09:37:43.000Z</time>
      </trkpt>
      <trkpt lat="44.82555" lon="5.15553">
        <ele>713.81</ele>
        <time>2019-03-20T09:37:54.000Z</time>
      </trkpt>
      <trkpt lat="44.82564" lon="5.15561">
        <ele>715.1</ele>
        <time>2019-03-20T09:38:04.000Z</time>
      </trkpt>
      <trkpt lat="44.82573" lon="5.15568">
        <ele>716.59</ele>
        <time>2019-03-20T09:38:14.000Z</time>
      </trkpt>
      <trkpt lat="44.82581" lon="5.15574">
        <ele>717.86</ele>
        <time>2019-03-20T09:38:24.000Z</time>
      </trkpt>
      <trkpt lat="44.82589" lon="5.15582">
        <ele>718.78</ele>
        <time>2019-03-20T09:38:36.000Z</time>
      </trkpt>
      <trkpt lat="44.82597" lon="5.15591">
        <ele>719.5</ele>
        <time>2019-03-20T09:38:48.000Z</time>
      </trkpt>
      <trkpt lat="44.82605" lon="5.15597">
        <ele>720.01</ele>
        <time>2019-03-20T09:38:58.000Z</time>
      </trkpt>
      <trkpt lat="44.82614" lon="5.15606">
        <ele>720.23</ele>
        <time>2019-03-20T09:39:08.000Z</time>
      </trkpt>
      <trkpt lat="44.82625" lon="5.15612">
        <ele>720.66</ele>
        <time>2019-03-20T09:39:18.000Z</time>
      </trkpt>
      <trkpt lat="44.82634" lon="5.15615">
        <ele>721.16</ele>
        <time>2019-03-20T09:39:29.000Z</time>
      </trkpt>
      <trkpt lat="44.82645" lon="5.15618">
        <ele>721.87</ele>
        <time>2019-03-20T09:39:39.000Z</time>
      </trkpt>
      <trkpt lat="44.82655" lon="5.1562">
        <ele>722.59</ele>
        <time>2019-03-20T09:39:49.000Z</time>
      </trkpt>
      <trkpt lat="44.82665" lon="5.15623">
        <ele>723.27</ele>
        <time>2019-03-20T09:39:59.000Z</time>
      </trkpt>
      <trkpt lat="44.82678" lon="5.15626">
        <ele>724.34</ele>
        <time>2019-03-20T09:40:09.000Z</time>
      </trkpt>
      <trkpt lat="44.82688" lon="5.15629">
        <ele>725.43</ele>
        <time>2019-03-20T09:40:19.000Z</time>
      </trkpt>
      <trkpt lat="44.82699" lon="5.15633">
        <ele>726.57</ele>
        <time>2019-03-20T09:40:29.000Z</time>
      </trkpt>
      <trkpt lat="44.82709" lon="5.15635">
        <ele>727.87</ele>
        <time>2019-03-20T09:40:39.000Z</time>
      </trkpt>
      <trkpt lat="44.82717" lon="5.15645">
        <ele>728.76</ele>
        <time>2019-03-20T09:40:49.000Z</time>
      </trkpt>
      <trkpt lat="44.8272" lon="5.1566">
        <ele>729.37</ele>
        <time>2019-03-20T09:40:59.000Z</time>
      </trkpt>
      <trkpt lat="44.8272" lon="5.15676">
        <ele>730.35</ele>
        <time>2019-03-20T09:41:09.000Z</time>
      </trkpt>
      <trkpt lat="44.8272" lon="5.15692">
        <ele>731.81</ele>
        <time>2019-03-20T09:41:19.000Z</time>
      </trkpt>
      <trkpt lat="44.82719" lon="5.15708">
        <ele>733.36</ele>
        <time>2019-03-20T09:41:29.000Z</time>
      </trkpt>
      <trkpt lat="44.82718" lon="5.15723">
        <ele>735.17</ele>
        <time>2019-03-20T09:41:39.000Z</time>
      </trkpt>
      <trkpt lat="44.82713" lon="5.15739">
        <ele>736.99</ele>
        <time>2019-03-20T09:41:49.000Z</time>
      </trkpt>
      <trkpt lat="44.82709" lon="5.15753">
        <ele>738.56</ele>
        <time>2019-03-20T09:41:59.000Z</time>
      </trkpt>
      <trkpt lat="44.82704" lon="5.15765">
        <ele>739.75</ele>
        <time>2019-03-20T09:42:09.000Z</time>
      </trkpt>
      <trkpt lat="44.82697" lon="5.15776">
        <ele>740.87</ele>
        <time>2019-03-20T09:42:19.000Z</time>
      </trkpt>
      <trkpt lat="44.8269" lon="5.15786">
        <ele>741.77</ele>
        <time>2019-03-20T09:42:29.000Z</time>
      </trkpt>
      <trkpt lat="44.82682" lon="5.15797">
        <ele>742.62</ele>
        <time>2019-03-20T09:42:39.000Z</time>
      </trkpt>
      <trkpt lat="44.82672" lon="5.15807">
        <ele>743.27</ele>
        <time>2019-03-20T09:42:49.000Z</time>
      </trkpt>
      <trkpt lat="44.82664" lon="5.15816">
        <ele>743.72</ele>
        <time>2019-03-20T09:42:59.000Z</time>
      </trkpt>
      <trkpt lat="44.82657" lon="5.15826">
        <ele>744.27</ele>
        <time>2019-03-20T09:43:09.000Z</time>
      </trkpt>
      <trkpt lat="44.82649" lon="5.15835">
        <ele>744.8</ele>
        <time>2019-03-20T09:43:19.000Z</time>
      </trkpt>
      <trkpt lat="44.82641" lon="5.15845">
        <ele>745.37</ele>
        <time>2019-03-20T09:43:29.000Z</time>
      </trkpt>
      <trkpt lat="44.82631" lon="5.15856">
        <ele>745.99</ele>
        <time>2019-03-20T09:43:39.000Z</time>
      </trkpt>
      <trkpt lat="44.8262" lon="5.15869">
        <ele>746.53</ele>
        <time>2019-03-20T09:43:49.000Z</time>
      </trkpt>
      <trkpt lat="44.8261" lon="5.15879">
        <ele>746.86</ele>
        <time>2019-03-20T09:43:59.000Z</time>
      </trkpt>
      <trkpt lat="44.82601" lon="5.1589">
        <ele>747.16</ele>
        <time>2019-03-20T09:44:09.000Z</time>
      </trkpt>
      <trkpt lat="44.82594" lon="5.15901">
        <ele>747.51</ele>
        <time>2019-03-20T09:44:19.000Z</time>
      </trkpt>
      <trkpt lat="44.82586" lon="5.15913">
        <ele>747.9</ele>
        <time>2019-03-20T09:44:29.000Z</time>
      </trkpt>
      <trkpt lat="44.82578" lon="5.15925">
        <ele>748.33</ele>
        <time>2019-03-20T09:44:39.000Z</time>
      </trkpt>
      <trkpt lat="44.82571" lon="5.15938">
        <ele>748.93</ele>
        <time>2019-03-20T09:44:49.000Z</time>
      </trkpt>
      <trkpt lat="44.82563" lon="5.15953">
        <ele>749.62</ele>
        <time>2019-03-20T09:44:59.000Z</time>
      </trkpt>
      <trkpt lat="44.82555" lon="5.15966">
        <ele>750.21</ele>
        <time>2019-03-20T09:45:09.000Z</time>
      </trkpt>
      <trkpt lat="44.82547" lon="5.15976">
        <ele>750.61</ele>
        <time>2019-03-20T09:45:19.000Z</time>
      </trkpt>
      <trkpt lat="44.82538" lon="5.15989">
        <ele>751.17</ele>
        <time>2019-03-20T09:45:29.000Z</time>
      </trkpt>
      <trkpt lat="44.82532" lon="5.15998">
        <ele>751.54</ele>
        <time>2019-03-20T09:45:53.000Z</time>
      </trkpt>
      <trkpt lat="44.82527" lon="5.16009">
        <ele>752.12</ele>
        <time>2019-03-20T09:46:05.000Z</time>
      </trkpt>
      <trkpt lat="44.82521" lon="5.16019">
        <ele>752.49</ele>
        <time>2019-03-20T09:48:02.000Z</time>
      </trkpt>
      <trkpt lat="44.82514" lon="5.16029">
        <ele>752.68</ele>
        <time>2019-03-20T09:48:12.000Z</time>
      </trkpt>
      <trkpt lat="44.82507" lon="5.16038">
        <ele>752.83</ele>
        <time>2019-03-20T09:48:49.000Z</time>
      </trkpt>
      <trkpt lat="44.82499" lon="5.16047">
        <ele>752.84</ele>
        <time>2019-03-20T09:48:59.000Z</time>
      </trkpt>
      <trkpt lat="44.82493" lon="5.16058">
        <ele>753.06</ele>
        <time>2019-03-20T09:49:09.000Z</time>
      </trkpt>
      <trkpt lat="44.82485" lon="5.16072">
        <ele>753.33</ele>
        <time>2019-03-20T09:49:19.000Z</time>
      </trkpt>
      <trkpt lat="44.82478" lon="5.16082">
        <ele>753.37</ele>
        <time>2019-03-20T09:49:29.000Z</time>
      </trkpt>
      <trkpt lat="44.82469" lon="5.16097">
        <ele>753.82</ele>
        <time>2019-03-20T09:49:39.000Z</time>
      </trkpt>
      <trkpt lat="44.82461" lon="5.16112">
        <ele>754.38</ele>
        <time>2019-03-20T09:49:49.000Z</time>
      </trkpt>
      <trkpt lat="44.82453" lon="5.16124">
        <ele>754.91</ele>
        <time>2019-03-20T09:49:59.000Z</time>
      </trkpt>
      <trkpt lat="44.82447" lon="5.16137">
        <ele>755.69</ele>
        <time>2019-03-20T09:50:09.000Z</time>
      </trkpt>
      <trkpt lat="44.82441" lon="5.16148">
        <ele>756.33</ele>
        <time>2019-03-20T09:50:19.000Z</time>
      </trkpt>
      <trkpt lat="44.82435" lon="5.16159">
        <ele>757.1</ele>
        <time>2019-03-20T09:50:29.000Z</time>
      </trkpt>
      <trkpt lat="44.82428" lon="5.16171">
        <ele>757.84</ele>
        <time>2019-03-20T09:50:39.000Z</time>
      </trkpt>
      <trkpt lat="44.8242" lon="5.16184">
        <ele>758.75</ele>
        <time>2019-03-20T09:50:49.000Z</time>
      </trkpt>
      <trkpt lat="44.82412" lon="5.16196">
        <ele>759.63</ele>
        <time>2019-03-20T09:50:59.000Z</time>
      </trkpt>
      <trkpt lat="44.82407" lon="5.16211">
        <ele>760.9</ele>
        <time>2019-03-20T09:51:09.000Z</time>
      </trkpt>
      <trkpt lat="44.82403" lon="5.16223">
        <ele>761.99</ele>
        <time>2019-03-20T09:51:19.000Z</time>
      </trkpt>
      <trkpt lat="44.82399" lon="5.16237">
        <ele>763.28</ele>
        <time>2019-03-20T09:51:29.000Z</time>
      </trkpt>
      <trkpt lat="44.82398" lon="5.16249">
        <ele>764.6</ele>
        <time>2019-03-20T09:51:40.000Z</time>
      </trkpt>
      <trkpt lat="44.82395" lon="5.16263">
        <ele>765.93</ele>
        <time>2019-03-20T09:51:50.000Z</time>
      </trkpt>
      <trkpt lat="44.82393" lon="5.16278">
        <ele>767.42</ele>
        <time>2019-03-20T09:52:00.000Z</time>
      </trkpt>
      <trkpt lat="44.82393" lon="5.16294">
        <ele>769.14</ele>
        <time>2019-03-20T09:52:10.000Z</time>
      </trkpt>
      <trkpt lat="44.82392" lon="5.16308">
        <ele>770.74</ele>
        <time>2019-03-20T09:52:20.000Z</time>
      </trkpt>
      <trkpt lat="44.8239" lon="5.16322">
        <ele>772.36</ele>
        <time>2019-03-20T09:52:30.000Z</time>
      </trkpt>
      <trkpt lat="44.82388" lon="5.16336">
        <ele>774.21</ele>
        <time>2019-03-20T09:52:40.000Z</time>
      </trkpt>
      <trkpt lat="44.82385" lon="5.16348">
        <ele>775.97</ele>
        <time>2019-03-20T09:52:50.000Z</time>
      </trkpt>
      <trkpt lat="44.82378" lon="5.16362">
        <ele>778.05</ele>
        <time>2019-03-20T09:53:00.000Z</time>
      </trkpt>
      <trkpt lat="44.82369" lon="5.16365">
        <ele>778.9</ele>
        <time>2019-03-20T09:53:12.000Z</time>
      </trkpt>
      <trkpt lat="44.82359" lon="5.16366">
        <ele>779.38</ele>
        <time>2019-03-20T09:53:22.000Z</time>
      </trkpt>
      <trkpt lat="44.82347" lon="5.16369">
        <ele>780.3</ele>
        <time>2019-03-20T09:53:32.000Z</time>
      </trkpt>
      <trkpt lat="44.82334" lon="5.16372">
        <ele>781.05</ele>
        <time>2019-03-20T09:53:42.000Z</time>
      </trkpt>
      <trkpt lat="44.82324" lon="5.16372">
        <ele>781.37</ele>
        <time>2019-03-20T09:53:52.000Z</time>
      </trkpt>
      <trkpt lat="44.82312" lon="5.16372">
        <ele>781.81</ele>
        <time>2019-03-20T09:54:02.000Z</time>
      </trkpt>
      <trkpt lat="44.82302" lon="5.16367">
        <ele>781.57</ele>
        <time>2019-03-20T09:54:12.000Z</time>
      </trkpt>
      <trkpt lat="44.82292" lon="5.16368">
        <ele>782.01</ele>
        <time>2019-03-20T09:54:22.000Z</time>
      </trkpt>
      <trkpt lat="44.82281" lon="5.16365">
        <ele>782.03</ele>
        <time>2019-03-20T09:54:32.000Z</time>
      </trkpt>
      <trkpt lat="44.82269" lon="5.16361">
        <ele>781.67</ele>
        <time>2019-03-20T09:54:42.000Z</time>
      </trkpt>
      <trkpt lat="44.82258" lon="5.1636">
        <ele>781.63</ele>
        <time>2019-03-20T09:54:52.000Z</time>
      </trkpt>
      <trkpt lat="44.82246" lon="5.16357">
        <ele>781.09</ele>
        <time>2019-03-20T09:55:02.000Z</time>
      </trkpt>
      <trkpt lat="44.82234" lon="5.16356">
        <ele>780.38</ele>
        <time>2019-03-20T09:55:12.000Z</time>
      </trkpt>
      <trkpt lat="44.82225" lon="5.16354">
        <ele>779.58</ele>
        <time>2019-03-20T09:55:28.000Z</time>
      </trkpt>
      <trkpt lat="44.82215" lon="5.16355">
        <ele>779.23</ele>
        <time>2019-03-20T09:55:39.000Z</time>
      </trkpt>
      <trkpt lat="44.82204" lon="5.1636">
        <ele>779.1</ele>
        <time>2019-03-20T09:55:49.000Z</time>
      </trkpt>
      <trkpt lat="44.82192" lon="5.16362">
        <ele>778.6</ele>
        <time>2019-03-20T09:55:59.000Z</time>
      </trkpt>
      <trkpt lat="44.8218" lon="5.1636">
        <ele>777.47</ele>
        <time>2019-03-20T09:56:09.000Z</time>
      </trkpt>
      <trkpt lat="44.82167" lon="5.1636">
        <ele>776.66</ele>
        <time>2019-03-20T09:56:19.000Z</time>
      </trkpt>
      <trkpt lat="44.82154" lon="5.16361">
        <ele>776.19</ele>
        <time>2019-03-20T09:56:29.000Z</time>
      </trkpt>
      <trkpt lat="44.82157" lon="5.16374">
        <ele>778.79</ele>
        <time>2019-03-20T09:56:39.000Z</time>
      </trkpt>
      <trkpt lat="44.82167" lon="5.16378">
        <ele>779.94</ele>
        <time>2019-03-20T09:56:49.000Z</time>
      </trkpt>
      <trkpt lat="44.82177" lon="5.16384">
        <ele>781.59</ele>
        <time>2019-03-20T09:56:59.000Z</time>
      </trkpt>
      <trkpt lat="44.82186" lon="5.16392">
        <ele>783.32</ele>
        <time>2019-03-20T09:57:10.000Z</time>
      </trkpt>
      <trkpt lat="44.82194" lon="5.16397">
        <ele>784.59</ele>
        <time>2019-03-20T09:57:20.000Z</time>
      </trkpt>
      <trkpt lat="44.82204" lon="5.16399">
        <ele>785.34</ele>
        <time>2019-03-20T09:57:30.000Z</time>
      </trkpt>
      <trkpt lat="44.82199" lon="5.16409">
        <ele>786.75</ele>
        <time>2019-03-20T09:57:54.000Z</time>
      </trkpt>
      <trkpt lat="44.82189" lon="5.16408">
        <ele>786.22</ele>
        <time>2019-03-20T09:58:04.000Z</time>
      </trkpt>
      <trkpt lat="44.82179" lon="5.16411">
        <ele>786.37</ele>
        <time>2019-03-20T09:58:14.000Z</time>
      </trkpt>
      <trkpt lat="44.82169" lon="5.16425">
        <ele>788.44</ele>
        <time>2019-03-20T09:58:24.000Z</time>
      </trkpt>
      <trkpt lat="44.82162" lon="5.16433">
        <ele>789.77</ele>
        <time>2019-03-20T09:58:34.000Z</time>
      </trkpt>
      <trkpt lat="44.82152" lon="5.16437">
        <ele>790.15</ele>
        <time>2019-03-20T09:58:46.000Z</time>
      </trkpt>
      <trkpt lat="44.82142" lon="5.16443">
        <ele>790.93</ele>
        <time>2019-03-20T09:58:56.000Z</time>
      </trkpt>
      <trkpt lat="44.82133" lon="5.16453">
        <ele>792.52</ele>
        <time>2019-03-20T09:59:06.000Z</time>
      </trkpt>
      <trkpt lat="44.82125" lon="5.16458">
        <ele>793.24</ele>
        <time>2019-03-20T09:59:16.000Z</time>
      </trkpt>
      <trkpt lat="44.82116" lon="5.16468">
        <ele>794.81</ele>
        <time>2019-03-20T09:59:26.000Z</time>
      </trkpt>
      <trkpt lat="44.82108" lon="5.16476">
        <ele>796</ele>
        <time>2019-03-20T09:59:36.000Z</time>
      </trkpt>
      <trkpt lat="44.82099" lon="5.16484">
        <ele>797.37</ele>
        <time>2019-03-20T09:59:46.000Z</time>
      </trkpt>
      <trkpt lat="44.82091" lon="5.16493">
        <ele>798.8</ele>
        <time>2019-03-20T09:59:56.000Z</time>
      </trkpt>
      <trkpt lat="44.82083" lon="5.16501">
        <ele>800.26</ele>
        <time>2019-03-20T10:00:07.000Z</time>
      </trkpt>
      <trkpt lat="44.82074" lon="5.16505">
        <ele>800.77</ele>
        <time>2019-03-20T10:00:17.000Z</time>
      </trkpt>
      <trkpt lat="44.82065" lon="5.16506">
        <ele>800.87</ele>
        <time>2019-03-20T10:00:27.000Z</time>
      </trkpt>
      <trkpt lat="44.82053" lon="5.16505">
        <ele>800.49</ele>
        <time>2019-03-20T10:00:37.000Z</time>
      </trkpt>
      <trkpt lat="44.82042" lon="5.16503">
        <ele>800.04</ele>
        <time>2019-03-20T10:00:47.000Z</time>
      </trkpt>
      <trkpt lat="44.82032" lon="5.16505">
        <ele>800.28</ele>
        <time>2019-03-20T10:00:57.000Z</time>
      </trkpt>
      <trkpt lat="44.82021" lon="5.16507">
        <ele>800.49</ele>
        <time>2019-03-20T10:01:07.000Z</time>
      </trkpt>
      <trkpt lat="44.82008" lon="5.16506">
        <ele>800.18</ele>
        <time>2019-03-20T10:01:17.000Z</time>
      </trkpt>
      <trkpt lat="44.81997" lon="5.16505">
        <ele>799.8</ele>
        <time>2019-03-20T10:01:27.000Z</time>
      </trkpt>
      <trkpt lat="44.81984" lon="5.16503">
        <ele>799.4</ele>
        <time>2019-03-20T10:01:37.000Z</time>
      </trkpt>
      <trkpt lat="44.81971" lon="5.16499">
        <ele>798.55</ele>
        <time>2019-03-20T10:01:47.000Z</time>
      </trkpt>
      <trkpt lat="44.81959" lon="5.16494">
        <ele>797.58</ele>
        <time>2019-03-20T10:01:57.000Z</time>
      </trkpt>
      <trkpt lat="44.81947" lon="5.1649">
        <ele>796.52</ele>
        <time>2019-03-20T10:02:07.000Z</time>
      </trkpt>
      <trkpt lat="44.81938" lon="5.16486">
        <ele>795.46</ele>
        <time>2019-03-20T10:02:17.000Z</time>
      </trkpt>
      <trkpt lat="44.81927" lon="5.16484">
        <ele>794.88</ele>
        <time>2019-03-20T10:02:27.000Z</time>
      </trkpt>
      <trkpt lat="44.81914" lon="5.16485">
        <ele>794.58</ele>
        <time>2019-03-20T10:02:37.000Z</time>
      </trkpt>
      <trkpt lat="44.81903" lon="5.16482">
        <ele>793.35</ele>
        <time>2019-03-20T10:02:47.000Z</time>
      </trkpt>
      <trkpt lat="44.81891" lon="5.16485">
        <ele>793.21</ele>
        <time>2019-03-20T10:02:57.000Z</time>
      </trkpt>
      <trkpt lat="44.81878" lon="5.16491">
        <ele>793.73</ele>
        <time>2019-03-20T10:03:07.000Z</time>
      </trkpt>
      <trkpt lat="44.81868" lon="5.16495">
        <ele>793.87</ele>
        <time>2019-03-20T10:03:17.000Z</time>
      </trkpt>
      <trkpt lat="44.8186" lon="5.16505">
        <ele>795.32</ele>
        <time>2019-03-20T10:04:14.000Z</time>
      </trkpt>
      <trkpt lat="44.81858" lon="5.16518">
        <ele>797.96</ele>
        <time>2019-03-20T10:04:30.000Z</time>
      </trkpt>
      <trkpt lat="44.8186" lon="5.16531">
        <ele>800.81</ele>
        <time>2019-03-20T10:04:46.000Z</time>
      </trkpt>
      <trkpt lat="44.81859" lon="5.16544">
        <ele>803.67</ele>
        <time>2019-03-20T10:05:05.000Z</time>
      </trkpt>
      <trkpt lat="44.81859" lon="5.16557">
        <ele>806.63</ele>
        <time>2019-03-20T10:05:21.000Z</time>
      </trkpt>
      <trkpt lat="44.81857" lon="5.16571">
        <ele>809.5</ele>
        <time>2019-03-20T10:05:37.000Z</time>
      </trkpt>
      <trkpt lat="44.8186" lon="5.16583">
        <ele>812.28</ele>
        <time>2019-03-20T10:05:51.000Z</time>
      </trkpt>
      <trkpt lat="44.81859" lon="5.16596">
        <ele>814.92</ele>
        <time>2019-03-20T10:06:07.000Z</time>
      </trkpt>
      <trkpt lat="44.81859" lon="5.16609">
        <ele>817.31</ele>
        <time>2019-03-20T10:06:20.000Z</time>
      </trkpt>
      <trkpt lat="44.81864" lon="5.16621">
        <ele>819.66</ele>
        <time>2019-03-20T10:06:37.000Z</time>
      </trkpt>
      <trkpt lat="44.81861" lon="5.16633">
        <ele>821.93</ele>
        <time>2019-03-20T10:06:57.000Z</time>
      </trkpt>
      <trkpt lat="44.8185" lon="5.16637">
        <ele>822.52</ele>
        <time>2019-03-20T10:07:07.000Z</time>
      </trkpt>
      <trkpt lat="44.81841" lon="5.1664">
        <ele>823.03</ele>
        <time>2019-03-20T10:07:23.000Z</time>
      </trkpt>
      <trkpt lat="44.81833" lon="5.16648">
        <ele>824.83</ele>
        <time>2019-03-20T10:07:35.000Z</time>
      </trkpt>
      <trkpt lat="44.81838" lon="5.16659">
        <ele>827.54</ele>
        <time>2019-03-20T10:07:55.000Z</time>
      </trkpt>
      <trkpt lat="44.81833" lon="5.16669">
        <ele>830.71</ele>
        <time>2019-03-20T10:08:18.000Z</time>
      </trkpt>
      <trkpt lat="44.81824" lon="5.16671">
        <ele>831.8</ele>
        <time>2019-03-20T10:08:34.000Z</time>
      </trkpt>
      <trkpt lat="44.81815" lon="5.16674">
        <ele>833.48</ele>
        <time>2019-03-20T10:08:51.000Z</time>
      </trkpt>
      <trkpt lat="44.81806" lon="5.16678">
        <ele>835.59</ele>
        <time>2019-03-20T10:09:13.000Z</time>
      </trkpt>
      <trkpt lat="44.81797" lon="5.16683">
        <ele>838.56</ele>
        <time>2019-03-20T10:09:23.000Z</time>
      </trkpt>
      <trkpt lat="44.81789" lon="5.16686">
        <ele>840.69</ele>
        <time>2019-03-20T10:09:43.000Z</time>
      </trkpt>
      <trkpt lat="44.81779" lon="5.16689">
        <ele>842.87</ele>
        <time>2019-03-20T10:09:57.000Z</time>
      </trkpt>
      <trkpt lat="44.81773" lon="5.16698">
        <ele>847</ele>
        <time>2019-03-20T10:10:13.000Z</time>
      </trkpt>
      <trkpt lat="44.81764" lon="5.167">
        <ele>848.64</ele>
        <time>2019-03-20T10:10:23.000Z</time>
      </trkpt>
      <trkpt lat="44.81755" lon="5.16705">
        <ele>851.39</ele>
        <time>2019-03-20T10:10:42.000Z</time>
      </trkpt>
      <trkpt lat="44.81746" lon="5.16706">
        <ele>852.82</ele>
        <time>2019-03-20T10:10:59.000Z</time>
      </trkpt>
      <trkpt lat="44.81737" lon="5.1671">
        <ele>855.09</ele>
        <time>2019-03-20T10:11:12.000Z</time>
      </trkpt>
      <trkpt lat="44.81727" lon="5.16713">
        <ele>857.45</ele>
        <time>2019-03-20T10:11:30.000Z</time>
      </trkpt>
      <trkpt lat="44.81718" lon="5.16709">
        <ele>857.08</ele>
        <time>2019-03-20T10:11:42.000Z</time>
      </trkpt>
      <trkpt lat="44.81711" lon="5.16718">
        <ele>861.41</ele>
        <time>2019-03-20T10:12:23.000Z</time>
      </trkpt>
      <trkpt lat="44.81701" lon="5.16716">
        <ele>861.32</ele>
        <time>2019-03-20T10:12:37.000Z</time>
      </trkpt>
      <trkpt lat="44.81699" lon="5.16728">
        <ele>867.27</ele>
        <time>2019-03-20T10:12:58.000Z</time>
      </trkpt>
      <trkpt lat="44.81708" lon="5.16735">
        <ele>870.48</ele>
        <time>2019-03-20T10:13:08.000Z</time>
      </trkpt>
      <trkpt lat="44.81717" lon="5.16742">
        <ele>873.34</ele>
        <time>2019-03-20T10:13:18.000Z</time>
      </trkpt>
      <trkpt lat="44.81726" lon="5.16747">
        <ele>874.82</ele>
        <time>2019-03-20T10:13:32.000Z</time>
      </trkpt>
      <trkpt lat="44.81736" lon="5.16747">
        <ele>873.46</ele>
        <time>2019-03-20T10:13:43.000Z</time>
      </trkpt>
      <trkpt lat="44.81743" lon="5.16756">
        <ele>878.89</ele>
        <time>2019-03-20T10:13:55.000Z</time>
      </trkpt>
      <trkpt lat="44.81752" lon="5.16761">
        <ele>881.57</ele>
        <time>2019-03-20T10:14:08.000Z</time>
      </trkpt>
      <trkpt lat="44.8176" lon="5.16768">
        <ele>886.3</ele>
        <time>2019-03-20T10:14:25.000Z</time>
      </trkpt>
      <trkpt lat="44.81768" lon="5.16774">
        <ele>889.71</ele>
        <time>2019-03-20T10:14:42.000Z</time>
      </trkpt>
      <trkpt lat="44.81775" lon="5.16783">
        <ele>894.92</ele>
        <time>2019-03-20T10:15:08.000Z</time>
      </trkpt>
      <trkpt lat="44.81784" lon="5.16786">
        <ele>894.91</ele>
        <time>2019-03-20T10:15:22.000Z</time>
      </trkpt>
      <trkpt lat="44.81792" lon="5.16794">
        <ele>898.13</ele>
        <time>2019-03-20T10:16:26.000Z</time>
      </trkpt>
      <trkpt lat="44.81801" lon="5.16795">
        <ele>895.92</ele>
        <time>2019-03-20T10:17:04.000Z</time>
      </trkpt>
      <trkpt lat="44.8181" lon="5.16796">
        <ele>893.27</ele>
        <time>2019-03-20T10:17:29.000Z</time>
      </trkpt>
      <trkpt lat="44.81824" lon="5.16758">
        <ele>868.37</ele>
        <time>2019-03-20T10:18:26.000Z</time>
      </trkpt>
      <trkpt lat="44.81843" lon="5.16801">
        <ele>890.69</ele>
        <time>2019-03-20T10:18:37.000Z</time>
      </trkpt>
      <trkpt lat="44.81839" lon="5.16813">
        <ele>897.23</ele>
        <time>2019-03-20T10:19:02.000Z</time>
      </trkpt>
      <trkpt lat="44.8183" lon="5.1681">
        <ele>896.52</ele>
        <time>2019-03-20T10:19:37.000Z</time>
      </trkpt>
      <trkpt lat="44.81833" lon="5.16823">
        <ele>902.43</ele>
        <time>2019-03-20T10:20:02.000Z</time>
      </trkpt>
      <trkpt lat="44.81824" lon="5.16822">
        <ele>904.08</ele>
        <time>2019-03-20T10:20:29.000Z</time>
      </trkpt>
      <trkpt lat="44.81823" lon="5.16835">
        <ele>909.86</ele>
        <time>2019-03-20T10:21:06.000Z</time>
      </trkpt>
      <trkpt lat="44.81827" lon="5.16848">
        <ele>913.77</ele>
        <time>2019-03-20T10:21:30.000Z</time>
      </trkpt>
      <trkpt lat="44.81834" lon="5.16858">
        <ele>916.03</ele>
        <time>2019-03-20T10:21:41.000Z</time>
      </trkpt>
      <trkpt lat="44.81841" lon="5.16866">
        <ele>918.33</ele>
        <time>2019-03-20T10:21:54.000Z</time>
      </trkpt>
      <trkpt lat="44.8185" lon="5.16871">
        <ele>920.06</ele>
        <time>2019-03-20T10:22:10.000Z</time>
      </trkpt>
      <trkpt lat="44.81841" lon="5.1687">
        <ele>919.66</ele>
        <time>2019-03-20T10:22:50.000Z</time>
      </trkpt>
      <trkpt lat="44.81832" lon="5.16866">
        <ele>919.02</ele>
        <time>2019-03-20T10:23:03.000Z</time>
      </trkpt>
      <trkpt lat="44.81823" lon="5.16861">
        <ele>919.36</ele>
        <time>2019-03-20T10:23:15.000Z</time>
      </trkpt>
      <trkpt lat="44.81813" lon="5.16857">
        <ele>921.03</ele>
        <time>2019-03-20T10:23:31.000Z</time>
      </trkpt>
      <trkpt lat="44.81804" lon="5.16849">
        <ele>922.38</ele>
        <time>2019-03-20T10:23:41.000Z</time>
      </trkpt>
      <trkpt lat="44.81795" lon="5.16845">
        <ele>925.74</ele>
        <time>2019-03-20T10:23:53.000Z</time>
      </trkpt>
      <trkpt lat="44.81786" lon="5.16842">
        <ele>929.49</ele>
        <time>2019-03-20T10:24:09.000Z</time>
      </trkpt>
      <trkpt lat="44.81781" lon="5.16831">
        <ele>927.75</ele>
        <time>2019-03-20T10:24:29.000Z</time>
      </trkpt>
      <trkpt lat="44.81773" lon="5.16837">
        <ele>934.21</ele>
        <time>2019-03-20T10:25:17.000Z</time>
      </trkpt>
      <trkpt lat="44.81763" lon="5.16834">
        <ele>937.1</ele>
        <time>2019-03-20T10:25:27.000Z</time>
      </trkpt>
      <trkpt lat="44.81755" lon="5.16827">
        <ele>936.52</ele>
        <time>2019-03-20T10:25:38.000Z</time>
      </trkpt>
      <trkpt lat="44.81747" lon="5.1682">
        <ele>933.82</ele>
        <time>2019-03-20T10:25:50.000Z</time>
      </trkpt>
      <trkpt lat="44.81738" lon="5.16819">
        <ele>935.67</ele>
        <time>2019-03-20T10:26:05.000Z</time>
      </trkpt>
      <trkpt lat="44.81729" lon="5.1682">
        <ele>938.55</ele>
        <time>2019-03-20T10:26:16.000Z</time>
      </trkpt>
      <trkpt lat="44.8172" lon="5.16822">
        <ele>941.69</ele>
        <time>2019-03-20T10:26:28.000Z</time>
      </trkpt>
      <trkpt lat="44.8171" lon="5.16821">
        <ele>942.88</ele>
        <time>2019-03-20T10:26:40.000Z</time>
      </trkpt>
      <trkpt lat="44.81699" lon="5.1682">
        <ele>943.52</ele>
        <time>2019-03-20T10:26:50.000Z</time>
      </trkpt>
      <trkpt lat="44.81689" lon="5.1682">
        <ele>943.49</ele>
        <time>2019-03-20T10:27:00.000Z</time>
      </trkpt>
      <trkpt lat="44.81679" lon="5.16822">
        <ele>943.66</ele>
        <time>2019-03-20T10:27:20.000Z</time>
      </trkpt>
      <trkpt lat="44.8167" lon="5.16824">
        <ele>941.3</ele>
        <time>2019-03-20T10:27:30.000Z</time>
      </trkpt>
      <trkpt lat="44.8166" lon="5.16827">
        <ele>937.78</ele>
        <time>2019-03-20T10:27:40.000Z</time>
      </trkpt>
      <trkpt lat="44.81652" lon="5.16833">
        <ele>934.01</ele>
        <time>2019-03-20T10:27:54.000Z</time>
      </trkpt>
      <trkpt lat="44.8165" lon="5.16846">
        <ele>935.78</ele>
        <time>2019-03-20T10:28:14.000Z</time>
      </trkpt>
      <trkpt lat="44.81649" lon="5.16859">
        <ele>938.9</ele>
        <time>2019-03-20T10:28:30.000Z</time>
      </trkpt>
      <trkpt lat="44.8165" lon="5.16872">
        <ele>941.9</ele>
        <time>2019-03-20T10:28:43.000Z</time>
      </trkpt>
      <trkpt lat="44.8165" lon="5.16885">
        <ele>941.9</ele>
        <time>2019-03-20T10:29:03.000Z</time>
      </trkpt>
      <trkpt lat="44.8166" lon="5.16886">
        <ele>952.21</ele>
        <time>2019-03-20T10:37:31.000Z</time>
      </trkpt>
      <trkpt lat="44.81663" lon="5.16898">
        <ele>953.45</ele>
        <time>2019-03-20T10:37:49.000Z</time>
      </trkpt>
      <trkpt lat="44.81671" lon="5.16906">
        <ele>956.53</ele>
        <time>2019-03-20T11:11:04.000Z</time>
      </trkpt>
      <trkpt lat="44.81664" lon="5.16898">
        <ele>954.14</ele>
        <time>2019-03-20T11:12:24.000Z</time>
      </trkpt>
      <trkpt lat="44.81661" lon="5.16885">
        <ele>953.44</ele>
        <time>2019-03-20T11:27:34.000Z</time>
      </trkpt>
      <trkpt lat="44.81654" lon="5.16878">
        <ele>945.94</ele>
        <time>2019-03-20T11:28:11.000Z</time>
      </trkpt>
      <trkpt lat="44.81655" lon="5.16864">
        <ele>946.2</ele>
        <time>2019-03-20T11:28:43.000Z</time>
      </trkpt>
      <trkpt lat="44.81653" lon="5.16851">
        <ele>940.97</ele>
        <time>2019-03-20T11:29:07.000Z</time>
      </trkpt>
      <trkpt lat="44.81654" lon="5.16838">
        <ele>937.51</ele>
        <time>2019-03-20T11:29:24.000Z</time>
      </trkpt>
      <trkpt lat="44.81658" lon="5.16826">
        <ele>935.78</ele>
        <time>2019-03-20T11:29:45.000Z</time>
      </trkpt>
      <trkpt lat="44.81668" lon="5.16823">
        <ele>940.01</ele>
        <time>2019-03-20T11:29:55.000Z</time>
      </trkpt>
      <trkpt lat="44.81678" lon="5.16821">
        <ele>942.21</ele>
        <time>2019-03-20T11:30:05.000Z</time>
      </trkpt>
      <trkpt lat="44.81688" lon="5.16818">
        <ele>941.71</ele>
        <time>2019-03-20T11:30:15.000Z</time>
      </trkpt>
      <trkpt lat="44.81699" lon="5.16815">
        <ele>940.01</ele>
        <time>2019-03-20T11:30:25.000Z</time>
      </trkpt>
      <trkpt lat="44.81711" lon="5.16817">
        <ele>939.61</ele>
        <time>2019-03-20T11:30:35.000Z</time>
      </trkpt>
      <trkpt lat="44.81722" lon="5.1682">
        <ele>940.37</ele>
        <time>2019-03-20T11:30:45.000Z</time>
      </trkpt>
      <trkpt lat="44.81734" lon="5.1682">
        <ele>936.99</ele>
        <time>2019-03-20T11:30:55.000Z</time>
      </trkpt>
      <trkpt lat="44.81745" lon="5.16818">
        <ele>932.73</ele>
        <time>2019-03-20T11:31:05.000Z</time>
      </trkpt>
      <trkpt lat="44.81757" lon="5.16825">
        <ele>934.5</ele>
        <time>2019-03-20T11:31:15.000Z</time>
      </trkpt>
      <trkpt lat="44.81768" lon="5.1683">
        <ele>933.07</ele>
        <time>2019-03-20T11:31:25.000Z</time>
      </trkpt>
      <trkpt lat="44.81778" lon="5.16834">
        <ele>930.57</ele>
        <time>2019-03-20T11:31:35.000Z</time>
      </trkpt>
      <trkpt lat="44.81788" lon="5.1684">
        <ele>927.83</ele>
        <time>2019-03-20T11:31:45.000Z</time>
      </trkpt>
      <trkpt lat="44.81796" lon="5.16847">
        <ele>925.82</ele>
        <time>2019-03-20T11:31:58.000Z</time>
      </trkpt>
      <trkpt lat="44.81808" lon="5.16853">
        <ele>922.15</ele>
        <time>2019-03-20T11:32:08.000Z</time>
      </trkpt>
      <trkpt lat="44.81817" lon="5.16861">
        <ele>921.06</ele>
        <time>2019-03-20T11:32:18.000Z</time>
      </trkpt>
      <trkpt lat="44.81828" lon="5.16864">
        <ele>919.14</ele>
        <time>2019-03-20T11:32:28.000Z</time>
      </trkpt>
      <trkpt lat="44.81838" lon="5.16868">
        <ele>919.04</ele>
        <time>2019-03-20T11:32:38.000Z</time>
      </trkpt>
      <trkpt lat="44.81848" lon="5.16872">
        <ele>920.28</ele>
        <time>2019-03-20T11:32:48.000Z</time>
      </trkpt>
      <trkpt lat="44.81842" lon="5.1686">
        <ele>916.53</ele>
        <time>2019-03-20T11:33:17.000Z</time>
      </trkpt>
      <trkpt lat="44.81836" lon="5.1685">
        <ele>913.08</ele>
        <time>2019-03-20T11:36:31.000Z</time>
      </trkpt>
      <trkpt lat="44.8183" lon="5.1684">
        <ele>910.26</ele>
        <time>2019-03-20T11:36:48.000Z</time>
      </trkpt>
      <trkpt lat="44.81825" lon="5.16828">
        <ele>906.3</ele>
        <time>2019-03-20T11:37:05.000Z</time>
      </trkpt>
      <trkpt lat="44.81827" lon="5.16814">
        <ele>899.16</ele>
        <time>2019-03-20T11:37:17.000Z</time>
      </trkpt>
      <trkpt lat="44.81833" lon="5.16825">
        <ele>903.46</ele>
        <time>2019-03-20T11:37:34.000Z</time>
      </trkpt>
      <trkpt lat="44.81838" lon="5.16814">
        <ele>897.51</ele>
        <time>2019-03-20T11:38:08.000Z</time>
      </trkpt>
      <trkpt lat="44.81845" lon="5.16821">
        <ele>901.07</ele>
        <time>2019-03-20T11:38:27.000Z</time>
      </trkpt>
      <trkpt lat="44.81846" lon="5.16808">
        <ele>894.65</ele>
        <time>2019-03-20T11:38:40.000Z</time>
      </trkpt>
      <trkpt lat="44.81838" lon="5.168">
        <ele>890.1</ele>
        <time>2019-03-20T11:39:08.000Z</time>
      </trkpt>
      <trkpt lat="44.81827" lon="5.168">
        <ele>891.68</ele>
        <time>2019-03-20T11:39:23.000Z</time>
      </trkpt>
      <trkpt lat="44.8182" lon="5.16792">
        <ele>888.28</ele>
        <time>2019-03-20T11:39:35.000Z</time>
      </trkpt>
      <trkpt lat="44.8181" lon="5.16786">
        <ele>887.04</ele>
        <time>2019-03-20T11:40:04.000Z</time>
      </trkpt>
      <trkpt lat="44.81807" lon="5.16774">
        <ele>880.04</ele>
        <time>2019-03-20T11:40:23.000Z</time>
      </trkpt>
      <trkpt lat="44.81797" lon="5.16774">
        <ele>882.27</ele>
        <time>2019-03-20T11:41:14.000Z</time>
      </trkpt>
      <trkpt lat="44.81787" lon="5.16771">
        <ele>882.9</ele>
        <time>2019-03-20T11:41:26.000Z</time>
      </trkpt>
      <trkpt lat="44.81777" lon="5.16768">
        <ele>882.73</ele>
        <time>2019-03-20T11:41:38.000Z</time>
      </trkpt>
      <trkpt lat="44.81769" lon="5.16761">
        <ele>879.23</ele>
        <time>2019-03-20T11:41:49.000Z</time>
      </trkpt>
      <trkpt lat="44.8176" lon="5.16757">
        <ele>877.63</ele>
        <time>2019-03-20T11:42:02.000Z</time>
      </trkpt>
      <trkpt lat="44.81751" lon="5.16754">
        <ele>876.74</ele>
        <time>2019-03-20T11:42:12.000Z</time>
      </trkpt>
      <trkpt lat="44.81742" lon="5.16747">
        <ele>873.14</ele>
        <time>2019-03-20T11:42:22.000Z</time>
      </trkpt>
      <trkpt lat="44.81731" lon="5.16741">
        <ele>870.67</ele>
        <time>2019-03-20T11:42:32.000Z</time>
      </trkpt>
      <trkpt lat="44.81722" lon="5.16738">
        <ele>870.48</ele>
        <time>2019-03-20T11:42:46.000Z</time>
      </trkpt>
      <trkpt lat="44.81724" lon="5.16725">
        <ele>863.47</ele>
        <time>2019-03-20T11:43:01.000Z</time>
      </trkpt>
      <trkpt lat="44.81732" lon="5.1672">
        <ele>859.89</ele>
        <time>2019-03-20T11:43:13.000Z</time>
      </trkpt>
      <trkpt lat="44.81741" lon="5.16717">
        <ele>857.74</ele>
        <time>2019-03-20T11:43:29.000Z</time>
      </trkpt>
      <trkpt lat="44.8175" lon="5.16713">
        <ele>855.1</ele>
        <time>2019-03-20T11:43:42.000Z</time>
      </trkpt>
      <trkpt lat="44.81759" lon="5.16706">
        <ele>851.7</ele>
        <time>2019-03-20T11:43:54.000Z</time>
      </trkpt>
      <trkpt lat="44.81768" lon="5.16702">
        <ele>849.09</ele>
        <time>2019-03-20T11:44:06.000Z</time>
      </trkpt>
      <trkpt lat="44.81776" lon="5.16696">
        <ele>845.94</ele>
        <time>2019-03-20T11:44:23.000Z</time>
      </trkpt>
      <trkpt lat="44.81786" lon="5.16694">
        <ele>844.05</ele>
        <time>2019-03-20T11:44:35.000Z</time>
      </trkpt>
      <trkpt lat="44.81795" lon="5.16692">
        <ele>842.21</ele>
        <time>2019-03-20T11:44:48.000Z</time>
      </trkpt>
      <trkpt lat="44.81804" lon="5.16687">
        <ele>839.05</ele>
        <time>2019-03-20T11:44:59.000Z</time>
      </trkpt>
      <trkpt lat="44.81812" lon="5.16682">
        <ele>836.42</ele>
        <time>2019-03-20T11:45:09.000Z</time>
      </trkpt>
      <trkpt lat="44.81822" lon="5.1668">
        <ele>834.96</ele>
        <time>2019-03-20T11:45:21.000Z</time>
      </trkpt>
      <trkpt lat="44.81831" lon="5.16675">
        <ele>832.62</ele>
        <time>2019-03-20T11:45:35.000Z</time>
      </trkpt>
      <trkpt lat="44.81838" lon="5.16666">
        <ele>829.64</ele>
        <time>2019-03-20T11:45:47.000Z</time>
      </trkpt>
      <trkpt lat="44.81846" lon="5.16658">
        <ele>827.31</ele>
        <time>2019-03-20T11:46:00.000Z</time>
      </trkpt>
      <trkpt lat="44.81839" lon="5.16648">
        <ele>824.74</ele>
        <time>2019-03-20T11:47:32.000Z</time>
      </trkpt>
      <trkpt lat="44.81847" lon="5.16641">
        <ele>823.3</ele>
        <time>2019-03-20T11:47:46.000Z</time>
      </trkpt>
      <trkpt lat="44.81856" lon="5.16635">
        <ele>822.26</ele>
        <time>2019-03-20T11:47:56.000Z</time>
      </trkpt>
      <trkpt lat="44.81862" lon="5.16626">
        <ele>820.67</ele>
        <time>2019-03-20T11:48:22.000Z</time>
      </trkpt>
      <trkpt lat="44.81861" lon="5.16613">
        <ele>818.23</ele>
        <time>2019-03-20T11:48:33.000Z</time>
      </trkpt>
      <trkpt lat="44.81861" lon="5.166">
        <ele>815.69</ele>
        <time>2019-03-20T11:48:45.000Z</time>
      </trkpt>
      <trkpt lat="44.8186" lon="5.16586">
        <ele>812.98</ele>
        <time>2019-03-20T11:48:58.000Z</time>
      </trkpt>
      <trkpt lat="44.8186" lon="5.16571">
        <ele>809.67</ele>
        <time>2019-03-20T11:49:10.000Z</time>
      </trkpt>
      <trkpt lat="44.81863" lon="5.16556">
        <ele>806.53</ele>
        <time>2019-03-20T11:49:23.000Z</time>
      </trkpt>
      <trkpt lat="44.81863" lon="5.16543">
        <ele>803.62</ele>
        <time>2019-03-20T11:49:33.000Z</time>
      </trkpt>
      <trkpt lat="44.81863" lon="5.16528">
        <ele>800.46</ele>
        <time>2019-03-20T11:49:44.000Z</time>
      </trkpt>
      <trkpt lat="44.81864" lon="5.16515">
        <ele>797.72</ele>
        <time>2019-03-20T11:49:54.000Z</time>
      </trkpt>
      <trkpt lat="44.8186" lon="5.16504">
        <ele>795.04</ele>
        <time>2019-03-20T11:50:51.000Z</time>
      </trkpt>
      <trkpt lat="44.81852" lon="5.16497">
        <ele>793.14</ele>
        <time>2019-03-20T11:51:03.000Z</time>
      </trkpt>
      <trkpt lat="44.81842" lon="5.16494">
        <ele>792.11</ele>
        <time>2019-03-20T11:51:13.000Z</time>
      </trkpt>
      <trkpt lat="44.81831" lon="5.16488">
        <ele>790.55</ele>
        <time>2019-03-20T11:51:23.000Z</time>
      </trkpt>
      <trkpt lat="44.81822" lon="5.16486">
        <ele>790.09</ele>
        <time>2019-03-20T11:51:36.000Z</time>
      </trkpt>
      <trkpt lat="44.81813" lon="5.16483">
        <ele>789.6</ele>
        <time>2019-03-20T11:53:07.000Z</time>
      </trkpt>
      <trkpt lat="44.81801" lon="5.16482">
        <ele>789.58</ele>
        <time>2019-03-20T11:53:17.000Z</time>
      </trkpt>
      <trkpt lat="44.81789" lon="5.16478">
        <ele>788.96</ele>
        <time>2019-03-20T11:53:27.000Z</time>
      </trkpt>
      <trkpt lat="44.81774" lon="5.16477">
        <ele>788.97</ele>
        <time>2019-03-20T11:53:37.000Z</time>
      </trkpt>
      <trkpt lat="44.81761" lon="5.16475">
        <ele>788.4</ele>
        <time>2019-03-20T11:53:47.000Z</time>
      </trkpt>
      <trkpt lat="44.8175" lon="5.16472">
        <ele>787.18</ele>
        <time>2019-03-20T11:53:57.000Z</time>
      </trkpt>
      <trkpt lat="44.81736" lon="5.16468">
        <ele>785.11</ele>
        <time>2019-03-20T11:54:07.000Z</time>
      </trkpt>
      <trkpt lat="44.81723" lon="5.16467">
        <ele>783.83</ele>
        <time>2019-03-20T11:54:17.000Z</time>
      </trkpt>
      <trkpt lat="44.81711" lon="5.16468">
        <ele>782.68</ele>
        <time>2019-03-20T11:54:27.000Z</time>
      </trkpt>
      <trkpt lat="44.817" lon="5.16467">
        <ele>781.36</ele>
        <time>2019-03-20T11:54:37.000Z</time>
      </trkpt>
      <trkpt lat="44.81687" lon="5.16472">
        <ele>781.13</ele>
        <time>2019-03-20T11:54:47.000Z</time>
      </trkpt>
      <trkpt lat="44.81677" lon="5.16476">
        <ele>780.83</ele>
        <time>2019-03-20T11:54:57.000Z</time>
      </trkpt>
      <trkpt lat="44.81664" lon="5.16481">
        <ele>780.5</ele>
        <time>2019-03-20T11:55:07.000Z</time>
      </trkpt>
      <trkpt lat="44.81652" lon="5.16484">
        <ele>780</ele>
        <time>2019-03-20T11:55:17.000Z</time>
      </trkpt>
      <trkpt lat="44.8164" lon="5.16487">
        <ele>779.14</ele>
        <time>2019-03-20T11:55:27.000Z</time>
      </trkpt>
      <trkpt lat="44.81629" lon="5.16489">
        <ele>778.39</ele>
        <time>2019-03-20T11:55:37.000Z</time>
      </trkpt>
      <trkpt lat="44.81618" lon="5.16492">
        <ele>777.9</ele>
        <time>2019-03-20T11:55:47.000Z</time>
      </trkpt>
      <trkpt lat="44.81609" lon="5.16497">
        <ele>777.84</ele>
        <time>2019-03-20T11:55:57.000Z</time>
      </trkpt>
      <trkpt lat="44.81597" lon="5.16502">
        <ele>776.93</ele>
        <time>2019-03-20T11:56:07.000Z</time>
      </trkpt>
      <trkpt lat="44.81586" lon="5.16502">
        <ele>775.17</ele>
        <time>2019-03-20T11:56:17.000Z</time>
      </trkpt>
      <trkpt lat="44.81575" lon="5.16504">
        <ele>773.11</ele>
        <time>2019-03-20T11:56:27.000Z</time>
      </trkpt>
      <trkpt lat="44.81565" lon="5.16507">
        <ele>771.24</ele>
        <time>2019-03-20T11:56:37.000Z</time>
      </trkpt>
      <trkpt lat="44.81555" lon="5.1651">
        <ele>768.89</ele>
        <time>2019-03-20T11:56:47.000Z</time>
      </trkpt>
      <trkpt lat="44.81544" lon="5.16515">
        <ele>766.57</ele>
        <time>2019-03-20T11:56:57.000Z</time>
      </trkpt>
      <trkpt lat="44.81534" lon="5.16515">
        <ele>763.63</ele>
        <time>2019-03-20T11:57:08.000Z</time>
      </trkpt>
      <trkpt lat="44.81525" lon="5.1652">
        <ele>761.79</ele>
        <time>2019-03-20T11:57:42.000Z</time>
      </trkpt>
      <trkpt lat="44.81516" lon="5.1652">
        <ele>758.84</ele>
        <time>2019-03-20T11:58:33.000Z</time>
      </trkpt>
      <trkpt lat="44.81508" lon="5.16526">
        <ele>757.58</ele>
        <time>2019-03-20T11:58:51.000Z</time>
      </trkpt>
      <trkpt lat="44.81497" lon="5.16535">
        <ele>756.07</ele>
        <time>2019-03-20T11:59:01.000Z</time>
      </trkpt>
      <trkpt lat="44.81485" lon="5.16543">
        <ele>754.27</ele>
        <time>2019-03-20T11:59:11.000Z</time>
      </trkpt>
      <trkpt lat="44.81475" lon="5.16547">
        <ele>752.05</ele>
        <time>2019-03-20T11:59:21.000Z</time>
      </trkpt>
      <trkpt lat="44.81464" lon="5.16552">
        <ele>749.86</ele>
        <time>2019-03-20T11:59:31.000Z</time>
      </trkpt>
      <trkpt lat="44.81449" lon="5.1656">
        <ele>747.05</ele>
        <time>2019-03-20T11:59:41.000Z</time>
      </trkpt>
      <trkpt lat="44.81437" lon="5.16567">
        <ele>745.17</ele>
        <time>2019-03-20T11:59:51.000Z</time>
      </trkpt>
      <trkpt lat="44.8143" lon="5.16574">
        <ele>744.45</ele>
        <time>2019-03-20T12:00:09.000Z</time>
      </trkpt>
      <trkpt lat="44.8142" lon="5.16582">
        <ele>743.4</ele>
        <time>2019-03-20T12:00:19.000Z</time>
      </trkpt>
      <trkpt lat="44.81408" lon="5.16589">
        <ele>742.23</ele>
        <time>2019-03-20T12:00:29.000Z</time>
      </trkpt>
      <trkpt lat="44.81397" lon="5.16596">
        <ele>741.43</ele>
        <time>2019-03-20T12:00:39.000Z</time>
      </trkpt>
      <trkpt lat="44.81383" lon="5.16605">
        <ele>740.78</ele>
        <time>2019-03-20T12:00:49.000Z</time>
      </trkpt>
      <trkpt lat="44.81371" lon="5.16612">
        <ele>740.21</ele>
        <time>2019-03-20T12:00:59.000Z</time>
      </trkpt>
      <trkpt lat="44.8136" lon="5.16624">
        <ele>739.96</ele>
        <time>2019-03-20T12:01:09.000Z</time>
      </trkpt>
      <trkpt lat="44.81348" lon="5.16629">
        <ele>738.8</ele>
        <time>2019-03-20T12:01:19.000Z</time>
      </trkpt>
      <trkpt lat="44.81336" lon="5.16626">
        <ele>736.93</ele>
        <time>2019-03-20T12:01:29.000Z</time>
      </trkpt>
      <trkpt lat="44.81328" lon="5.1662">
        <ele>735.36</ele>
        <time>2019-03-20T12:01:49.000Z</time>
      </trkpt>
      <trkpt lat="44.8132" lon="5.16612">
        <ele>733.9</ele>
        <time>2019-03-20T12:04:05.000Z</time>
      </trkpt>
      <trkpt lat="44.81311" lon="5.16605">
        <ele>732.39</ele>
        <time>2019-03-20T12:04:18.000Z</time>
      </trkpt>
      <trkpt lat="44.81301" lon="5.16597">
        <ele>730.69</ele>
        <time>2019-03-20T12:04:28.000Z</time>
      </trkpt>
      <trkpt lat="44.81292" lon="5.16595">
        <ele>729.37</ele>
        <time>2019-03-20T12:04:47.000Z</time>
      </trkpt>
      <trkpt lat="44.81289" lon="5.16583">
        <ele>728.33</ele>
        <time>2019-03-20T12:05:05.000Z</time>
      </trkpt>
      <trkpt lat="44.81291" lon="5.16569">
        <ele>727.69</ele>
        <time>2019-03-20T12:05:15.000Z</time>
      </trkpt>
      <trkpt lat="44.81291" lon="5.16552">
        <ele>726.48</ele>
        <time>2019-03-20T12:05:25.000Z</time>
      </trkpt>
      <trkpt lat="44.81296" lon="5.16539">
        <ele>726.1</ele>
        <time>2019-03-20T12:05:37.000Z</time>
      </trkpt>
      <trkpt lat="44.81297" lon="5.16525">
        <ele>724.91</ele>
        <time>2019-03-20T12:06:12.000Z</time>
      </trkpt>
      <trkpt lat="44.81288" lon="5.1652">
        <ele>723.19</ele>
        <time>2019-03-20T12:06:33.000Z</time>
      </trkpt>
      <trkpt lat="44.81279" lon="5.16524">
        <ele>722.17</ele>
        <time>2019-03-20T12:06:43.000Z</time>
      </trkpt>
      <trkpt lat="44.81268" lon="5.16527">
        <ele>720.76</ele>
        <time>2019-03-20T12:06:53.000Z</time>
      </trkpt>
      <trkpt lat="44.81257" lon="5.1653">
        <ele>719.14</ele>
        <time>2019-03-20T12:07:03.000Z</time>
      </trkpt>
      <trkpt lat="44.81246" lon="5.16534">
        <ele>717.52</ele>
        <time>2019-03-20T12:07:13.000Z</time>
      </trkpt>
      <trkpt lat="44.81239" lon="5.16542">
        <ele>716.75</ele>
        <time>2019-03-20T12:07:23.000Z</time>
      </trkpt>
      <trkpt lat="44.81233" lon="5.16556">
        <ele>716.72</ele>
        <time>2019-03-20T12:07:33.000Z</time>
      </trkpt>
      <trkpt lat="44.81223" lon="5.16568">
        <ele>715.29</ele>
        <time>2019-03-20T12:07:43.000Z</time>
      </trkpt>
      <trkpt lat="44.81215" lon="5.16578">
        <ele>713.69</ele>
        <time>2019-03-20T12:07:53.000Z</time>
      </trkpt>
      <trkpt lat="44.81204" lon="5.16586">
        <ele>711.36</ele>
        <time>2019-03-20T12:08:03.000Z</time>
      </trkpt>
      <trkpt lat="44.81195" lon="5.16591">
        <ele>709.1</ele>
        <time>2019-03-20T12:08:13.000Z</time>
      </trkpt>
      <trkpt lat="44.81189" lon="5.16601">
        <ele>707.77</ele>
        <time>2019-03-20T12:08:23.000Z</time>
      </trkpt>
      <trkpt lat="44.81183" lon="5.16612">
        <ele>706.47</ele>
        <time>2019-03-20T12:08:35.000Z</time>
      </trkpt>
      <trkpt lat="44.81174" lon="5.16622">
        <ele>704.09</ele>
        <time>2019-03-20T12:08:45.000Z</time>
      </trkpt>
      <trkpt lat="44.81168" lon="5.16636">
        <ele>702.74</ele>
        <time>2019-03-20T12:08:55.000Z</time>
      </trkpt>
      <trkpt lat="44.81165" lon="5.16651">
        <ele>701.92</ele>
        <time>2019-03-20T12:09:05.000Z</time>
      </trkpt>
      <trkpt lat="44.81163" lon="5.16664">
        <ele>701.23</ele>
        <time>2019-03-20T12:09:16.000Z</time>
      </trkpt>
      <trkpt lat="44.81158" lon="5.16677">
        <ele>699.82</ele>
        <time>2019-03-20T12:09:26.000Z</time>
      </trkpt>
      <trkpt lat="44.81156" lon="5.1669">
        <ele>698.96</ele>
        <time>2019-03-20T12:09:37.000Z</time>
      </trkpt>
      <trkpt lat="44.81151" lon="5.16702">
        <ele>697.65</ele>
        <time>2019-03-20T12:09:47.000Z</time>
      </trkpt>
      <trkpt lat="44.81146" lon="5.16717">
        <ele>696.06</ele>
        <time>2019-03-20T12:09:57.000Z</time>
      </trkpt>
      <trkpt lat="44.81135" lon="5.16729">
        <ele>693.75</ele>
        <time>2019-03-20T12:10:07.000Z</time>
      </trkpt>
      <trkpt lat="44.81128" lon="5.16738">
        <ele>692.35</ele>
        <time>2019-03-20T12:10:18.000Z</time>
      </trkpt>
      <trkpt lat="44.81119" lon="5.1674">
        <ele>690.82</ele>
        <time>2019-03-20T12:10:36.000Z</time>
      </trkpt>
      <trkpt lat="44.81109" lon="5.16744">
        <ele>689.27</ele>
        <time>2019-03-20T12:10:46.000Z</time>
      </trkpt>
      <trkpt lat="44.811" lon="5.16748">
        <ele>688.09</ele>
        <time>2019-03-20T12:10:59.000Z</time>
      </trkpt>
      <trkpt lat="44.81087" lon="5.16753">
        <ele>686.5</ele>
        <time>2019-03-20T12:11:09.000Z</time>
      </trkpt>
      <trkpt lat="44.81076" lon="5.16759">
        <ele>685.31</ele>
        <time>2019-03-20T12:11:19.000Z</time>
      </trkpt>
      <trkpt lat="44.81064" lon="5.16763">
        <ele>684.03</ele>
        <time>2019-03-20T12:11:29.000Z</time>
      </trkpt>
      <trkpt lat="44.81053" lon="5.16761">
        <ele>682.78</ele>
        <time>2019-03-20T12:11:39.000Z</time>
      </trkpt>
      <trkpt lat="44.81041" lon="5.16764">
        <ele>681.78</ele>
        <time>2019-03-20T12:11:49.000Z</time>
      </trkpt>
      <trkpt lat="44.8103" lon="5.16767">
        <ele>681</ele>
        <time>2019-03-20T12:11:59.000Z</time>
      </trkpt>
      <trkpt lat="44.81019" lon="5.16772">
        <ele>680.61</ele>
        <time>2019-03-20T12:12:09.000Z</time>
      </trkpt>
      <trkpt lat="44.81009" lon="5.16777">
        <ele>680.42</ele>
        <time>2019-03-20T12:12:19.000Z</time>
      </trkpt>
      <trkpt lat="44.80995" lon="5.16779">
        <ele>680.44</ele>
        <time>2019-03-20T12:12:29.000Z</time>
      </trkpt>
      <trkpt lat="44.80986" lon="5.16779">
        <ele>680.65</ele>
        <time>2019-03-20T12:12:39.000Z</time>
      </trkpt>
      <trkpt lat="44.80976" lon="5.16772">
        <ele>680.61</ele>
        <time>2019-03-20T12:12:49.000Z</time>
      </trkpt>
      <trkpt lat="44.80968" lon="5.1676">
        <ele>680.36</ele>
        <time>2019-03-20T12:12:59.000Z</time>
      </trkpt>
      <trkpt lat="44.80965" lon="5.16748">
        <ele>679.73</ele>
        <time>2019-03-20T12:13:10.000Z</time>
      </trkpt>
      <trkpt lat="44.80959" lon="5.16739">
        <ele>679.59</ele>
        <time>2019-03-20T12:13:20.000Z</time>
      </trkpt>
      <trkpt lat="44.80956" lon="5.16726">
        <ele>678.99</ele>
        <time>2019-03-20T12:13:30.000Z</time>
      </trkpt>
      <trkpt lat="44.80948" lon="5.16719">
        <ele>679</ele>
        <time>2019-03-20T12:13:46.000Z</time>
      </trkpt>
      <trkpt lat="44.80939" lon="5.16715">
        <ele>679.45</ele>
        <time>2019-03-20T12:16:45.000Z</time>
      </trkpt>
      <trkpt lat="44.80931" lon="5.16708">
        <ele>679.69</ele>
        <time>2019-03-20T12:17:53.000Z</time>
      </trkpt>
      <trkpt lat="44.80924" lon="5.167">
        <ele>679.86</ele>
        <time>2019-03-20T12:18:22.000Z</time>
      </trkpt>
      <trkpt lat="44.80915" lon="5.16695">
        <ele>680.39</ele>
        <time>2019-03-20T12:18:32.000Z</time>
      </trkpt>
      <trkpt lat="44.80907" lon="5.1669">
        <ele>680.91</ele>
        <time>2019-03-20T12:18:43.000Z</time>
      </trkpt>
      <trkpt lat="44.80899" lon="5.16684">
        <ele>681.5</ele>
        <time>2019-03-20T12:18:55.000Z</time>
      </trkpt>
      <trkpt lat="44.80891" lon="5.16675">
        <ele>681.77</ele>
        <time>2019-03-20T12:19:14.000Z</time>
      </trkpt>
      <trkpt lat="44.80884" lon="5.16665">
        <ele>681.88</ele>
        <time>2019-03-20T12:19:25.000Z</time>
      </trkpt>
      <trkpt lat="44.80877" lon="5.16656">
        <ele>682.14</ele>
        <time>2019-03-20T12:19:35.000Z</time>
      </trkpt>
      <trkpt lat="44.80868" lon="5.16645">
        <ele>682.44</ele>
        <time>2019-03-20T12:19:45.000Z</time>
      </trkpt>
      <trkpt lat="44.80858" lon="5.16634">
        <ele>682.9</ele>
        <time>2019-03-20T12:19:55.000Z</time>
      </trkpt>
      <trkpt lat="44.80849" lon="5.16622">
        <ele>682.91</ele>
        <time>2019-03-20T12:20:05.000Z</time>
      </trkpt>
      <trkpt lat="44.8084" lon="5.16611">
        <ele>682.97</ele>
        <time>2019-03-20T12:20:15.000Z</time>
      </trkpt>
      <trkpt lat="44.80831" lon="5.16599">
        <ele>682.85</ele>
        <time>2019-03-20T12:20:25.000Z</time>
      </trkpt>
      <trkpt lat="44.80824" lon="5.16588">
        <ele>682.66</ele>
        <time>2019-03-20T12:20:35.000Z</time>
      </trkpt>
      <trkpt lat="44.80816" lon="5.16578">
        <ele>682.67</ele>
        <time>2019-03-20T12:20:45.000Z</time>
      </trkpt>
      <trkpt lat="44.80809" lon="5.1657">
        <ele>682.84</ele>
        <time>2019-03-20T12:20:55.000Z</time>
      </trkpt>
      <trkpt lat="44.80799" lon="5.16559">
        <ele>683.21</ele>
        <time>2019-03-20T12:21:05.000Z</time>
      </trkpt>
      <trkpt lat="44.80788" lon="5.16548">
        <ele>683.76</ele>
        <time>2019-03-20T12:21:15.000Z</time>
      </trkpt>
      <trkpt lat="44.80779" lon="5.16537">
        <ele>684.14</ele>
        <time>2019-03-20T12:21:25.000Z</time>
      </trkpt>
      <trkpt lat="44.8077" lon="5.16526">
        <ele>684.68</ele>
        <time>2019-03-20T12:21:35.000Z</time>
      </trkpt>
      <trkpt lat="44.80761" lon="5.16514">
        <ele>685.29</ele>
        <time>2019-03-20T12:21:45.000Z</time>
      </trkpt>
      <trkpt lat="44.80753" lon="5.16504">
        <ele>685.81</ele>
        <time>2019-03-20T12:21:55.000Z</time>
      </trkpt>
      <trkpt lat="44.80745" lon="5.16495">
        <ele>686.39</ele>
        <time>2019-03-20T12:22:05.000Z</time>
      </trkpt>
      <trkpt lat="44.80738" lon="5.16486">
        <ele>686.92</ele>
        <time>2019-03-20T12:22:15.000Z</time>
      </trkpt>
      <trkpt lat="44.80736" lon="5.16473">
        <ele>686.44</ele>
        <time>2019-03-20T12:22:30.000Z</time>
      </trkpt>
      <trkpt lat="44.80728" lon="5.16465">
        <ele>687.09</ele>
        <time>2019-03-20T12:23:00.000Z</time>
      </trkpt>
      <trkpt lat="44.80721" lon="5.16458">
        <ele>687.75</ele>
        <time>2019-03-20T12:23:54.000Z</time>
      </trkpt>
      <trkpt lat="44.80711" lon="5.1645">
        <ele>688.47</ele>
        <time>2019-03-20T12:24:04.000Z</time>
      </trkpt>
      <trkpt lat="44.80704" lon="5.16441">
        <ele>688.78</ele>
        <time>2019-03-20T12:24:34.000Z</time>
      </trkpt>
      <trkpt lat="44.80693" lon="5.16436">
        <ele>689.68</ele>
        <time>2019-03-20T12:24:44.000Z</time>
      </trkpt>
      <trkpt lat="44.80681" lon="5.16428">
        <ele>690.47</ele>
        <time>2019-03-20T12:24:54.000Z</time>
      </trkpt>
      <trkpt lat="44.80675" lon="5.16417">
        <ele>690.27</ele>
        <time>2019-03-20T12:25:06.000Z</time>
      </trkpt>
      <trkpt lat="44.80667" lon="5.1641">
        <ele>690.55</ele>
        <time>2019-03-20T12:25:43.000Z</time>
      </trkpt>
      <trkpt lat="44.80654" lon="5.16409">
        <ele>691.59</ele>
        <time>2019-03-20T12:25:53.000Z</time>
      </trkpt>
      <trkpt lat="44.80639" lon="5.16403">
        <ele>692.3</ele>
        <time>2019-03-20T12:26:03.000Z</time>
      </trkpt>
      <trkpt lat="44.80627" lon="5.16394">
        <ele>692.63</ele>
        <time>2019-03-20T12:26:13.000Z</time>
      </trkpt>
      <trkpt lat="44.80617" lon="5.16382">
        <ele>692.61</ele>
        <time>2019-03-20T12:26:23.000Z</time>
      </trkpt>
      <trkpt lat="44.80607" lon="5.1637">
        <ele>692.56</ele>
        <time>2019-03-20T12:26:33.000Z</time>
      </trkpt>
      <trkpt lat="44.80596" lon="5.16365">
        <ele>692.82</ele>
        <time>2019-03-20T12:26:43.000Z</time>
      </trkpt>
      <trkpt lat="44.80585" lon="5.16353">
        <ele>692.74</ele>
        <time>2019-03-20T12:26:53.000Z</time>
      </trkpt>
      <trkpt lat="44.80574" lon="5.16342">
        <ele>692.63</ele>
        <time>2019-03-20T12:27:03.000Z</time>
      </trkpt>
      <trkpt lat="44.80562" lon="5.16332">
        <ele>692.57</ele>
        <time>2019-03-20T12:27:13.000Z</time>
      </trkpt>
      <trkpt lat="44.80551" lon="5.16323">
        <ele>692.35</ele>
        <time>2019-03-20T12:27:23.000Z</time>
      </trkpt>
      <trkpt lat="44.80538" lon="5.16314">
        <ele>691.88</ele>
        <time>2019-03-20T12:27:33.000Z</time>
      </trkpt>
      <trkpt lat="44.80526" lon="5.16308">
        <ele>691.29</ele>
        <time>2019-03-20T12:27:43.000Z</time>
      </trkpt>
      <trkpt lat="44.80515" lon="5.163">
        <ele>690.12</ele>
        <time>2019-03-20T12:27:53.000Z</time>
      </trkpt>
      <trkpt lat="44.80507" lon="5.16288">
        <ele>688.53</ele>
        <time>2019-03-20T12:28:03.000Z</time>
      </trkpt>
      <trkpt lat="44.80502" lon="5.16272">
        <ele>687.01</ele>
        <time>2019-03-20T12:28:13.000Z</time>
      </trkpt>
      <trkpt lat="44.80498" lon="5.16257">
        <ele>686.39</ele>
        <time>2019-03-20T12:28:23.000Z</time>
      </trkpt>
      <trkpt lat="44.80493" lon="5.16241">
        <ele>686.65</ele>
        <time>2019-03-20T12:28:33.000Z</time>
      </trkpt>
      <trkpt lat="44.80484" lon="5.16231">
        <ele>685.98</ele>
        <time>2019-03-20T12:28:43.000Z</time>
      </trkpt>
      <trkpt lat="44.80474" lon="5.16226">
        <ele>684.39</ele>
        <time>2019-03-20T12:28:53.000Z</time>
      </trkpt>
      <trkpt lat="44.80464" lon="5.16226">
        <ele>681.63</ele>
        <time>2019-03-20T12:29:03.000Z</time>
      </trkpt>
      <trkpt lat="44.80455" lon="5.16227">
        <ele>678.45</ele>
        <time>2019-03-20T12:29:14.000Z</time>
      </trkpt>
      <trkpt lat="44.80444" lon="5.16226">
        <ele>675.2</ele>
        <time>2019-03-20T12:29:24.000Z</time>
      </trkpt>
      <trkpt lat="44.80435" lon="5.16223">
        <ele>673.37</ele>
        <time>2019-03-20T12:29:34.000Z</time>
      </trkpt>
      <trkpt lat="44.80426" lon="5.16218">
        <ele>672.05</ele>
        <time>2019-03-20T12:29:45.000Z</time>
      </trkpt>
      <trkpt lat="44.80416" lon="5.16213">
        <ele>671.2</ele>
        <time>2019-03-20T12:29:55.000Z</time>
      </trkpt>
      <trkpt lat="44.80406" lon="5.16208">
        <ele>670.45</ele>
        <time>2019-03-20T12:30:05.000Z</time>
      </trkpt>
      <trkpt lat="44.80398" lon="5.16201">
        <ele>670.56</ele>
        <time>2019-03-20T12:30:15.000Z</time>
      </trkpt>
      <trkpt lat="44.8039" lon="5.16192">
        <ele>671.26</ele>
        <time>2019-03-20T12:30:25.000Z</time>
      </trkpt>
      <trkpt lat="44.80382" lon="5.16185">
        <ele>671.21</ele>
        <time>2019-03-20T12:30:36.000Z</time>
      </trkpt>
      <trkpt lat="44.80374" lon="5.16182">
        <ele>669.15</ele>
        <time>2019-03-20T12:30:48.000Z</time>
      </trkpt>
      <trkpt lat="44.80378" lon="5.16194">
        <ele>667.42</ele>
        <time>2019-03-20T12:30:58.000Z</time>
      </trkpt>
      <trkpt lat="44.80385" lon="5.16203">
        <ele>666.73</ele>
        <time>2019-03-20T12:31:08.000Z</time>
      </trkpt>
      <trkpt lat="44.80392" lon="5.16214">
        <ele>665.26</ele>
        <time>2019-03-20T12:31:18.000Z</time>
      </trkpt>
      <trkpt lat="44.80395" lon="5.16226">
        <ele>663.21</ele>
        <time>2019-03-20T12:31:29.000Z</time>
      </trkpt>
      <trkpt lat="44.80387" lon="5.16221">
        <ele>662.62</ele>
        <time>2019-03-20T12:31:39.000Z</time>
      </trkpt>
      <trkpt lat="44.80378" lon="5.16217">
        <ele>661.81</ele>
        <time>2019-03-20T12:31:52.000Z</time>
      </trkpt>
      <trkpt lat="44.80369" lon="5.16206">
        <ele>662</ele>
        <time>2019-03-20T12:32:02.000Z</time>
      </trkpt>
      <trkpt lat="44.8036" lon="5.16198">
        <ele>661.02</ele>
        <time>2019-03-20T12:32:12.000Z</time>
      </trkpt>
      <trkpt lat="44.8035" lon="5.16188">
        <ele>659.85</ele>
        <time>2019-03-20T12:32:22.000Z</time>
      </trkpt>
      <trkpt lat="44.80342" lon="5.16177">
        <ele>658.92</ele>
        <time>2019-03-20T12:32:32.000Z</time>
      </trkpt>
      <trkpt lat="44.80334" lon="5.16168">
        <ele>656.92</ele>
        <time>2019-03-20T12:32:42.000Z</time>
      </trkpt>
      <trkpt lat="44.80326" lon="5.16156">
        <ele>655.73</ele>
        <time>2019-03-20T12:32:52.000Z</time>
      </trkpt>
      <trkpt lat="44.80318" lon="5.16147">
        <ele>653.76</ele>
        <time>2019-03-20T12:33:02.000Z</time>
      </trkpt>
      <trkpt lat="44.8031" lon="5.16136">
        <ele>652.66</ele>
        <time>2019-03-20T12:33:12.000Z</time>
      </trkpt>
      <trkpt lat="44.80302" lon="5.16125">
        <ele>651.89</ele>
        <time>2019-03-20T12:33:22.000Z</time>
      </trkpt>
      <trkpt lat="44.80296" lon="5.16114">
        <ele>653.05</ele>
        <time>2019-03-20T12:33:32.000Z</time>
      </trkpt>
      <trkpt lat="44.80288" lon="5.16103">
        <ele>653.29</ele>
        <time>2019-03-20T12:33:42.000Z</time>
      </trkpt>
      <trkpt lat="44.8028" lon="5.16095">
        <ele>652.3</ele>
        <time>2019-03-20T12:33:52.000Z</time>
      </trkpt>
      <trkpt lat="44.80271" lon="5.16088">
        <ele>651.03</ele>
        <time>2019-03-20T12:34:02.000Z</time>
      </trkpt>
      <trkpt lat="44.80264" lon="5.16081">
        <ele>650.32</ele>
        <time>2019-03-20T12:34:15.000Z</time>
      </trkpt>
      <trkpt lat="44.80255" lon="5.16076">
        <ele>648.45</ele>
        <time>2019-03-20T12:34:41.000Z</time>
      </trkpt>
      <trkpt lat="44.80247" lon="5.1607">
        <ele>647.01</ele>
        <time>2019-03-20T12:37:06.000Z</time>
      </trkpt>
      <trkpt lat="44.80238" lon="5.16065">
        <ele>645.17</ele>
        <time>2019-03-20T12:37:17.000Z</time>
      </trkpt>
      <trkpt lat="44.8023" lon="5.16058">
        <ele>644.4</ele>
        <time>2019-03-20T12:37:27.000Z</time>
      </trkpt>
      <trkpt lat="44.80222" lon="5.1605">
        <ele>643.99</ele>
        <time>2019-03-20T12:37:41.000Z</time>
      </trkpt>
      <trkpt lat="44.80213" lon="5.16046">
        <ele>641.4</ele>
        <time>2019-03-20T12:37:52.000Z</time>
      </trkpt>
      <trkpt lat="44.80204" lon="5.16041">
        <ele>639.48</ele>
        <time>2019-03-20T12:38:05.000Z</time>
      </trkpt>
      <trkpt lat="44.80193" lon="5.16038">
        <ele>636.33</ele>
        <time>2019-03-20T12:38:15.000Z</time>
      </trkpt>
      <trkpt lat="44.80185" lon="5.1603">
        <ele>635.76</ele>
        <time>2019-03-20T12:38:25.000Z</time>
      </trkpt>
      <trkpt lat="44.80177" lon="5.16018">
        <ele>635.96</ele>
        <time>2019-03-20T12:38:35.000Z</time>
      </trkpt>
      <trkpt lat="44.8017" lon="5.16009">
        <ele>635.71</ele>
        <time>2019-03-20T12:38:45.000Z</time>
      </trkpt>
      <trkpt lat="44.80161" lon="5.16002">
        <ele>634.74</ele>
        <time>2019-03-20T12:38:55.000Z</time>
      </trkpt>
      <trkpt lat="44.80153" lon="5.15998">
        <ele>633.47</ele>
        <time>2019-03-20T12:39:05.000Z</time>
      </trkpt>
      <trkpt lat="44.80141" lon="5.15994">
        <ele>631.49</ele>
        <time>2019-03-20T12:39:15.000Z</time>
      </trkpt>
      <trkpt lat="44.8013" lon="5.1599">
        <ele>629.87</ele>
        <time>2019-03-20T12:39:25.000Z</time>
      </trkpt>
      <trkpt lat="44.8012" lon="5.15986">
        <ele>628.68</ele>
        <time>2019-03-20T12:39:37.000Z</time>
      </trkpt>
      <trkpt lat="44.80107" lon="5.15982">
        <ele>627.01</ele>
        <time>2019-03-20T12:39:47.000Z</time>
      </trkpt>
      <trkpt lat="44.80096" lon="5.15978">
        <ele>625.56</ele>
        <time>2019-03-20T12:39:57.000Z</time>
      </trkpt>
      <trkpt lat="44.80086" lon="5.15975">
        <ele>624.11</ele>
        <time>2019-03-20T12:40:10.000Z</time>
      </trkpt>
      <trkpt lat="44.80076" lon="5.15976">
        <ele>621.71</ele>
        <time>2019-03-20T12:40:20.000Z</time>
      </trkpt>
      <trkpt lat="44.80067" lon="5.15972">
        <ele>620.61</ele>
        <time>2019-03-20T12:40:31.000Z</time>
      </trkpt>
      <trkpt lat="44.80056" lon="5.15969">
        <ele>618.95</ele>
        <time>2019-03-20T12:40:41.000Z</time>
      </trkpt>
      <trkpt lat="44.80047" lon="5.15969">
        <ele>617.23</ele>
        <time>2019-03-20T12:40:52.000Z</time>
      </trkpt>
      <trkpt lat="44.80037" lon="5.15969">
        <ele>615.22</ele>
        <time>2019-03-20T12:41:02.000Z</time>
      </trkpt>
      <trkpt lat="44.80028" lon="5.15962">
        <ele>614.54</ele>
        <time>2019-03-20T12:41:12.000Z</time>
      </trkpt>
      <trkpt lat="44.80017" lon="5.15955">
        <ele>613.17</ele>
        <time>2019-03-20T12:41:22.000Z</time>
      </trkpt>
      <trkpt lat="44.80006" lon="5.15948">
        <ele>611.65</ele>
        <time>2019-03-20T12:41:32.000Z</time>
      </trkpt>
      <trkpt lat="44.79997" lon="5.15941">
        <ele>610.21</ele>
        <time>2019-03-20T12:41:42.000Z</time>
      </trkpt>
      <trkpt lat="44.79988" lon="5.15937">
        <ele>607.68</ele>
        <time>2019-03-20T12:41:53.000Z</time>
      </trkpt>
      <trkpt lat="44.79979" lon="5.15932">
        <ele>605.65</ele>
        <time>2019-03-20T12:42:04.000Z</time>
      </trkpt>
      <trkpt lat="44.7997" lon="5.15926">
        <ele>603.78</ele>
        <time>2019-03-20T12:42:15.000Z</time>
      </trkpt>
      <trkpt lat="44.7996" lon="5.15917">
        <ele>601.6</ele>
        <time>2019-03-20T12:42:25.000Z</time>
      </trkpt>
      <trkpt lat="44.7995" lon="5.15911">
        <ele>599.2</ele>
        <time>2019-03-20T12:42:35.000Z</time>
      </trkpt>
      <trkpt lat="44.79942" lon="5.15905">
        <ele>597.28</ele>
        <time>2019-03-20T12:42:45.000Z</time>
      </trkpt>
      <trkpt lat="44.79931" lon="5.15897">
        <ele>594.92</ele>
        <time>2019-03-20T12:42:55.000Z</time>
      </trkpt>
      <trkpt lat="44.79922" lon="5.15888">
        <ele>593</ele>
        <time>2019-03-20T12:43:05.000Z</time>
      </trkpt>
      <trkpt lat="44.79914" lon="5.15877">
        <ele>592.49</ele>
        <time>2019-03-20T12:43:15.000Z</time>
      </trkpt>
      <trkpt lat="44.79904" lon="5.15875">
        <ele>588.92</ele>
        <time>2019-03-20T12:43:29.000Z</time>
      </trkpt>
      <trkpt lat="44.79897" lon="5.15867">
        <ele>587.7</ele>
        <time>2019-03-20T12:43:45.000Z</time>
      </trkpt>
      <trkpt lat="44.79888" lon="5.15858">
        <ele>586.43</ele>
        <time>2019-03-20T12:43:55.000Z</time>
      </trkpt>
      <trkpt lat="44.79879" lon="5.15853">
        <ele>583.67</ele>
        <time>2019-03-20T12:44:05.000Z</time>
      </trkpt>
      <trkpt lat="44.7987" lon="5.15846">
        <ele>582.38</ele>
        <time>2019-03-20T12:44:17.000Z</time>
      </trkpt>
      <trkpt lat="44.79862" lon="5.15839">
        <ele>580.95</ele>
        <time>2019-03-20T12:44:27.000Z</time>
      </trkpt>
      <trkpt lat="44.79852" lon="5.15829">
        <ele>580.42</ele>
        <time>2019-03-20T12:44:37.000Z</time>
      </trkpt>
      <trkpt lat="44.79843" lon="5.15821">
        <ele>579.82</ele>
        <time>2019-03-20T12:44:47.000Z</time>
      </trkpt>
      <trkpt lat="44.79833" lon="5.15814">
        <ele>578.54</ele>
        <time>2019-03-20T12:44:57.000Z</time>
      </trkpt>
      <trkpt lat="44.79823" lon="5.15807">
        <ele>577.47</ele>
        <time>2019-03-20T12:45:07.000Z</time>
      </trkpt>
      <trkpt lat="44.79812" lon="5.15804">
        <ele>575.11</ele>
        <time>2019-03-20T12:45:17.000Z</time>
      </trkpt>
      <trkpt lat="44.79802" lon="5.15799">
        <ele>573.27</ele>
        <time>2019-03-20T12:45:27.000Z</time>
      </trkpt>
      <trkpt lat="44.79793" lon="5.15796">
        <ele>571.49</ele>
        <time>2019-03-20T12:45:40.000Z</time>
      </trkpt>
      <trkpt lat="44.79782" lon="5.15794">
        <ele>569.16</ele>
        <time>2019-03-20T12:45:50.000Z</time>
      </trkpt>
      <trkpt lat="44.79773" lon="5.15787">
        <ele>568.65</ele>
        <time>2019-03-20T12:46:00.000Z</time>
      </trkpt>
      <trkpt lat="44.79763" lon="5.15784">
        <ele>566.69</ele>
        <time>2019-03-20T12:46:10.000Z</time>
      </trkpt>
      <trkpt lat="44.79752" lon="5.15778">
        <ele>565.64</ele>
        <time>2019-03-20T12:46:20.000Z</time>
      </trkpt>
      <trkpt lat="44.79741" lon="5.15772">
        <ele>564.13</ele>
        <time>2019-03-20T12:46:30.000Z</time>
      </trkpt>
      <trkpt lat="44.7973" lon="5.15765">
        <ele>563</ele>
        <time>2019-03-20T12:46:40.000Z</time>
      </trkpt>
      <trkpt lat="44.79721" lon="5.1576">
        <ele>562.09</ele>
        <time>2019-03-20T12:46:50.000Z</time>
      </trkpt>
      <trkpt lat="44.79712" lon="5.15754">
        <ele>561</ele>
        <time>2019-03-20T12:47:00.000Z</time>
      </trkpt>
      <trkpt lat="44.79702" lon="5.15749">
        <ele>559.75</ele>
        <time>2019-03-20T12:47:10.000Z</time>
      </trkpt>
      <trkpt lat="44.79691" lon="5.15745">
        <ele>557.72</ele>
        <time>2019-03-20T12:47:20.000Z</time>
      </trkpt>
      <trkpt lat="44.79682" lon="5.15742">
        <ele>556.34</ele>
        <time>2019-03-20T12:47:30.000Z</time>
      </trkpt>
      <trkpt lat="44.79673" lon="5.15737">
        <ele>555.24</ele>
        <time>2019-03-20T12:47:41.000Z</time>
      </trkpt>
      <trkpt lat="44.79664" lon="5.15733">
        <ele>554.03</ele>
        <time>2019-03-20T12:47:51.000Z</time>
      </trkpt>
      <trkpt lat="44.79655" lon="5.15728">
        <ele>552.89</ele>
        <time>2019-03-20T12:49:45.000Z</time>
      </trkpt>
      <trkpt lat="44.79647" lon="5.15721">
        <ele>552.33</ele>
        <time>2019-03-20T12:50:00.000Z</time>
      </trkpt>
      <trkpt lat="44.7964" lon="5.15715">
        <ele>551.57</ele>
        <time>2019-03-20T12:50:10.000Z</time>
      </trkpt>
      <trkpt lat="44.79633" lon="5.15706">
        <ele>551.47</ele>
        <time>2019-03-20T12:50:24.000Z</time>
      </trkpt>
      <trkpt lat="44.79625" lon="5.15697">
        <ele>550.77</ele>
        <time>2019-03-20T12:50:36.000Z</time>
      </trkpt>
      <trkpt lat="44.79618" lon="5.15686">
        <ele>550.14</ele>
        <time>2019-03-20T12:50:47.000Z</time>
      </trkpt>
      <trkpt lat="44.79613" lon="5.15674">
        <ele>550.23</ele>
        <time>2019-03-20T12:50:57.000Z</time>
      </trkpt>
      <trkpt lat="44.79609" lon="5.1566">
        <ele>550.84</ele>
        <time>2019-03-20T12:51:07.000Z</time>
      </trkpt>
      <trkpt lat="44.79607" lon="5.15645">
        <ele>551.69</ele>
        <time>2019-03-20T12:51:17.000Z</time>
      </trkpt>
      <trkpt lat="44.79606" lon="5.15629">
        <ele>552.6</ele>
        <time>2019-03-20T12:51:27.000Z</time>
      </trkpt>
      <trkpt lat="44.79604" lon="5.1561">
        <ele>552.63</ele>
        <time>2019-03-20T12:51:37.000Z</time>
      </trkpt>
      <trkpt lat="44.796" lon="5.15595">
        <ele>551.82</ele>
        <time>2019-03-20T12:51:47.000Z</time>
      </trkpt>
      <trkpt lat="44.79598" lon="5.15579">
        <ele>550.97</ele>
        <time>2019-03-20T12:51:57.000Z</time>
      </trkpt>
      <trkpt lat="44.79595" lon="5.15566">
        <ele>549.87</ele>
        <time>2019-03-20T12:52:07.000Z</time>
      </trkpt>
      <trkpt lat="44.79595" lon="5.1555">
        <ele>549.35</ele>
        <time>2019-03-20T12:52:17.000Z</time>
      </trkpt>
      <trkpt lat="44.79595" lon="5.15534">
        <ele>548.54</ele>
        <time>2019-03-20T12:52:27.000Z</time>
      </trkpt>
      <trkpt lat="44.79597" lon="5.15518">
        <ele>547.7</ele>
        <time>2019-03-20T12:52:37.000Z</time>
      </trkpt>
      <trkpt lat="44.79599" lon="5.15502">
        <ele>546.65</ele>
        <time>2019-03-20T12:52:47.000Z</time>
      </trkpt>
      <trkpt lat="44.796" lon="5.15489">
        <ele>545.21</ele>
        <time>2019-03-20T12:52:57.000Z</time>
      </trkpt>
      <trkpt lat="44.7959" lon="5.15485">
        <ele>542.5</ele>
        <time>2019-03-20T12:53:09.000Z</time>
      </trkpt>
      <trkpt lat="44.79581" lon="5.15487">
        <ele>540.96</ele>
        <time>2019-03-20T12:53:20.000Z</time>
      </trkpt>
      <trkpt lat="44.79572" lon="5.15491">
        <ele>539.78</ele>
        <time>2019-03-20T12:53:30.000Z</time>
      </trkpt>
      <trkpt lat="44.79563" lon="5.15493">
        <ele>538.45</ele>
        <time>2019-03-20T12:53:43.000Z</time>
      </trkpt>
      <trkpt lat="44.79554" lon="5.15495">
        <ele>537.2</ele>
        <time>2019-03-20T12:53:53.000Z</time>
      </trkpt>
      <trkpt lat="44.79543" lon="5.15497">
        <ele>535.8</ele>
        <time>2019-03-20T12:54:03.000Z</time>
      </trkpt>
      <trkpt lat="44.79539" lon="5.15485">
        <ele>533.49</ele>
        <time>2019-03-20T12:54:16.000Z</time>
      </trkpt>
      <trkpt lat="44.79535" lon="5.15473">
        <ele>530.78</ele>
        <time>2019-03-20T12:54:27.000Z</time>
      </trkpt>
      <trkpt lat="44.79532" lon="5.1546">
        <ele>527.93</ele>
        <time>2019-03-20T12:54:37.000Z</time>
      </trkpt>
      <trkpt lat="44.79529" lon="5.15449">
        <ele>525</ele>
        <time>2019-03-20T12:54:48.000Z</time>
      </trkpt>
      <trkpt lat="44.79524" lon="5.15436">
        <ele>521.96</ele>
        <time>2019-03-20T12:55:02.000Z</time>
      </trkpt>
      <trkpt lat="44.79517" lon="5.15429">
        <ele>519.4</ele>
        <time>2019-03-20T12:55:16.000Z</time>
      </trkpt>
      <trkpt lat="44.79507" lon="5.15428">
        <ele>517.85</ele>
        <time>2019-03-20T12:55:26.000Z</time>
      </trkpt>
      <trkpt lat="44.79496" lon="5.15429">
        <ele>516.27</ele>
        <time>2019-03-20T12:55:36.000Z</time>
      </trkpt>
      <trkpt lat="44.79487" lon="5.15431">
        <ele>515.5</ele>
        <time>2019-03-20T12:55:49.000Z</time>
      </trkpt>
      <trkpt lat="44.79477" lon="5.15431">
        <ele>514.12</ele>
        <time>2019-03-20T12:56:02.000Z</time>
      </trkpt>
      <trkpt lat="44.79469" lon="5.15425">
        <ele>512.17</ele>
        <time>2019-03-20T12:56:14.000Z</time>
      </trkpt>
      <trkpt lat="44.7946" lon="5.15416">
        <ele>509.86</ele>
        <time>2019-03-20T12:56:24.000Z</time>
      </trkpt>
      <trkpt lat="44.79451" lon="5.15412">
        <ele>508.32</ele>
        <time>2019-03-20T12:56:34.000Z</time>
      </trkpt>
      <trkpt lat="44.79441" lon="5.15406">
        <ele>506.33</ele>
        <time>2019-03-20T12:56:44.000Z</time>
      </trkpt>
      <trkpt lat="44.79432" lon="5.15395">
        <ele>504.22</ele>
        <time>2019-03-20T12:56:54.000Z</time>
      </trkpt>
      <trkpt lat="44.79422" lon="5.15388">
        <ele>502.5</ele>
        <time>2019-03-20T12:57:04.000Z</time>
      </trkpt>
      <trkpt lat="44.79412" lon="5.15386">
        <ele>501.22</ele>
        <time>2019-03-20T12:57:14.000Z</time>
      </trkpt>
      <trkpt lat="44.79402" lon="5.15381">
        <ele>499.81</ele>
        <time>2019-03-20T12:57:24.000Z</time>
      </trkpt>
      <trkpt lat="44.79393" lon="5.15372">
        <ele>498.24</ele>
        <time>2019-03-20T12:57:34.000Z</time>
      </trkpt>
      <trkpt lat="44.79385" lon="5.15363">
        <ele>496.82</ele>
        <time>2019-03-20T12:57:44.000Z</time>
      </trkpt>
      <trkpt lat="44.79375" lon="5.15357">
        <ele>495.51</ele>
        <time>2019-03-20T12:57:54.000Z</time>
      </trkpt>
      <trkpt lat="44.79366" lon="5.15351">
        <ele>494.4</ele>
        <time>2019-03-20T12:58:04.000Z</time>
      </trkpt>
      <trkpt lat="44.79358" lon="5.1534">
        <ele>492.78</ele>
        <time>2019-03-20T12:58:14.000Z</time>
      </trkpt>
      <trkpt lat="44.79349" lon="5.15331">
        <ele>491.31</ele>
        <time>2019-03-20T12:58:24.000Z</time>
      </trkpt>
      <trkpt lat="44.79341" lon="5.15327">
        <ele>490.19</ele>
        <time>2019-03-20T12:59:32.000Z</time>
      </trkpt>
      <trkpt lat="44.79332" lon="5.15321">
        <ele>488.74</ele>
        <time>2019-03-20T12:59:45.000Z</time>
      </trkpt>
      <trkpt lat="44.79324" lon="5.15314">
        <ele>487.26</ele>
        <time>2019-03-20T12:59:56.000Z</time>
      </trkpt>
      <trkpt lat="44.79316" lon="5.15307">
        <ele>485.78</ele>
        <time>2019-03-20T13:00:09.000Z</time>
      </trkpt>
      <trkpt lat="44.79307" lon="5.15299">
        <ele>484.05</ele>
        <time>2019-03-20T13:00:19.000Z</time>
      </trkpt>
      <trkpt lat="44.793" lon="5.15287">
        <ele>482.2</ele>
        <time>2019-03-20T13:00:29.000Z</time>
      </trkpt>
      <trkpt lat="44.79294" lon="5.15276">
        <ele>480.59</ele>
        <time>2019-03-20T13:00:40.000Z</time>
      </trkpt>
      <trkpt lat="44.79287" lon="5.15268">
        <ele>479.15</ele>
        <time>2019-03-20T13:00:50.000Z</time>
      </trkpt>
      <trkpt lat="44.7928" lon="5.15253">
        <ele>477.15</ele>
        <time>2019-03-20T13:01:00.000Z</time>
      </trkpt>
      <trkpt lat="44.79275" lon="5.15239">
        <ele>475.35</ele>
        <time>2019-03-20T13:01:10.000Z</time>
      </trkpt>
      <trkpt lat="44.79269" lon="5.15223">
        <ele>473.25</ele>
        <time>2019-03-20T13:01:20.000Z</time>
      </trkpt>
      <trkpt lat="44.79261" lon="5.15214">
        <ele>471.65</ele>
        <time>2019-03-20T13:01:30.000Z</time>
      </trkpt>
      <trkpt lat="44.79254" lon="5.15204">
        <ele>470.13</ele>
        <time>2019-03-20T13:01:41.000Z</time>
      </trkpt>
      <trkpt lat="44.79246" lon="5.15197">
        <ele>468.79</ele>
        <time>2019-03-20T13:01:52.000Z</time>
      </trkpt>
      <trkpt lat="44.79238" lon="5.15189">
        <ele>467.17</ele>
        <time>2019-03-20T13:02:02.000Z</time>
      </trkpt>
      <trkpt lat="44.79229" lon="5.15184">
        <ele>465.78</ele>
        <time>2019-03-20T13:02:14.000Z</time>
      </trkpt>
      <trkpt lat="44.79223" lon="5.15176">
        <ele>464.09</ele>
        <time>2019-03-20T13:02:26.000Z</time>
      </trkpt>
      <trkpt lat="44.79216" lon="5.15162">
        <ele>461.75</ele>
        <time>2019-03-20T13:02:36.000Z</time>
      </trkpt>
      <trkpt lat="44.79205" lon="5.15152">
        <ele>459.28</ele>
        <time>2019-03-20T13:02:46.000Z</time>
      </trkpt>
      <trkpt lat="44.79199" lon="5.15138">
        <ele>456.96</ele>
        <time>2019-03-20T13:02:56.000Z</time>
      </trkpt>
      <trkpt lat="44.7919" lon="5.15126">
        <ele>454.62</ele>
        <time>2019-03-20T13:03:06.000Z</time>
      </trkpt>
      <trkpt lat="44.79183" lon="5.15112">
        <ele>452.34</ele>
        <time>2019-03-20T13:03:16.000Z</time>
      </trkpt>
      <trkpt lat="44.79177" lon="5.151">
        <ele>450.42</ele>
        <time>2019-03-20T13:03:26.000Z</time>
      </trkpt>
      <trkpt lat="44.79172" lon="5.15087">
        <ele>448.52</ele>
        <time>2019-03-20T13:03:36.000Z</time>
      </trkpt>
      <trkpt lat="44.79166" lon="5.15074">
        <ele>446.68</ele>
        <time>2019-03-20T13:03:46.000Z</time>
      </trkpt>
      <trkpt lat="44.79161" lon="5.15061">
        <ele>444.77</ele>
        <time>2019-03-20T13:03:56.000Z</time>
      </trkpt>
      <trkpt lat="44.79157" lon="5.15049">
        <ele>443.12</ele>
        <time>2019-03-20T13:04:06.000Z</time>
      </trkpt>
      <trkpt lat="44.79151" lon="5.15036">
        <ele>441.32</ele>
        <time>2019-03-20T13:04:16.000Z</time>
      </trkpt>
      <trkpt lat="44.79149" lon="5.15024">
        <ele>439.64</ele>
        <time>2019-03-20T13:04:26.000Z</time>
      </trkpt>
      <trkpt lat="44.79144" lon="5.15013">
        <ele>438.3</ele>
        <time>2019-03-20T13:04:36.000Z</time>
      </trkpt>
      <trkpt lat="44.7914" lon="5.14999">
        <ele>436.8</ele>
        <time>2019-03-20T13:04:46.000Z</time>
      </trkpt>
      <trkpt lat="44.79137" lon="5.14985">
        <ele>435.06</ele>
        <time>2019-03-20T13:04:56.000Z</time>
      </trkpt>
      <trkpt lat="44.79133" lon="5.14972">
        <ele>433.41</ele>
        <time>2019-03-20T13:05:07.000Z</time>
      </trkpt>
      <trkpt lat="44.79125" lon="5.14959">
        <ele>431.73</ele>
        <time>2019-03-20T13:05:17.000Z</time>
      </trkpt>
      <trkpt lat="44.7912" lon="5.14947">
        <ele>430.1</ele>
        <time>2019-03-20T13:05:27.000Z</time>
      </trkpt>
      <trkpt lat="44.79113" lon="5.14933">
        <ele>428.33</ele>
        <time>2019-03-20T13:05:37.000Z</time>
      </trkpt>
      <trkpt lat="44.79105" lon="5.14923">
        <ele>426.89</ele>
        <time>2019-03-20T13:05:47.000Z</time>
      </trkpt>
      <trkpt lat="44.79097" lon="5.14912">
        <ele>425.53</ele>
        <time>2019-03-20T13:05:57.000Z</time>
      </trkpt>
      <trkpt lat="44.79087" lon="5.14902">
        <ele>424.1</ele>
        <time>2019-03-20T13:06:07.000Z</time>
      </trkpt>
      <trkpt lat="44.79077" lon="5.14896">
        <ele>423.09</ele>
        <time>2019-03-20T13:06:17.000Z</time>
      </trkpt>
      <trkpt lat="44.79067" lon="5.14894">
        <ele>422.98</ele>
        <time>2019-03-20T13:06:27.000Z</time>
      </trkpt>
      <trkpt lat="44.79057" lon="5.14885">
        <ele>422.27</ele>
        <time>2019-03-20T13:06:37.000Z</time>
      </trkpt>
      <trkpt lat="44.79045" lon="5.14879">
        <ele>422.31</ele>
        <time>2019-03-20T13:06:47.000Z</time>
      </trkpt>
      <trkpt lat="44.79035" lon="5.14867">
        <ele>421.5</ele>
        <time>2019-03-20T13:06:57.000Z</time>
      </trkpt>
      <trkpt lat="44.79024" lon="5.14864">
        <ele>421.78</ele>
        <time>2019-03-20T13:07:07.000Z</time>
      </trkpt>
      <trkpt lat="44.79014" lon="5.14864">
        <ele>422.2</ele>
        <time>2019-03-20T13:07:17.000Z</time>
      </trkpt>
      <trkpt lat="44.79004" lon="5.14865">
        <ele>422.32</ele>
        <time>2019-03-20T13:07:27.000Z</time>
      </trkpt>
      <trkpt lat="44.78993" lon="5.14866">
        <ele>422</ele>
        <time>2019-03-20T13:07:37.000Z</time>
      </trkpt>
      <trkpt lat="44.78982" lon="5.14867">
        <ele>421.4</ele>
        <time>2019-03-20T13:07:47.000Z</time>
      </trkpt>
      <trkpt lat="44.7897" lon="5.14866">
        <ele>420.42</ele>
        <time>2019-03-20T13:07:57.000Z</time>
      </trkpt>
      <trkpt lat="44.7896" lon="5.14867">
        <ele>419.45</ele>
        <time>2019-03-20T13:08:07.000Z</time>
      </trkpt>
      <trkpt lat="44.78948" lon="5.14866">
        <ele>417.85</ele>
        <time>2019-03-20T13:08:17.000Z</time>
      </trkpt>
      <trkpt lat="44.78937" lon="5.14867">
        <ele>416.44</ele>
        <time>2019-03-20T13:08:27.000Z</time>
      </trkpt>
      <trkpt lat="44.78927" lon="5.14869">
        <ele>415.18</ele>
        <time>2019-03-20T13:08:37.000Z</time>
      </trkpt>
      <trkpt lat="44.78915" lon="5.14873">
        <ele>413.95</ele>
        <time>2019-03-20T13:08:47.000Z</time>
      </trkpt>
      <trkpt lat="44.78906" lon="5.1488">
        <ele>413.32</ele>
        <time>2019-03-20T13:08:57.000Z</time>
      </trkpt>
      <trkpt lat="44.78896" lon="5.14884">
        <ele>411.96</ele>
        <time>2019-03-20T13:09:13.000Z</time>
      </trkpt>
      <trkpt lat="44.78887" lon="5.14887">
        <ele>410.36</ele>
        <time>2019-03-20T13:09:29.000Z</time>
      </trkpt>
      <trkpt lat="44.78877" lon="5.14887">
        <ele>407.9</ele>
        <time>2019-03-20T13:09:41.000Z</time>
      </trkpt>
      <trkpt lat="44.78867" lon="5.14889">
        <ele>405.67</ele>
        <time>2019-03-20T13:09:55.000Z</time>
      </trkpt>
      <trkpt lat="44.78858" lon="5.14885">
        <ele>402.61</ele>
        <time>2019-03-20T13:10:06.000Z</time>
      </trkpt>
      <trkpt lat="44.78857" lon="5.14869">
        <ele>399.01</ele>
        <time>2019-03-20T13:10:27.000Z</time>
      </trkpt>
      <trkpt lat="44.78852" lon="5.14857">
        <ele>395.26</ele>
        <time>2019-03-20T13:10:38.000Z</time>
      </trkpt>
      <trkpt lat="44.78846" lon="5.14847">
        <ele>391.8</ele>
        <time>2019-03-20T13:10:50.000Z</time>
      </trkpt>
      <trkpt lat="44.78838" lon="5.14836">
        <ele>388.21</ele>
        <time>2019-03-20T13:11:00.000Z</time>
      </trkpt>
      <trkpt lat="44.78832" lon="5.14824">
        <ele>385.61</ele>
        <time>2019-03-20T13:11:10.000Z</time>
      </trkpt>
      <trkpt lat="44.78825" lon="5.14816">
        <ele>383.68</ele>
        <time>2019-03-20T13:11:20.000Z</time>
      </trkpt>
      <trkpt lat="44.78817" lon="5.14806">
        <ele>381.87</ele>
        <time>2019-03-20T13:11:30.000Z</time>
      </trkpt>
      <trkpt lat="44.78806" lon="5.14805">
        <ele>380.75</ele>
        <time>2019-03-20T13:15:39.000Z</time>
      </trkpt>
      <trkpt lat="44.78797" lon="5.14811">
        <ele>380.3</ele>
        <time>2019-03-20T13:15:49.000Z</time>
      </trkpt>
      <trkpt lat="44.78786" lon="5.14812">
        <ele>379.61</ele>
        <time>2019-03-20T13:15:59.000Z</time>
      </trkpt>
      <trkpt lat="44.78777" lon="5.14815">
        <ele>379.15</ele>
        <time>2019-03-20T13:16:09.000Z</time>
      </trkpt>
      <trkpt lat="44.78767" lon="5.14815">
        <ele>378.49</ele>
        <time>2019-03-20T13:16:19.000Z</time>
      </trkpt>
      <trkpt lat="44.78756" lon="5.14816">
        <ele>377.92</ele>
        <time>2019-03-20T13:16:29.000Z</time>
      </trkpt>
      <trkpt lat="44.78746" lon="5.14817">
        <ele>377.39</ele>
        <time>2019-03-20T13:16:39.000Z</time>
      </trkpt>
      <trkpt lat="44.78737" lon="5.14816">
        <ele>376.75</ele>
        <time>2019-03-20T13:16:59.000Z</time>
      </trkpt>
      <trkpt lat="44.78728" lon="5.14814">
        <ele>376.12</ele>
        <time>2019-03-20T13:17:11.000Z</time>
      </trkpt>
      <trkpt lat="44.78715" lon="5.14814">
        <ele>375.68</ele>
        <time>2019-03-20T13:17:21.000Z</time>
      </trkpt>
      <trkpt lat="44.78704" lon="5.14813">
        <ele>375.07</ele>
        <time>2019-03-20T13:17:31.000Z</time>
      </trkpt>
      <trkpt lat="44.78695" lon="5.14809">
        <ele>374.36</ele>
        <time>2019-03-20T13:17:42.000Z</time>
      </trkpt>
      <trkpt lat="44.78685" lon="5.14804">
        <ele>373.34</ele>
        <time>2019-03-20T13:17:52.000Z</time>
      </trkpt>
      <trkpt lat="44.78675" lon="5.14798">
        <ele>372.02</ele>
        <time>2019-03-20T13:18:02.000Z</time>
      </trkpt>
      <trkpt lat="44.78667" lon="5.14792">
        <ele>370.56</ele>
        <time>2019-03-20T13:18:12.000Z</time>
      </trkpt>
      <trkpt lat="44.78655" lon="5.14788">
        <ele>368.78</ele>
        <time>2019-03-20T13:18:22.000Z</time>
      </trkpt>
      <trkpt lat="44.78645" lon="5.14783">
        <ele>366.82</ele>
        <time>2019-03-20T13:18:32.000Z</time>
      </trkpt>
      <trkpt lat="44.78635" lon="5.14783">
        <ele>365.38</ele>
        <time>2019-03-20T13:18:42.000Z</time>
      </trkpt>
      <trkpt lat="44.78626" lon="5.14782">
        <ele>363.72</ele>
        <time>2019-03-20T13:18:53.000Z</time>
      </trkpt>
      <trkpt lat="44.78617" lon="5.14777">
        <ele>361.27</ele>
        <time>2019-03-20T13:19:05.000Z</time>
      </trkpt>
      <trkpt lat="44.78608" lon="5.14776">
        <ele>359.47</ele>
        <time>2019-03-20T13:19:16.000Z</time>
      </trkpt>
      <trkpt lat="44.78598" lon="5.14776">
        <ele>357.92</ele>
        <time>2019-03-20T13:19:30.000Z</time>
      </trkpt>
      <trkpt lat="44.78588" lon="5.14777">
        <ele>356.67</ele>
        <time>2019-03-20T13:19:40.000Z</time>
      </trkpt>
      <trkpt lat="44.78579" lon="5.14782">
        <ele>356.74</ele>
        <time>2019-03-20T13:19:50.000Z</time>
      </trkpt>
      <trkpt lat="44.7857" lon="5.14784">
        <ele>355.83</ele>
        <time>2019-03-20T13:20:02.000Z</time>
      </trkpt>
      <trkpt lat="44.78562" lon="5.14776">
        <ele>352.91</ele>
        <time>2019-03-20T13:20:21.000Z</time>
      </trkpt>
      <trkpt lat="44.78558" lon="5.14765">
        <ele>350.36</ele>
        <time>2019-03-20T13:20:33.000Z</time>
      </trkpt>
      <trkpt lat="44.78552" lon="5.14755">
        <ele>349</ele>
        <time>2019-03-20T13:20:47.000Z</time>
      </trkpt>
      <trkpt lat="44.78542" lon="5.14745">
        <ele>348.84</ele>
        <time>2019-03-20T13:20:57.000Z</time>
      </trkpt>
      <trkpt lat="44.78534" lon="5.14737">
        <ele>349.81</ele>
        <time>2019-03-20T13:21:07.000Z</time>
      </trkpt>
      <trkpt lat="44.7852" lon="5.14738">
        <ele>350.26</ele>
        <time>2019-03-20T13:21:17.000Z</time>
      </trkpt>
      <trkpt lat="44.78507" lon="5.14744">
        <ele>349.8</ele>
        <time>2019-03-20T13:21:27.000Z</time>
      </trkpt>
      <trkpt lat="44.78497" lon="5.14756">
        <ele>348.31</ele>
        <time>2019-03-20T13:21:37.000Z</time>
      </trkpt>
      <trkpt lat="44.78487" lon="5.14764">
        <ele>347.77</ele>
        <time>2019-03-20T13:21:47.000Z</time>
      </trkpt>
      <trkpt lat="44.78475" lon="5.14767">
        <ele>348.18</ele>
        <time>2019-03-20T13:21:57.000Z</time>
      </trkpt>
      <trkpt lat="44.78464" lon="5.14766">
        <ele>349.29</ele>
        <time>2019-03-20T13:22:07.000Z</time>
      </trkpt>
      <trkpt lat="44.78453" lon="5.14772">
        <ele>349.38</ele>
        <time>2019-03-20T13:22:17.000Z</time>
      </trkpt>
      <trkpt lat="44.78444" lon="5.14776">
        <ele>349.39</ele>
        <time>2019-03-20T13:22:27.000Z</time>
      </trkpt>
      <trkpt lat="44.78434" lon="5.14779">
        <ele>349.57</ele>
        <time>2019-03-20T13:22:37.000Z</time>
      </trkpt>
      <trkpt lat="44.7842" lon="5.14785">
        <ele>349.34</ele>
        <time>2019-03-20T13:22:47.000Z</time>
      </trkpt>
      <trkpt lat="44.7841" lon="5.14792">
        <ele>348.09</ele>
        <time>2019-03-20T13:22:57.000Z</time>
      </trkpt>
      <trkpt lat="44.78411" lon="5.14805">
        <ele>345.35</ele>
        <time>2019-03-20T13:24:33.000Z</time>
      </trkpt>
      <trkpt lat="44.7841" lon="5.14818">
        <ele>343.23</ele>
        <time>2019-03-20T13:24:43.000Z</time>
      </trkpt>
      <trkpt lat="44.78409" lon="5.14832">
        <ele>341.77</ele>
        <time>2019-03-20T13:24:53.000Z</time>
      </trkpt>
      <trkpt lat="44.78411" lon="5.14846">
        <ele>341.3</ele>
        <time>2019-03-20T13:25:03.000Z</time>
      </trkpt>
      <trkpt lat="44.78413" lon="5.1486">
        <ele>341.77</ele>
        <time>2019-03-20T13:25:14.000Z</time>
      </trkpt>
      <trkpt lat="44.78417" lon="5.14872">
        <ele>342.84</ele>
        <time>2019-03-20T13:25:26.000Z</time>
      </trkpt>
      <trkpt lat="44.78417" lon="5.14886">
        <ele>344.21</ele>
        <time>2019-03-20T13:25:43.000Z</time>
      </trkpt>
      <trkpt lat="44.78413" lon="5.14898">
        <ele>345.5</ele>
        <time>2019-03-20T13:25:56.000Z</time>
      </trkpt>
      <trkpt lat="44.78406" lon="5.14908">
        <ele>346.44</ele>
        <time>2019-03-20T13:26:06.000Z</time>
      </trkpt>
      <trkpt lat="44.78397" lon="5.1491">
        <ele>346.36</ele>
        <time>2019-03-20T13:26:21.000Z</time>
      </trkpt>
      <trkpt lat="44.78388" lon="5.1491">
        <ele>345.77</ele>
        <time>2019-03-20T13:26:35.000Z</time>
      </trkpt>
      <trkpt lat="44.78379" lon="5.14907">
        <ele>344.73</ele>
        <time>2019-03-20T13:27:02.000Z</time>
      </trkpt>
      <trkpt lat="44.78369" lon="5.14904">
        <ele>343.63</ele>
        <time>2019-03-20T13:27:13.000Z</time>
      </trkpt>
      <trkpt lat="44.7836" lon="5.14903">
        <ele>342.76</ele>
        <time>2019-03-20T13:27:23.000Z</time>
      </trkpt>
      <trkpt lat="44.78351" lon="5.14906">
        <ele>342.77</ele>
        <time>2019-03-20T13:27:34.000Z</time>
      </trkpt>
      <trkpt lat="44.78343" lon="5.14913">
        <ele>343.63</ele>
        <time>2019-03-20T13:27:44.000Z</time>
      </trkpt>
      <trkpt lat="44.78335" lon="5.14919">
        <ele>344.78</ele>
        <time>2019-03-20T13:27:55.000Z</time>
      </trkpt>
      <trkpt lat="44.78327" lon="5.14926">
        <ele>346.25</ele>
        <time>2019-03-20T13:28:05.000Z</time>
      </trkpt>
      <trkpt lat="44.78318" lon="5.14932">
        <ele>348.02</ele>
        <time>2019-03-20T13:28:15.000Z</time>
      </trkpt>
      <trkpt lat="44.78309" lon="5.14938">
        <ele>349.75</ele>
        <time>2019-03-20T13:28:25.000Z</time>
      </trkpt>
      <trkpt lat="44.783" lon="5.14942">
        <ele>350.9</ele>
        <time>2019-03-20T13:28:35.000Z</time>
      </trkpt>
      <trkpt lat="44.78288" lon="5.14946">
        <ele>351.62</ele>
        <time>2019-03-20T13:28:45.000Z</time>
      </trkpt>
      <trkpt lat="44.78279" lon="5.14949">
        <ele>351.84</ele>
        <time>2019-03-20T13:28:55.000Z</time>
      </trkpt>
      <trkpt lat="44.78269" lon="5.14953">
        <ele>352.5</ele>
        <time>2019-03-20T13:29:05.000Z</time>
      </trkpt>
      <trkpt lat="44.78259" lon="5.14955">
        <ele>352.63</ele>
        <time>2019-03-20T13:29:15.000Z</time>
      </trkpt>
      <trkpt lat="44.78247" lon="5.14956">
        <ele>352.17</ele>
        <time>2019-03-20T13:29:25.000Z</time>
      </trkpt>
      <trkpt lat="44.78237" lon="5.14957">
        <ele>352.22</ele>
        <time>2019-03-20T13:29:35.000Z</time>
      </trkpt>
      <trkpt lat="44.78224" lon="5.14958">
        <ele>352.45</ele>
        <time>2019-03-20T13:29:45.000Z</time>
      </trkpt>
      <trkpt lat="44.78213" lon="5.14959">
        <ele>352.72</ele>
        <time>2019-03-20T13:29:55.000Z</time>
      </trkpt>
      <trkpt lat="44.78201" lon="5.14962">
        <ele>353.99</ele>
        <time>2019-03-20T13:30:05.000Z</time>
      </trkpt>
      <trkpt lat="44.78189" lon="5.14962">
        <ele>353.95</ele>
        <time>2019-03-20T13:30:15.000Z</time>
      </trkpt>
      <trkpt lat="44.78177" lon="5.14961">
        <ele>353.72</ele>
        <time>2019-03-20T13:30:25.000Z</time>
      </trkpt>
      <trkpt lat="44.78163" lon="5.14961">
        <ele>353.86</ele>
        <time>2019-03-20T13:30:35.000Z</time>
      </trkpt>
      <trkpt lat="44.7815" lon="5.14958">
        <ele>352.83</ele>
        <time>2019-03-20T13:30:45.000Z</time>
      </trkpt>
      <trkpt lat="44.78139" lon="5.14959">
        <ele>353.68</ele>
        <time>2019-03-20T13:30:55.000Z</time>
      </trkpt>
      <trkpt lat="44.78127" lon="5.14961">
        <ele>355.03</ele>
        <time>2019-03-20T13:31:05.000Z</time>
      </trkpt>
      <trkpt lat="44.78117" lon="5.14965">
        <ele>357.41</ele>
        <time>2019-03-20T13:31:15.000Z</time>
      </trkpt>
      <trkpt lat="44.78104" lon="5.14964">
        <ele>358.04</ele>
        <time>2019-03-20T13:31:25.000Z</time>
      </trkpt>
      <trkpt lat="44.78092" lon="5.14961">
        <ele>357.41</ele>
        <time>2019-03-20T13:31:35.000Z</time>
      </trkpt>
      <trkpt lat="44.78082" lon="5.1496">
        <ele>357.72</ele>
        <time>2019-03-20T13:31:49.000Z</time>
      </trkpt>
      <trkpt lat="44.78072" lon="5.14956">
        <ele>357.09</ele>
        <time>2019-03-20T13:31:59.000Z</time>
      </trkpt>
      <trkpt lat="44.78061" lon="5.14952">
        <ele>356.11</ele>
        <time>2019-03-20T13:32:09.000Z</time>
      </trkpt>
      <trkpt lat="44.78051" lon="5.14948">
        <ele>355.03</ele>
        <time>2019-03-20T13:32:19.000Z</time>
      </trkpt>
      <trkpt lat="44.78041" lon="5.14946">
        <ele>355.53</ele>
        <time>2019-03-20T13:32:29.000Z</time>
      </trkpt>
      <trkpt lat="44.7803" lon="5.14946">
        <ele>357.37</ele>
        <time>2019-03-20T13:32:39.000Z</time>
      </trkpt>
      <trkpt lat="44.78019" lon="5.14947">
        <ele>360.19</ele>
        <time>2019-03-20T13:32:49.000Z</time>
      </trkpt>
      <trkpt lat="44.78006" lon="5.14948">
        <ele>363.16</ele>
        <time>2019-03-20T13:32:59.000Z</time>
      </trkpt>
      <trkpt lat="44.77995" lon="5.14945">
        <ele>364.52</ele>
        <time>2019-03-20T13:33:09.000Z</time>
      </trkpt>
      <trkpt lat="44.77987" lon="5.14938">
        <ele>362.87</ele>
        <time>2019-03-20T13:33:20.000Z</time>
      </trkpt>
      <trkpt lat="44.77978" lon="5.14933">
        <ele>364.14</ele>
        <time>2019-03-20T13:33:30.000Z</time>
      </trkpt>
      <trkpt lat="44.77968" lon="5.14928">
        <ele>366.08</ele>
        <time>2019-03-20T13:33:40.000Z</time>
      </trkpt>
      <trkpt lat="44.77959" lon="5.14923">
        <ele>368.07</ele>
        <time>2019-03-20T13:33:50.000Z</time>
      </trkpt>
      <trkpt lat="44.77952" lon="5.14916">
        <ele>368.53</ele>
        <time>2019-03-20T13:34:00.000Z</time>
      </trkpt>
      <trkpt lat="44.77946" lon="5.14904">
        <ele>366.85</ele>
        <time>2019-03-20T13:34:14.000Z</time>
      </trkpt>
      <trkpt lat="44.77935" lon="5.14893">
        <ele>366.58</ele>
        <time>2019-03-20T13:34:24.000Z</time>
      </trkpt>
      <trkpt lat="44.77922" lon="5.14891">
        <ele>369.67</ele>
        <time>2019-03-20T13:34:34.000Z</time>
      </trkpt>
      <trkpt lat="44.77912" lon="5.14887">
        <ele>370.51</ele>
        <time>2019-03-20T13:34:44.000Z</time>
      </trkpt>
      <trkpt lat="44.77903" lon="5.14883">
        <ele>370.48</ele>
        <time>2019-03-20T13:34:55.000Z</time>
      </trkpt>
      <trkpt lat="44.77893" lon="5.14875">
        <ele>369.22</ele>
        <time>2019-03-20T13:35:05.000Z</time>
      </trkpt>
      <trkpt lat="44.77886" lon="5.14866">
        <ele>367.53</ele>
        <time>2019-03-20T13:35:15.000Z</time>
      </trkpt>
      <trkpt lat="44.7788" lon="5.14852">
        <ele>365.13</ele>
        <time>2019-03-20T13:35:25.000Z</time>
      </trkpt>
      <trkpt lat="44.77873" lon="5.14842">
        <ele>364.65</ele>
        <time>2019-03-20T13:35:36.000Z</time>
      </trkpt>
      <trkpt lat="44.77866" lon="5.14828">
        <ele>364.45</ele>
        <time>2019-03-20T13:35:46.000Z</time>
      </trkpt>
      <trkpt lat="44.77858" lon="5.1482">
        <ele>365.76</ele>
        <time>2019-03-20T13:36:17.000Z</time>
      </trkpt>
      <trkpt lat="44.77857" lon="5.14808">
        <ele>364.6</ele>
        <time>2019-03-20T13:38:15.000Z</time>
      </trkpt>
      <trkpt lat="44.77848" lon="5.14796">
        <ele>367.02</ele>
        <time>2019-03-20T13:38:25.000Z</time>
      </trkpt>
      <trkpt lat="44.77839" lon="5.14786">
        <ele>368.95</ele>
        <time>2019-03-20T13:38:35.000Z</time>
      </trkpt>
      <trkpt lat="44.77834" lon="5.14774">
        <ele>368.96</ele>
        <time>2019-03-20T13:38:49.000Z</time>
      </trkpt>
      <trkpt lat="44.7783" lon="5.14762">
        <ele>368.5</ele>
        <time>2019-03-20T13:38:59.000Z</time>
      </trkpt>
      <trkpt lat="44.77825" lon="5.14751">
        <ele>367.45</ele>
        <time>2019-03-20T13:39:11.000Z</time>
      </trkpt>
      <trkpt lat="44.7782" lon="5.1474">
        <ele>365.82</ele>
        <time>2019-03-20T13:39:22.000Z</time>
      </trkpt>
      <trkpt lat="44.77813" lon="5.14732">
        <ele>364.52</ele>
        <time>2019-03-20T13:39:33.000Z</time>
      </trkpt>
      <trkpt lat="44.77802" lon="5.14732">
        <ele>364.62</ele>
        <time>2019-03-20T13:39:45.000Z</time>
      </trkpt>
      <trkpt lat="44.77793" lon="5.14732">
        <ele>364.4</ele>
        <time>2019-03-20T13:39:56.000Z</time>
      </trkpt>
      <trkpt lat="44.77796" lon="5.1472">
        <ele>361.96</ele>
        <time>2019-03-20T13:40:10.000Z</time>
      </trkpt>
      <trkpt lat="44.77799" lon="5.14708">
        <ele>359.21</ele>
        <time>2019-03-20T13:40:21.000Z</time>
      </trkpt>
      <trkpt lat="44.77801" lon="5.14694">
        <ele>355.88</ele>
        <time>2019-03-20T13:40:36.000Z</time>
      </trkpt>
      <trkpt lat="44.77806" lon="5.14683">
        <ele>352.83</ele>
        <time>2019-03-20T13:40:46.000Z</time>
      </trkpt>
      <trkpt lat="44.7781" lon="5.14671">
        <ele>349.71</ele>
        <time>2019-03-20T13:40:57.000Z</time>
      </trkpt>
      <trkpt lat="44.77807" lon="5.14659">
        <ele>347.91</ele>
        <time>2019-03-20T13:41:11.000Z</time>
      </trkpt>
      <trkpt lat="44.77816" lon="5.14651">
        <ele>345.25</ele>
        <time>2019-03-20T13:41:34.000Z</time>
      </trkpt>
      <trkpt lat="44.77824" lon="5.14646">
        <ele>343.17</ele>
        <time>2019-03-20T13:41:50.000Z</time>
      </trkpt>
      <trkpt lat="44.7783" lon="5.14636">
        <ele>341.08</ele>
        <time>2019-03-20T13:42:09.000Z</time>
      </trkpt>
      <trkpt lat="44.77835" lon="5.14622">
        <ele>339.07</ele>
        <time>2019-03-20T13:42:19.000Z</time>
      </trkpt>
      <trkpt lat="44.77835" lon="5.14608">
        <ele>337.88</ele>
        <time>2019-03-20T13:42:29.000Z</time>
      </trkpt>
      <trkpt lat="44.77833" lon="5.14595">
        <ele>337.08</ele>
        <time>2019-03-20T13:42:39.000Z</time>
      </trkpt>
      <trkpt lat="44.77828" lon="5.14581">
        <ele>336.05</ele>
        <time>2019-03-20T13:42:49.000Z</time>
      </trkpt>
      <trkpt lat="44.77821" lon="5.14567">
        <ele>334.91</ele>
        <time>2019-03-20T13:42:59.000Z</time>
      </trkpt>
      <trkpt lat="44.77814" lon="5.14555">
        <ele>333.88</ele>
        <time>2019-03-20T13:43:09.000Z</time>
      </trkpt>
      <trkpt lat="44.77808" lon="5.1454">
        <ele>332.16</ele>
        <time>2019-03-20T13:43:19.000Z</time>
      </trkpt>
      <trkpt lat="44.77795" lon="5.14533">
        <ele>331.91</ele>
        <time>2019-03-20T13:43:29.000Z</time>
      </trkpt>
      <trkpt lat="44.77782" lon="5.1453">
        <ele>332.26</ele>
        <time>2019-03-20T13:43:39.000Z</time>
      </trkpt>
      <trkpt lat="44.77769" lon="5.14536">
        <ele>333.78</ele>
        <time>2019-03-20T13:43:49.000Z</time>
      </trkpt>
      <trkpt lat="44.7776" lon="5.14545">
        <ele>335.67</ele>
        <time>2019-03-20T13:43:59.000Z</time>
      </trkpt>
      <trkpt lat="44.77752" lon="5.14555">
        <ele>337.23</ele>
        <time>2019-03-20T13:44:09.000Z</time>
      </trkpt>
      <trkpt lat="44.77742" lon="5.14565">
        <ele>338.36</ele>
        <time>2019-03-20T13:44:19.000Z</time>
      </trkpt>
      <trkpt lat="44.77733" lon="5.14574">
        <ele>339.01</ele>
        <time>2019-03-20T13:44:29.000Z</time>
      </trkpt>
      <trkpt lat="44.7772" lon="5.14581">
        <ele>338.19</ele>
        <time>2019-03-20T13:44:39.000Z</time>
      </trkpt>
      <trkpt lat="44.77707" lon="5.14583">
        <ele>336.14</ele>
        <time>2019-03-20T13:44:49.000Z</time>
      </trkpt>
      <trkpt lat="44.77695" lon="5.14585">
        <ele>334.24</ele>
        <time>2019-03-20T13:44:59.000Z</time>
      </trkpt>
      <trkpt lat="44.77685" lon="5.14584">
        <ele>332.26</ele>
        <time>2019-03-20T13:45:09.000Z</time>
      </trkpt>
      <trkpt lat="44.77674" lon="5.14587">
        <ele>331.2</ele>
        <time>2019-03-20T13:45:19.000Z</time>
      </trkpt>
      <trkpt lat="44.77664" lon="5.14589">
        <ele>330.72</ele>
        <time>2019-03-20T13:45:29.000Z</time>
      </trkpt>
      <trkpt lat="44.77652" lon="5.14589">
        <ele>330.03</ele>
        <time>2019-03-20T13:45:39.000Z</time>
      </trkpt>
      <trkpt lat="44.77643" lon="5.14584">
        <ele>329.04</ele>
        <time>2019-03-20T13:45:49.000Z</time>
      </trkpt>
      <trkpt lat="44.77639" lon="5.14573">
        <ele>327.69</ele>
        <time>2019-03-20T13:45:59.000Z</time>
      </trkpt>
      <trkpt lat="44.7764" lon="5.14559">
        <ele>326.8</ele>
        <time>2019-03-20T13:46:22.000Z</time>
      </trkpt>
      <trkpt lat="44.77641" lon="5.14545">
        <ele>326.43</ele>
        <time>2019-03-20T13:46:43.000Z</time>
      </trkpt>
      <trkpt lat="44.77646" lon="5.14534">
        <ele>326.69</ele>
        <time>2019-03-20T13:47:54.000Z</time>
      </trkpt>
      <trkpt lat="44.77652" lon="5.14522">
        <ele>327.43</ele>
        <time>2019-03-20T13:48:04.000Z</time>
      </trkpt>
      <trkpt lat="44.77655" lon="5.14508">
        <ele>328.76</ele>
        <time>2019-03-20T13:48:14.000Z</time>
      </trkpt>
      <trkpt lat="44.7766" lon="5.14495">
        <ele>330.49</ele>
        <time>2019-03-20T13:48:25.000Z</time>
      </trkpt>
      <trkpt lat="44.77664" lon="5.14481">
        <ele>333.32</ele>
        <time>2019-03-20T13:48:35.000Z</time>
      </trkpt>
      <trkpt lat="44.77667" lon="5.14469">
        <ele>336.52</ele>
        <time>2019-03-20T13:48:46.000Z</time>
      </trkpt>
      <trkpt lat="44.77671" lon="5.14455">
        <ele>340.1</ele>
        <time>2019-03-20T13:48:57.000Z</time>
      </trkpt>
      <trkpt lat="44.77672" lon="5.14443">
        <ele>343.53</ele>
        <time>2019-03-20T13:49:31.000Z</time>
      </trkpt>
      <trkpt lat="44.77674" lon="5.14429">
        <ele>346.67</ele>
        <time>2019-03-20T13:49:47.000Z</time>
      </trkpt>
      <trkpt lat="44.77678" lon="5.14418">
        <ele>348.49</ele>
        <time>2019-03-20T13:50:02.000Z</time>
      </trkpt>
      <trkpt lat="44.77686" lon="5.14409">
        <ele>348.57</ele>
        <time>2019-03-20T13:50:13.000Z</time>
      </trkpt>
      <trkpt lat="44.77693" lon="5.144">
        <ele>348.81</ele>
        <time>2019-03-20T13:50:30.000Z</time>
      </trkpt>
      <trkpt lat="44.777" lon="5.14393">
        <ele>348.42</ele>
        <time>2019-03-20T13:50:52.000Z</time>
      </trkpt>
      <trkpt lat="44.77697" lon="5.14381">
        <ele>351.78</ele>
        <time>2019-03-20T13:51:25.000Z</time>
      </trkpt>
      <trkpt lat="44.77689" lon="5.14389">
        <ele>351.68</ele>
        <time>2019-03-20T13:51:35.000Z</time>
      </trkpt>
      <trkpt lat="44.7768" lon="5.14391">
        <ele>352.92</ele>
        <time>2019-03-20T13:51:46.000Z</time>
      </trkpt>
      <trkpt lat="44.7767" lon="5.14394">
        <ele>353.55</ele>
        <time>2019-03-20T13:51:56.000Z</time>
      </trkpt>
      <trkpt lat="44.77661" lon="5.1439">
        <ele>354.48</ele>
        <time>2019-03-20T13:52:07.000Z</time>
      </trkpt>
      <trkpt lat="44.77653" lon="5.14399">
        <ele>353.11</ele>
        <time>2019-03-20T13:52:59.000Z</time>
      </trkpt>
      <trkpt lat="44.77644" lon="5.14396">
        <ele>352.96</ele>
        <time>2019-03-20T13:53:29.000Z</time>
      </trkpt>
      <trkpt lat="44.77631" lon="5.14387">
        <ele>353.51</ele>
        <time>2019-03-20T13:53:47.000Z</time>
      </trkpt>
      <trkpt lat="44.77626" lon="5.14399">
        <ele>350.49</ele>
        <time>2019-03-20T13:53:58.000Z</time>
      </trkpt>
      <trkpt lat="44.77616" lon="5.14392">
        <ele>350.71</ele>
        <time>2019-03-20T13:54:08.000Z</time>
      </trkpt>
      <trkpt lat="44.77608" lon="5.14385">
        <ele>351.61</ele>
        <time>2019-03-20T13:54:27.000Z</time>
      </trkpt>
      <trkpt lat="44.776" lon="5.14373">
        <ele>353.87</ele>
        <time>2019-03-20T13:54:37.000Z</time>
      </trkpt>
      <trkpt lat="44.77596" lon="5.1436">
        <ele>356.69</ele>
        <time>2019-03-20T13:54:59.000Z</time>
      </trkpt>
      <trkpt lat="44.77588" lon="5.14353">
        <ele>357.9</ele>
        <time>2019-03-20T13:55:09.000Z</time>
      </trkpt>
      <trkpt lat="44.77585" lon="5.14341">
        <ele>359.49</ele>
        <time>2019-03-20T13:55:27.000Z</time>
      </trkpt>
      <trkpt lat="44.77562" lon="5.14342">
        <ele>357.16</ele>
        <time>2019-03-20T13:55:57.000Z</time>
      </trkpt>
      <trkpt lat="44.77558" lon="5.1433">
        <ele>357.25</ele>
        <time>2019-03-20T13:56:09.000Z</time>
      </trkpt>
      <trkpt lat="44.776" lon="5.14311">
        <ele>359.7</ele>
        <time>2019-03-20T13:56:30.000Z</time>
      </trkpt>
      <trkpt lat="44.77589" lon="5.14309">
        <ele>358.73</ele>
        <time>2019-03-20T13:56:40.000Z</time>
      </trkpt>
      <trkpt lat="44.77596" lon="5.14301">
        <ele>358.09</ele>
        <time>2019-03-20T13:56:57.000Z</time>
      </trkpt>
      <trkpt lat="44.77607" lon="5.14304">
        <ele>359.08</ele>
        <time>2019-03-20T13:57:07.000Z</time>
      </trkpt>
      <trkpt lat="44.77616" lon="5.14307">
        <ele>359.82</ele>
        <time>2019-03-20T13:57:17.000Z</time>
      </trkpt>
      <trkpt lat="44.77624" lon="5.14311">
        <ele>360.32</ele>
        <time>2019-03-20T13:57:30.000Z</time>
      </trkpt>
      <trkpt lat="44.77633" lon="5.1432">
        <ele>360.74</ele>
        <time>2019-03-20T13:57:40.000Z</time>
      </trkpt>
      <trkpt lat="44.77642" lon="5.14316">
        <ele>360.46</ele>
        <time>2019-03-20T13:57:50.000Z</time>
      </trkpt>
      <trkpt lat="44.77652" lon="5.14312">
        <ele>360.25</ele>
        <time>2019-03-20T13:58:07.000Z</time>
      </trkpt>
      <trkpt lat="44.77669" lon="5.14311">
        <ele>360.41</ele>
        <time>2019-03-20T13:58:17.000Z</time>
      </trkpt>
      <trkpt lat="44.77683" lon="5.14318">
        <ele>360.64</ele>
        <time>2019-03-20T13:58:27.000Z</time>
      </trkpt>
      <trkpt lat="44.77689" lon="5.14328">
        <ele>360.36</ele>
        <time>2019-03-20T13:58:43.000Z</time>
      </trkpt>
      <trkpt lat="44.77696" lon="5.14337">
        <ele>359.71</ele>
        <time>2019-03-20T13:58:59.000Z</time>
      </trkpt>
      <trkpt lat="44.77706" lon="5.14337">
        <ele>359.66</ele>
        <time>2019-03-20T13:59:09.000Z</time>
      </trkpt>
      <trkpt lat="44.77715" lon="5.14334">
        <ele>360.05</ele>
        <time>2019-03-20T13:59:19.000Z</time>
      </trkpt>
      <trkpt lat="44.77724" lon="5.14333">
        <ele>360.18</ele>
        <time>2019-03-20T13:59:29.000Z</time>
      </trkpt>
      <trkpt lat="44.77733" lon="5.14323">
        <ele>361.19</ele>
        <time>2019-03-20T13:59:39.000Z</time>
      </trkpt>
      <trkpt lat="44.77744" lon="5.14317">
        <ele>361.61</ele>
        <time>2019-03-20T13:59:49.000Z</time>
      </trkpt>
      <trkpt lat="44.77756" lon="5.14312">
        <ele>361.88</ele>
        <time>2019-03-20T13:59:59.000Z</time>
      </trkpt>
      <trkpt lat="44.77763" lon="5.14295">
        <ele>361.96</ele>
        <time>2019-03-20T14:00:09.000Z</time>
      </trkpt>
      <trkpt lat="44.77767" lon="5.14282">
        <ele>361.78</ele>
        <time>2019-03-20T14:00:19.000Z</time>
      </trkpt>
      <trkpt lat="44.77768" lon="5.14266">
        <ele>361.53</ele>
        <time>2019-03-20T14:00:29.000Z</time>
      </trkpt>
      <trkpt lat="44.77777" lon="5.1426">
        <ele>362.67</ele>
        <time>2019-03-20T14:00:39.000Z</time>
      </trkpt>
      <trkpt lat="44.77789" lon="5.14263">
        <ele>364.2</ele>
        <time>2019-03-20T14:00:49.000Z</time>
      </trkpt>
      <trkpt lat="44.77802" lon="5.14262">
        <ele>366.08</ele>
        <time>2019-03-20T14:00:59.000Z</time>
      </trkpt>
      <trkpt lat="44.77812" lon="5.14272">
        <ele>366.61</ele>
        <time>2019-03-20T14:01:09.000Z</time>
      </trkpt>
      <trkpt lat="44.77824" lon="5.14274">
        <ele>367.69</ele>
        <time>2019-03-20T14:01:19.000Z</time>
      </trkpt>
      <trkpt lat="44.77835" lon="5.14278">
        <ele>368.16</ele>
        <time>2019-03-20T14:01:29.000Z</time>
      </trkpt>
      <trkpt lat="44.77845" lon="5.14282">
        <ele>368.35</ele>
        <time>2019-03-20T14:01:39.000Z</time>
      </trkpt>
      <trkpt lat="44.77854" lon="5.14286">
        <ele>368.52</ele>
        <time>2019-03-20T14:01:52.000Z</time>
      </trkpt>
      <trkpt lat="44.77866" lon="5.14285">
        <ele>369.54</ele>
        <time>2019-03-20T14:02:02.000Z</time>
      </trkpt>
      <trkpt lat="44.77876" lon="5.14285">
        <ele>370.32</ele>
        <time>2019-03-20T14:02:12.000Z</time>
      </trkpt>
      <trkpt lat="44.77887" lon="5.14287">
        <ele>371.03</ele>
        <time>2019-03-20T14:02:22.000Z</time>
      </trkpt>
      <trkpt lat="44.77896" lon="5.14284">
        <ele>371.89</ele>
        <time>2019-03-20T14:02:32.000Z</time>
      </trkpt>
      <trkpt lat="44.77908" lon="5.14282">
        <ele>372.77</ele>
        <time>2019-03-20T14:02:42.000Z</time>
      </trkpt>
      <trkpt lat="44.7792" lon="5.14282">
        <ele>373.45</ele>
        <time>2019-03-20T14:02:52.000Z</time>
      </trkpt>
      <trkpt lat="44.77931" lon="5.14282">
        <ele>374.03</ele>
        <time>2019-03-20T14:03:02.000Z</time>
      </trkpt>
      <trkpt lat="44.7794" lon="5.14279">
        <ele>374.5</ele>
        <time>2019-03-20T14:03:12.000Z</time>
      </trkpt>
      <trkpt lat="44.77949" lon="5.14279">
        <ele>374.9</ele>
        <time>2019-03-20T14:03:30.000Z</time>
      </trkpt>
      <trkpt lat="44.77959" lon="5.14279">
        <ele>375.31</ele>
        <time>2019-03-20T14:03:40.000Z</time>
      </trkpt>
      <trkpt lat="44.77973" lon="5.14278">
        <ele>375.99</ele>
        <time>2019-03-20T14:03:50.000Z</time>
      </trkpt>
      <trkpt lat="44.77984" lon="5.14273">
        <ele>376.75</ele>
        <time>2019-03-20T14:04:00.000Z</time>
      </trkpt>
      <trkpt lat="44.77995" lon="5.1427">
        <ele>377.64</ele>
        <time>2019-03-20T14:04:10.000Z</time>
      </trkpt>
      <trkpt lat="44.78008" lon="5.14266">
        <ele>378.86</ele>
        <time>2019-03-20T14:04:20.000Z</time>
      </trkpt>
      <trkpt lat="44.78017" lon="5.14262">
        <ele>379.84</ele>
        <time>2019-03-20T14:04:30.000Z</time>
      </trkpt>
      <trkpt lat="44.78026" lon="5.1426">
        <ele>380.82</ele>
        <time>2019-03-20T14:04:40.000Z</time>
      </trkpt>
      <trkpt lat="44.78037" lon="5.14258">
        <ele>381.98</ele>
        <time>2019-03-20T14:04:50.000Z</time>
      </trkpt>
      <trkpt lat="44.78046" lon="5.14258">
        <ele>383.03</ele>
        <time>2019-03-20T14:05:03.000Z</time>
      </trkpt>
      <trkpt lat="44.78055" lon="5.14253">
        <ele>384.35</ele>
        <time>2019-03-20T14:05:46.000Z</time>
      </trkpt>
      <trkpt lat="44.78065" lon="5.14254">
        <ele>385.42</ele>
        <time>2019-03-20T14:05:59.000Z</time>
      </trkpt>
      <trkpt lat="44.78074" lon="5.14255">
        <ele>386.47</ele>
        <time>2019-03-20T14:06:09.000Z</time>
      </trkpt>
      <trkpt lat="44.78083" lon="5.14256">
        <ele>387.47</ele>
        <time>2019-03-20T14:06:22.000Z</time>
      </trkpt>
      <trkpt lat="44.78092" lon="5.14258">
        <ele>388.51</ele>
        <time>2019-03-20T14:06:34.000Z</time>
      </trkpt>
      <trkpt lat="44.78101" lon="5.14262">
        <ele>389.5</ele>
        <time>2019-03-20T14:06:46.000Z</time>
      </trkpt>
      <trkpt lat="44.78111" lon="5.14265">
        <ele>390.68</ele>
        <time>2019-03-20T14:06:56.000Z</time>
      </trkpt>
      <trkpt lat="44.78119" lon="5.14269">
        <ele>391.64</ele>
        <time>2019-03-20T14:07:06.000Z</time>
      </trkpt>
      <trkpt lat="44.78128" lon="5.14274">
        <ele>392.69</ele>
        <time>2019-03-20T14:07:16.000Z</time>
      </trkpt>
      <trkpt lat="44.78138" lon="5.14278">
        <ele>393.83</ele>
        <time>2019-03-20T14:07:26.000Z</time>
      </trkpt>
      <trkpt lat="44.78147" lon="5.14285">
        <ele>394.46</ele>
        <time>2019-03-20T14:07:36.000Z</time>
      </trkpt>
      <trkpt lat="44.78157" lon="5.1429">
        <ele>395.3</ele>
        <time>2019-03-20T14:07:46.000Z</time>
      </trkpt>
      <trkpt lat="44.78166" lon="5.14295">
        <ele>395.79</ele>
        <time>2019-03-20T14:07:56.000Z</time>
      </trkpt>
      <trkpt lat="44.78175" lon="5.14299">
        <ele>396.18</ele>
        <time>2019-03-20T14:08:06.000Z</time>
      </trkpt>
      <trkpt lat="44.78184" lon="5.14303">
        <ele>396.35</ele>
        <time>2019-03-20T14:08:17.000Z</time>
      </trkpt>
      <trkpt lat="44.78193" lon="5.14304">
        <ele>396.68</ele>
        <time>2019-03-20T14:08:28.000Z</time>
      </trkpt>
      <trkpt lat="44.78203" lon="5.14302">
        <ele>397.24</ele>
        <time>2019-03-20T14:08:40.000Z</time>
      </trkpt>
      <trkpt lat="44.78214" lon="5.14298">
        <ele>398.11</ele>
        <time>2019-03-20T14:08:50.000Z</time>
      </trkpt>
      <trkpt lat="44.78225" lon="5.14293">
        <ele>399.09</ele>
        <time>2019-03-20T14:09:00.000Z</time>
      </trkpt>
      <trkpt lat="44.78238" lon="5.14286">
        <ele>400.52</ele>
        <time>2019-03-20T14:09:10.000Z</time>
      </trkpt>
      <trkpt lat="44.78249" lon="5.14281">
        <ele>401.97</ele>
        <time>2019-03-20T14:09:20.000Z</time>
      </trkpt>
      <trkpt lat="44.7826" lon="5.14274">
        <ele>403.6</ele>
        <time>2019-03-20T14:09:30.000Z</time>
      </trkpt>
      <trkpt lat="44.78272" lon="5.14269">
        <ele>405.27</ele>
        <time>2019-03-20T14:09:40.000Z</time>
      </trkpt>
      <trkpt lat="44.78285" lon="5.14263">
        <ele>407.08</ele>
        <time>2019-03-20T14:09:50.000Z</time>
      </trkpt>
      <trkpt lat="44.78298" lon="5.14257">
        <ele>408.79</ele>
        <time>2019-03-20T14:10:00.000Z</time>
      </trkpt>
      <trkpt lat="44.7831" lon="5.14252">
        <ele>410.34</ele>
        <time>2019-03-20T14:10:10.000Z</time>
      </trkpt>
      <trkpt lat="44.7832" lon="5.14251">
        <ele>411.09</ele>
        <time>2019-03-20T14:10:20.000Z</time>
      </trkpt>
      <trkpt lat="44.78332" lon="5.14247">
        <ele>412.28</ele>
        <time>2019-03-20T14:10:30.000Z</time>
      </trkpt>
      <trkpt lat="44.78344" lon="5.14243">
        <ele>413.19</ele>
        <time>2019-03-20T14:10:40.000Z</time>
      </trkpt>
      <trkpt lat="44.78355" lon="5.14238">
        <ele>414.14</ele>
        <time>2019-03-20T14:10:50.000Z</time>
      </trkpt>
      <trkpt lat="44.78366" lon="5.14236">
        <ele>414.57</ele>
        <time>2019-03-20T14:11:00.000Z</time>
      </trkpt>
      <trkpt lat="44.78378" lon="5.14234">
        <ele>415.09</ele>
        <time>2019-03-20T14:11:10.000Z</time>
      </trkpt>
      <trkpt lat="44.7839" lon="5.14234">
        <ele>415.34</ele>
        <time>2019-03-20T14:11:20.000Z</time>
      </trkpt>
      <trkpt lat="44.78405" lon="5.14233">
        <ele>415.84</ele>
        <time>2019-03-20T14:11:30.000Z</time>
      </trkpt>
      <trkpt lat="44.78414" lon="5.14234">
        <ele>416.11</ele>
        <time>2019-03-20T14:11:40.000Z</time>
      </trkpt>
      <trkpt lat="44.78426" lon="5.14235">
        <ele>416.66</ele>
        <time>2019-03-20T14:11:50.000Z</time>
      </trkpt>
      <trkpt lat="44.78438" lon="5.14236">
        <ele>417.37</ele>
        <time>2019-03-20T14:12:00.000Z</time>
      </trkpt>
      <trkpt lat="44.78451" lon="5.14233">
        <ele>418.45</ele>
        <time>2019-03-20T14:12:10.000Z</time>
      </trkpt>
      <trkpt lat="44.78462" lon="5.14231">
        <ele>419.39</ele>
        <time>2019-03-20T14:12:20.000Z</time>
      </trkpt>
      <trkpt lat="44.78475" lon="5.14226">
        <ele>420.36</ele>
        <time>2019-03-20T14:12:30.000Z</time>
      </trkpt>
      <trkpt lat="44.78487" lon="5.14224">
        <ele>421.12</ele>
        <time>2019-03-20T14:12:40.000Z</time>
      </trkpt>
      <trkpt lat="44.78501" lon="5.1422">
        <ele>421.77</ele>
        <time>2019-03-20T14:12:50.000Z</time>
      </trkpt>
      <trkpt lat="44.78514" lon="5.14217">
        <ele>422.28</ele>
        <time>2019-03-20T14:13:00.000Z</time>
      </trkpt>
      <trkpt lat="44.78526" lon="5.14213">
        <ele>422.72</ele>
        <time>2019-03-20T14:13:10.000Z</time>
      </trkpt>
      <trkpt lat="44.78539" lon="5.1421">
        <ele>423.25</ele>
        <time>2019-03-20T14:13:20.000Z</time>
      </trkpt>
      <trkpt lat="44.7855" lon="5.14207">
        <ele>423.72</ele>
        <time>2019-03-20T14:13:30.000Z</time>
      </trkpt>
      <trkpt lat="44.78563" lon="5.14204">
        <ele>424.26</ele>
        <time>2019-03-20T14:13:40.000Z</time>
      </trkpt>
      <trkpt lat="44.78576" lon="5.14201">
        <ele>424.83</ele>
        <time>2019-03-20T14:13:50.000Z</time>
      </trkpt>
      <trkpt lat="44.78588" lon="5.14197">
        <ele>425.35</ele>
        <time>2019-03-20T14:14:00.000Z</time>
      </trkpt>
      <trkpt lat="44.78601" lon="5.14194">
        <ele>425.95</ele>
        <time>2019-03-20T14:14:10.000Z</time>
      </trkpt>
      <trkpt lat="44.78616" lon="5.14191">
        <ele>426.54</ele>
        <time>2019-03-20T14:14:20.000Z</time>
      </trkpt>
      <trkpt lat="44.78629" lon="5.1419">
        <ele>427.03</ele>
        <time>2019-03-20T14:14:30.000Z</time>
      </trkpt>
      <trkpt lat="44.78641" lon="5.1419">
        <ele>427.35</ele>
        <time>2019-03-20T14:14:40.000Z</time>
      </trkpt>
      <trkpt lat="44.78651" lon="5.14191">
        <ele>427.53</ele>
        <time>2019-03-20T14:14:50.000Z</time>
      </trkpt>
      <trkpt lat="44.78662" lon="5.1419">
        <ele>427.8</ele>
        <time>2019-03-20T14:15:00.000Z</time>
      </trkpt>
      <trkpt lat="44.78671" lon="5.14189">
        <ele>428.03</ele>
        <time>2019-03-20T14:19:11.000Z</time>
      </trkpt>
      <trkpt lat="44.78684" lon="5.14192">
        <ele>427.72</ele>
        <time>2019-03-20T14:19:21.000Z</time>
      </trkpt>
      <trkpt lat="44.78694" lon="5.1419">
        <ele>428.02</ele>
        <time>2019-03-20T14:19:31.000Z</time>
      </trkpt>
      <trkpt lat="44.78705" lon="5.14188">
        <ele>428.21</ele>
        <time>2019-03-20T14:19:41.000Z</time>
      </trkpt>
      <trkpt lat="44.78718" lon="5.14186">
        <ele>428.3</ele>
        <time>2019-03-20T14:19:51.000Z</time>
      </trkpt>
      <trkpt lat="44.78727" lon="5.14184">
        <ele>428.48</ele>
        <time>2019-03-20T14:20:01.000Z</time>
      </trkpt>
      <trkpt lat="44.78737" lon="5.14182">
        <ele>428.64</ele>
        <time>2019-03-20T14:20:12.000Z</time>
      </trkpt>
      <trkpt lat="44.7875" lon="5.1418">
        <ele>428.79</ele>
        <time>2019-03-20T14:20:22.000Z</time>
      </trkpt>
      <trkpt lat="44.78763" lon="5.14176">
        <ele>429.29</ele>
        <time>2019-03-20T14:20:32.000Z</time>
      </trkpt>
      <trkpt lat="44.78774" lon="5.14177">
        <ele>429.33</ele>
        <time>2019-03-20T14:20:42.000Z</time>
      </trkpt>
      <trkpt lat="44.78784" lon="5.14177">
        <ele>429.43</ele>
        <time>2019-03-20T14:20:52.000Z</time>
      </trkpt>
      <trkpt lat="44.78795" lon="5.14174">
        <ele>429.83</ele>
        <time>2019-03-20T14:21:02.000Z</time>
      </trkpt>
      <trkpt lat="44.78806" lon="5.14173">
        <ele>430.04</ele>
        <time>2019-03-20T14:21:12.000Z</time>
      </trkpt>
      <trkpt lat="44.78817" lon="5.14171">
        <ele>430.33</ele>
        <time>2019-03-20T14:21:22.000Z</time>
      </trkpt>
      <trkpt lat="44.78829" lon="5.14171">
        <ele>430.65</ele>
        <time>2019-03-20T14:21:32.000Z</time>
      </trkpt>
      <trkpt lat="44.78842" lon="5.14169">
        <ele>431.12</ele>
        <time>2019-03-20T14:21:42.000Z</time>
      </trkpt>
      <trkpt lat="44.78857" lon="5.14168">
        <ele>431.71</ele>
        <time>2019-03-20T14:21:52.000Z</time>
      </trkpt>
      <trkpt lat="44.78871" lon="5.14165">
        <ele>432.45</ele>
        <time>2019-03-20T14:22:02.000Z</time>
      </trkpt>
      <trkpt lat="44.78884" lon="5.14163">
        <ele>433.15</ele>
        <time>2019-03-20T14:22:12.000Z</time>
      </trkpt>
      <trkpt lat="44.78896" lon="5.14161">
        <ele>433.71</ele>
        <time>2019-03-20T14:22:22.000Z</time>
      </trkpt>
      <trkpt lat="44.78907" lon="5.14159">
        <ele>434.17</ele>
        <time>2019-03-20T14:22:32.000Z</time>
      </trkpt>
      <trkpt lat="44.7892" lon="5.14158">
        <ele>434.53</ele>
        <time>2019-03-20T14:22:42.000Z</time>
      </trkpt>
      <trkpt lat="44.78935" lon="5.14157">
        <ele>435.02</ele>
        <time>2019-03-20T14:22:52.000Z</time>
      </trkpt>
      <trkpt lat="44.78947" lon="5.14155">
        <ele>435.56</ele>
        <time>2019-03-20T14:23:02.000Z</time>
      </trkpt>
      <trkpt lat="44.78959" lon="5.14153">
        <ele>436</ele>
        <time>2019-03-20T14:23:12.000Z</time>
      </trkpt>
      <trkpt lat="44.78971" lon="5.14148">
        <ele>436.47</ele>
        <time>2019-03-20T14:23:22.000Z</time>
      </trkpt>
      <trkpt lat="44.78983" lon="5.14145">
        <ele>436.59</ele>
        <time>2019-03-20T14:23:32.000Z</time>
      </trkpt>
      <trkpt lat="44.78993" lon="5.14143">
        <ele>436.47</ele>
        <time>2019-03-20T14:23:42.000Z</time>
      </trkpt>
      <trkpt lat="44.79004" lon="5.14137">
        <ele>436.24</ele>
        <time>2019-03-20T14:23:52.000Z</time>
      </trkpt>
      <trkpt lat="44.79016" lon="5.14132">
        <ele>435.73</ele>
        <time>2019-03-20T14:24:02.000Z</time>
      </trkpt>
      <trkpt lat="44.79028" lon="5.14125">
        <ele>435.46</ele>
        <time>2019-03-20T14:24:12.000Z</time>
      </trkpt>
      <trkpt lat="44.7904" lon="5.14115">
        <ele>435.68</ele>
        <time>2019-03-20T14:24:22.000Z</time>
      </trkpt>
      <trkpt lat="44.7905" lon="5.14107">
        <ele>436.26</ele>
        <time>2019-03-20T14:24:32.000Z</time>
      </trkpt>
      <trkpt lat="44.7906" lon="5.14099">
        <ele>436.86</ele>
        <time>2019-03-20T14:24:42.000Z</time>
      </trkpt>
      <trkpt lat="44.79071" lon="5.14088">
        <ele>438.01</ele>
        <time>2019-03-20T14:24:52.000Z</time>
      </trkpt>
      <trkpt lat="44.79083" lon="5.14076">
        <ele>438.89</ele>
        <time>2019-03-20T14:25:02.000Z</time>
      </trkpt>
      <trkpt lat="44.79095" lon="5.14069">
        <ele>438.78</ele>
        <time>2019-03-20T14:25:12.000Z</time>
      </trkpt>
      <trkpt lat="44.79104" lon="5.14067">
        <ele>438.07</ele>
        <time>2019-03-20T14:26:01.000Z</time>
      </trkpt>
      <trkpt lat="44.79109" lon="5.14056">
        <ele>438.67</ele>
        <time>2019-03-20T14:26:12.000Z</time>
      </trkpt>
      <trkpt lat="44.79118" lon="5.14049">
        <ele>438.42</ele>
        <time>2019-03-20T14:26:22.000Z</time>
      </trkpt>
      <trkpt lat="44.79126" lon="5.14041">
        <ele>438.55</ele>
        <time>2019-03-20T14:26:39.000Z</time>
      </trkpt>
      <trkpt lat="44.79137" lon="5.14032">
        <ele>438.72</ele>
        <time>2019-03-20T14:26:49.000Z</time>
      </trkpt>
      <trkpt lat="44.79149" lon="5.14025">
        <ele>439.09</ele>
        <time>2019-03-20T14:26:59.000Z</time>
      </trkpt>
      <trkpt lat="44.79159" lon="5.14018">
        <ele>439.76</ele>
        <time>2019-03-20T14:27:09.000Z</time>
      </trkpt>
      <trkpt lat="44.79169" lon="5.1401">
        <ele>440.86</ele>
        <time>2019-03-20T14:27:19.000Z</time>
      </trkpt>
      <trkpt lat="44.79179" lon="5.14001">
        <ele>442.05</ele>
        <time>2019-03-20T14:27:29.000Z</time>
      </trkpt>
      <trkpt lat="44.79188" lon="5.13991">
        <ele>443.27</ele>
        <time>2019-03-20T14:27:39.000Z</time>
      </trkpt>
      <trkpt lat="44.79197" lon="5.13981">
        <ele>444.38</ele>
        <time>2019-03-20T14:27:49.000Z</time>
      </trkpt>
      <trkpt lat="44.79207" lon="5.13971">
        <ele>445.48</ele>
        <time>2019-03-20T14:27:59.000Z</time>
      </trkpt>
      <trkpt lat="44.79216" lon="5.13962">
        <ele>446.37</ele>
        <time>2019-03-20T14:28:09.000Z</time>
      </trkpt>
      <trkpt lat="44.79226" lon="5.13958">
        <ele>447.04</ele>
        <time>2019-03-20T14:28:19.000Z</time>
      </trkpt>
      <trkpt lat="44.79235" lon="5.1396">
        <ele>447.23</ele>
        <time>2019-03-20T14:28:31.000Z</time>
      </trkpt>
      <trkpt lat="44.79244" lon="5.13959">
        <ele>447.7</ele>
        <time>2019-03-20T14:30:05.000Z</time>
      </trkpt>
      <trkpt lat="44.79244" lon="5.13957">
        <ele>447.81</ele>
        <time>2019-03-20T14:31:06.000Z</time>
      </trkpt>
    </trkseg>
  </trk>
</gpx>